﻿<?xml version="1.0" encoding="UTF-8" standalone="no" ?>
<gpx xmlns="http://www.topografix.com/GPX/1/1" creator="CompeGPS" version="1.1" xmlns:xsi="http://www.w3.org/2001/XMLSchema-instance" xsi:schemaLocation="http://www.topografix.com/GPX/1/1 http://www.topografix.com/GPX/1/1/gpx.xsd http://www.garmin.com/xmlschemas/GpxExtensions/v3 http://www.garmin.com/xmlschemas/GpxExtensionsv3.xsd http://www.garmin.com/xmlschemas/TrackPointExtension/v1 http://www.garmin.com/xmlschemas/TrackPointExtensionv1.xsd" xmlns:gpxtpx="http://www.garmin.com/xmlschemas/TrackPointExtension/v1">
  <metadata>
    <link href="http://www.compegps.com">
      <text>CompeGPS TEAM, SL</text>
    </link>
    <time>2019-08-07T11:21:01Z</time>
    <bounds maxlat="42.943584" maxlon="-0.676570" minlat="42.918220" minlon="-0.729618"/>
  </metadata>
  <trk>
    <name>table-trois-rois</name>
    <userMyTwoNav></userMyTwoNav>
    <serialNumber></serialNumber>
    <trkseg>
      <trkpt lat="42.941481" lon="-0.676570">
        <ele>1102.3</ele>
        <time>2019-08-05T11:07:39Z</time>
      </trkpt>
      <trkpt lat="42.941405" lon="-0.676573">
        <ele>1090.6</ele>
        <time>2019-08-05T11:08:20Z</time>
      </trkpt>
      <trkpt lat="42.941316" lon="-0.676592">
        <ele>1090.3</ele>
        <time>2019-08-05T11:08:30Z</time>
      </trkpt>
      <trkpt lat="42.941221" lon="-0.676614">
        <ele>1089.9</ele>
        <time>2019-08-05T11:08:40Z</time>
      </trkpt>
      <trkpt lat="42.941143" lon="-0.676681">
        <ele>1088.7</ele>
        <time>2019-08-05T11:08:49Z</time>
      </trkpt>
      <trkpt lat="42.941140" lon="-0.676820">
        <ele>1088.0</ele>
        <time>2019-08-05T11:09:01Z</time>
      </trkpt>
      <trkpt lat="42.941151" lon="-0.676945">
        <ele>1088.2</ele>
        <time>2019-08-05T11:09:08Z</time>
      </trkpt>
      <trkpt lat="42.941172" lon="-0.677069">
        <ele>1088.7</ele>
        <time>2019-08-05T11:09:16Z</time>
      </trkpt>
      <trkpt lat="42.941152" lon="-0.677191">
        <ele>1088.9</ele>
        <time>2019-08-05T11:09:23Z</time>
      </trkpt>
      <trkpt lat="42.941211" lon="-0.677266">
        <ele>1089.0</ele>
        <time>2019-08-05T11:09:31Z</time>
      </trkpt>
      <trkpt lat="42.941278" lon="-0.677376">
        <ele>1090.8</ele>
        <time>2019-08-05T11:09:41Z</time>
      </trkpt>
      <trkpt lat="42.941319" lon="-0.677493">
        <ele>1091.4</ele>
        <time>2019-08-05T11:09:49Z</time>
      </trkpt>
      <trkpt lat="42.941353" lon="-0.677614">
        <ele>1091.6</ele>
        <time>2019-08-05T11:09:57Z</time>
      </trkpt>
      <trkpt lat="42.941388" lon="-0.677710">
        <ele>1092.2</ele>
        <time>2019-08-05T11:10:05Z</time>
      </trkpt>
      <trkpt lat="42.941472" lon="-0.677798">
        <ele>1092.3</ele>
        <time>2019-08-05T11:10:13Z</time>
      </trkpt>
      <trkpt lat="42.941563" lon="-0.677865">
        <ele>1092.7</ele>
        <time>2019-08-05T11:10:21Z</time>
      </trkpt>
      <trkpt lat="42.941638" lon="-0.677915">
        <ele>1093.3</ele>
        <time>2019-08-05T11:11:24Z</time>
      </trkpt>
      <trkpt lat="42.941703" lon="-0.678001">
        <ele>1093.4</ele>
        <time>2019-08-05T11:11:33Z</time>
      </trkpt>
      <trkpt lat="42.941762" lon="-0.678109">
        <ele>1093.7</ele>
        <time>2019-08-05T11:11:40Z</time>
      </trkpt>
      <trkpt lat="42.941792" lon="-0.678204">
        <ele>1094.3</ele>
        <time>2019-08-05T11:11:52Z</time>
      </trkpt>
      <trkpt lat="42.941864" lon="-0.678269">
        <ele>1094.6</ele>
        <time>2019-08-05T11:12:03Z</time>
      </trkpt>
      <trkpt lat="42.941928" lon="-0.678363">
        <ele>1094.9</ele>
        <time>2019-08-05T11:12:11Z</time>
      </trkpt>
      <trkpt lat="42.941942" lon="-0.678478">
        <ele>1095.3</ele>
        <time>2019-08-05T11:12:20Z</time>
      </trkpt>
      <trkpt lat="42.941993" lon="-0.678579">
        <ele>1095.5</ele>
        <time>2019-08-05T11:12:28Z</time>
      </trkpt>
      <trkpt lat="42.942068" lon="-0.678676">
        <ele>1096.2</ele>
        <time>2019-08-05T11:12:37Z</time>
      </trkpt>
      <trkpt lat="42.942096" lon="-0.678799">
        <ele>1096.9</ele>
        <time>2019-08-05T11:12:46Z</time>
      </trkpt>
      <trkpt lat="42.942174" lon="-0.678887">
        <ele>1096.9</ele>
        <time>2019-08-05T11:12:54Z</time>
      </trkpt>
      <trkpt lat="42.942257" lon="-0.678956">
        <ele>1097.4</ele>
        <time>2019-08-05T11:13:02Z</time>
      </trkpt>
      <trkpt lat="42.942352" lon="-0.679028">
        <ele>1098.1</ele>
        <time>2019-08-05T11:13:16Z</time>
      </trkpt>
      <trkpt lat="42.942449" lon="-0.679110">
        <ele>1098.9</ele>
        <time>2019-08-05T11:13:27Z</time>
      </trkpt>
      <trkpt lat="42.942541" lon="-0.679206">
        <ele>1099.4</ele>
        <time>2019-08-05T11:13:36Z</time>
      </trkpt>
      <trkpt lat="42.942634" lon="-0.679288">
        <ele>1099.8</ele>
        <time>2019-08-05T11:13:45Z</time>
      </trkpt>
      <trkpt lat="42.942711" lon="-0.679395">
        <ele>1100.3</ele>
        <time>2019-08-05T11:13:53Z</time>
      </trkpt>
      <trkpt lat="42.942760" lon="-0.679519">
        <ele>1100.5</ele>
        <time>2019-08-05T11:14:01Z</time>
      </trkpt>
      <trkpt lat="42.942746" lon="-0.679657">
        <ele>1100.6</ele>
        <time>2019-08-05T11:14:11Z</time>
      </trkpt>
      <trkpt lat="42.942826" lon="-0.679761">
        <ele>1100.6</ele>
        <time>2019-08-05T11:14:23Z</time>
      </trkpt>
      <trkpt lat="42.942904" lon="-0.679880">
        <ele>1103.7</ele>
        <time>2019-08-05T11:14:39Z</time>
      </trkpt>
      <trkpt lat="42.943003" lon="-0.679955">
        <ele>1107.1</ele>
        <time>2019-08-05T11:14:55Z</time>
      </trkpt>
      <trkpt lat="42.943117" lon="-0.680013">
        <ele>1110.8</ele>
        <time>2019-08-05T11:15:13Z</time>
      </trkpt>
      <trkpt lat="42.943219" lon="-0.680059">
        <ele>1114.0</ele>
        <time>2019-08-05T11:15:32Z</time>
      </trkpt>
      <trkpt lat="42.943302" lon="-0.680207">
        <ele>1117.4</ele>
        <time>2019-08-05T11:15:53Z</time>
      </trkpt>
      <trkpt lat="42.943323" lon="-0.680326">
        <ele>1120.9</ele>
        <time>2019-08-05T11:16:09Z</time>
      </trkpt>
      <trkpt lat="42.943321" lon="-0.680460">
        <ele>1128.1</ele>
        <time>2019-08-05T11:16:47Z</time>
      </trkpt>
      <trkpt lat="42.943394" lon="-0.680606">
        <ele>1132.0</ele>
        <time>2019-08-05T11:17:03Z</time>
      </trkpt>
      <trkpt lat="42.943364" lon="-0.680755">
        <ele>1139.8</ele>
        <time>2019-08-05T11:17:41Z</time>
      </trkpt>
      <trkpt lat="42.943261" lon="-0.680772">
        <ele>1142.6</ele>
        <time>2019-08-05T11:17:55Z</time>
      </trkpt>
      <trkpt lat="42.943145" lon="-0.680795">
        <ele>1145.7</ele>
        <time>2019-08-05T11:18:13Z</time>
      </trkpt>
      <trkpt lat="42.943069" lon="-0.680795">
        <ele>1148.6</ele>
        <time>2019-08-05T11:18:31Z</time>
      </trkpt>
      <trkpt lat="42.943009" lon="-0.680808">
        <ele>1152.0</ele>
        <time>2019-08-05T11:18:49Z</time>
      </trkpt>
      <trkpt lat="42.942921" lon="-0.680758">
        <ele>1154.5</ele>
        <time>2019-08-05T11:19:04Z</time>
      </trkpt>
      <trkpt lat="42.942891" lon="-0.680841">
        <ele>1157.4</ele>
        <time>2019-08-05T11:19:20Z</time>
      </trkpt>
      <trkpt lat="42.942798" lon="-0.680800">
        <ele>1162.2</ele>
        <time>2019-08-05T11:19:52Z</time>
      </trkpt>
      <trkpt lat="42.942724" lon="-0.680723">
        <ele>1170.8</ele>
        <time>2019-08-05T11:20:44Z</time>
      </trkpt>
      <trkpt lat="42.942682" lon="-0.680563">
        <ele>1173.2</ele>
        <time>2019-08-05T11:20:58Z</time>
      </trkpt>
      <trkpt lat="42.942578" lon="-0.680577">
        <ele>1174.7</ele>
        <time>2019-08-05T11:21:12Z</time>
      </trkpt>
      <trkpt lat="42.942482" lon="-0.680676">
        <ele>1176.7</ele>
        <time>2019-08-05T11:21:27Z</time>
      </trkpt>
      <trkpt lat="42.942454" lon="-0.680782">
        <ele>1181.0</ele>
        <time>2019-08-05T11:21:48Z</time>
      </trkpt>
      <trkpt lat="42.942540" lon="-0.680855">
        <ele>1185.4</ele>
        <time>2019-08-05T11:22:08Z</time>
      </trkpt>
      <trkpt lat="42.942604" lon="-0.680989">
        <ele>1188.9</ele>
        <time>2019-08-05T11:22:27Z</time>
      </trkpt>
      <trkpt lat="42.942599" lon="-0.681110">
        <ele>1192.9</ele>
        <time>2019-08-05T11:22:49Z</time>
      </trkpt>
      <trkpt lat="42.942653" lon="-0.681236">
        <ele>1197.1</ele>
        <time>2019-08-05T11:23:09Z</time>
      </trkpt>
      <trkpt lat="42.942665" lon="-0.681363">
        <ele>1201.1</ele>
        <time>2019-08-05T11:23:29Z</time>
      </trkpt>
      <trkpt lat="42.942551" lon="-0.681406">
        <ele>1205.3</ele>
        <time>2019-08-05T11:23:49Z</time>
      </trkpt>
      <trkpt lat="42.942491" lon="-0.681505">
        <ele>1208.3</ele>
        <time>2019-08-05T11:24:06Z</time>
      </trkpt>
      <trkpt lat="42.942450" lon="-0.681619">
        <ele>1212.2</ele>
        <time>2019-08-05T11:24:26Z</time>
      </trkpt>
      <trkpt lat="42.942492" lon="-0.681743">
        <ele>1221.9</ele>
        <time>2019-08-05T11:25:08Z</time>
      </trkpt>
      <trkpt lat="42.942506" lon="-0.681815">
        <ele>1226.2</ele>
        <time>2019-08-05T11:25:30Z</time>
      </trkpt>
      <trkpt lat="42.942606" lon="-0.681767">
        <ele>1230.6</ele>
        <time>2019-08-05T11:25:50Z</time>
      </trkpt>
      <trkpt lat="42.942616" lon="-0.681841">
        <ele>1238.5</ele>
        <time>2019-08-05T11:26:28Z</time>
      </trkpt>
      <trkpt lat="42.942585" lon="-0.681954">
        <ele>1241.7</ele>
        <time>2019-08-05T11:26:42Z</time>
      </trkpt>
      <trkpt lat="42.942559" lon="-0.682082">
        <ele>1244.8</ele>
        <time>2019-08-05T11:26:57Z</time>
      </trkpt>
      <trkpt lat="42.942588" lon="-0.682238">
        <ele>1247.4</ele>
        <time>2019-08-05T11:27:13Z</time>
      </trkpt>
      <trkpt lat="42.942624" lon="-0.682364">
        <ele>1249.8</ele>
        <time>2019-08-05T11:27:31Z</time>
      </trkpt>
      <trkpt lat="42.942674" lon="-0.682540">
        <ele>1253.0</ele>
        <time>2019-08-05T11:27:49Z</time>
      </trkpt>
      <trkpt lat="42.942737" lon="-0.682674">
        <ele>1257.0</ele>
        <time>2019-08-05T11:28:06Z</time>
      </trkpt>
      <trkpt lat="42.942772" lon="-0.682798">
        <ele>1261.0</ele>
        <time>2019-08-05T11:28:23Z</time>
      </trkpt>
      <trkpt lat="42.942787" lon="-0.682932">
        <ele>1264.7</ele>
        <time>2019-08-05T11:28:40Z</time>
      </trkpt>
      <trkpt lat="42.942829" lon="-0.683093">
        <ele>1268.7</ele>
        <time>2019-08-05T11:28:57Z</time>
      </trkpt>
      <trkpt lat="42.942847" lon="-0.683172">
        <ele>1271.6</ele>
        <time>2019-08-05T11:29:15Z</time>
      </trkpt>
      <trkpt lat="42.942808" lon="-0.683397">
        <ele>1275.0</ele>
        <time>2019-08-05T11:29:33Z</time>
      </trkpt>
      <trkpt lat="42.942833" lon="-0.683539">
        <ele>1278.8</ele>
        <time>2019-08-05T11:29:52Z</time>
      </trkpt>
      <trkpt lat="42.942946" lon="-0.683659">
        <ele>1283.0</ele>
        <time>2019-08-05T11:30:12Z</time>
      </trkpt>
      <trkpt lat="42.942998" lon="-0.683784">
        <ele>1286.8</ele>
        <time>2019-08-05T11:30:31Z</time>
      </trkpt>
      <trkpt lat="42.943044" lon="-0.683946">
        <ele>1290.3</ele>
        <time>2019-08-05T11:30:48Z</time>
      </trkpt>
      <trkpt lat="42.943047" lon="-0.684098">
        <ele>1293.7</ele>
        <time>2019-08-05T11:31:05Z</time>
      </trkpt>
      <trkpt lat="42.943026" lon="-0.684277">
        <ele>1296.8</ele>
        <time>2019-08-05T11:31:22Z</time>
      </trkpt>
      <trkpt lat="42.942978" lon="-0.684443">
        <ele>1300.8</ele>
        <time>2019-08-05T11:31:40Z</time>
      </trkpt>
      <trkpt lat="42.942967" lon="-0.684546">
        <ele>1304.2</ele>
        <time>2019-08-05T11:31:57Z</time>
      </trkpt>
      <trkpt lat="42.943027" lon="-0.684690">
        <ele>1307.6</ele>
        <time>2019-08-05T11:32:14Z</time>
      </trkpt>
      <trkpt lat="42.943092" lon="-0.684871">
        <ele>1309.0</ele>
        <time>2019-08-05T11:32:27Z</time>
      </trkpt>
      <trkpt lat="42.943139" lon="-0.685100">
        <ele>1310.3</ele>
        <time>2019-08-05T11:32:41Z</time>
      </trkpt>
      <trkpt lat="42.943138" lon="-0.685293">
        <ele>1311.1</ele>
        <time>2019-08-05T11:32:53Z</time>
      </trkpt>
      <trkpt lat="42.943134" lon="-0.685458">
        <ele>1310.8</ele>
        <time>2019-08-05T11:33:03Z</time>
      </trkpt>
      <trkpt lat="42.943105" lon="-0.685664">
        <ele>1310.2</ele>
        <time>2019-08-05T11:33:13Z</time>
      </trkpt>
      <trkpt lat="42.943063" lon="-0.685831">
        <ele>1309.8</ele>
        <time>2019-08-05T11:33:25Z</time>
      </trkpt>
      <trkpt lat="42.943042" lon="-0.686017">
        <ele>1310.5</ele>
        <time>2019-08-05T11:33:36Z</time>
      </trkpt>
      <trkpt lat="42.942947" lon="-0.686198">
        <ele>1312.0</ele>
        <time>2019-08-05T11:33:48Z</time>
      </trkpt>
      <trkpt lat="42.942909" lon="-0.686349">
        <ele>1312.8</ele>
        <time>2019-08-05T11:33:57Z</time>
      </trkpt>
      <trkpt lat="42.942904" lon="-0.686478">
        <ele>1313.7</ele>
        <time>2019-08-05T11:34:07Z</time>
      </trkpt>
      <trkpt lat="42.942847" lon="-0.686619">
        <ele>1314.5</ele>
        <time>2019-08-05T11:34:17Z</time>
      </trkpt>
      <trkpt lat="42.942809" lon="-0.686760">
        <ele>1315.2</ele>
        <time>2019-08-05T11:34:27Z</time>
      </trkpt>
      <trkpt lat="42.942778" lon="-0.686902">
        <ele>1316.2</ele>
        <time>2019-08-05T11:34:37Z</time>
      </trkpt>
      <trkpt lat="42.942770" lon="-0.687061">
        <ele>1317.8</ele>
        <time>2019-08-05T11:34:51Z</time>
      </trkpt>
      <trkpt lat="42.942681" lon="-0.687217">
        <ele>1321.1</ele>
        <time>2019-08-05T11:35:08Z</time>
      </trkpt>
      <trkpt lat="42.942657" lon="-0.687409">
        <ele>1324.5</ele>
        <time>2019-08-05T11:35:25Z</time>
      </trkpt>
      <trkpt lat="42.942594" lon="-0.687553">
        <ele>1326.7</ele>
        <time>2019-08-05T11:35:38Z</time>
      </trkpt>
      <trkpt lat="42.942520" lon="-0.687705">
        <ele>1328.8</ele>
        <time>2019-08-05T11:35:52Z</time>
      </trkpt>
      <trkpt lat="42.942464" lon="-0.687828">
        <ele>1331.6</ele>
        <time>2019-08-05T11:36:05Z</time>
      </trkpt>
      <trkpt lat="42.942459" lon="-0.687976">
        <ele>1334.2</ele>
        <time>2019-08-05T11:36:18Z</time>
      </trkpt>
      <trkpt lat="42.942416" lon="-0.688091">
        <ele>1335.8</ele>
        <time>2019-08-05T11:36:27Z</time>
      </trkpt>
      <trkpt lat="42.942340" lon="-0.688215">
        <ele>1337.6</ele>
        <time>2019-08-05T11:36:37Z</time>
      </trkpt>
      <trkpt lat="42.942326" lon="-0.688347">
        <ele>1339.2</ele>
        <time>2019-08-05T11:36:45Z</time>
      </trkpt>
      <trkpt lat="42.942329" lon="-0.688478">
        <ele>1340.7</ele>
        <time>2019-08-05T11:36:54Z</time>
      </trkpt>
      <trkpt lat="42.942319" lon="-0.688603">
        <ele>1342.0</ele>
        <time>2019-08-05T11:37:02Z</time>
      </trkpt>
      <trkpt lat="42.942298" lon="-0.688725">
        <ele>1343.0</ele>
        <time>2019-08-05T11:37:09Z</time>
      </trkpt>
      <trkpt lat="42.942312" lon="-0.688844">
        <ele>1344.4</ele>
        <time>2019-08-05T11:37:17Z</time>
      </trkpt>
      <trkpt lat="42.942308" lon="-0.688982">
        <ele>1345.8</ele>
        <time>2019-08-05T11:37:26Z</time>
      </trkpt>
      <trkpt lat="42.942309" lon="-0.689101">
        <ele>1347.2</ele>
        <time>2019-08-05T11:37:35Z</time>
      </trkpt>
      <trkpt lat="42.942247" lon="-0.689201">
        <ele>1348.0</ele>
        <time>2019-08-05T11:37:43Z</time>
      </trkpt>
      <trkpt lat="42.942177" lon="-0.689319">
        <ele>1348.9</ele>
        <time>2019-08-05T11:37:53Z</time>
      </trkpt>
      <trkpt lat="42.942133" lon="-0.689446">
        <ele>1350.2</ele>
        <time>2019-08-05T11:38:02Z</time>
      </trkpt>
      <trkpt lat="42.942127" lon="-0.689602">
        <ele>1351.8</ele>
        <time>2019-08-05T11:38:12Z</time>
      </trkpt>
      <trkpt lat="42.942120" lon="-0.689732">
        <ele>1352.7</ele>
        <time>2019-08-05T11:38:19Z</time>
      </trkpt>
      <trkpt lat="42.942092" lon="-0.689856">
        <ele>1354.1</ele>
        <time>2019-08-05T11:38:27Z</time>
      </trkpt>
      <trkpt lat="42.942042" lon="-0.689964">
        <ele>1355.6</ele>
        <time>2019-08-05T11:38:35Z</time>
      </trkpt>
      <trkpt lat="42.942004" lon="-0.690086">
        <ele>1356.5</ele>
        <time>2019-08-05T11:38:43Z</time>
      </trkpt>
      <trkpt lat="42.941941" lon="-0.690207">
        <ele>1358.1</ele>
        <time>2019-08-05T11:38:54Z</time>
      </trkpt>
      <trkpt lat="42.941939" lon="-0.690363">
        <ele>1360.3</ele>
        <time>2019-08-05T11:39:06Z</time>
      </trkpt>
      <trkpt lat="42.941884" lon="-0.690490">
        <ele>1362.5</ele>
        <time>2019-08-05T11:39:17Z</time>
      </trkpt>
      <trkpt lat="42.941871" lon="-0.690648">
        <ele>1365.1</ele>
        <time>2019-08-05T11:39:30Z</time>
      </trkpt>
      <trkpt lat="42.941899" lon="-0.690800">
        <ele>1367.4</ele>
        <time>2019-08-05T11:39:43Z</time>
      </trkpt>
      <trkpt lat="42.941857" lon="-0.691006">
        <ele>1369.4</ele>
        <time>2019-08-05T11:39:57Z</time>
      </trkpt>
      <trkpt lat="42.941808" lon="-0.691178">
        <ele>1370.6</ele>
        <time>2019-08-05T11:40:09Z</time>
      </trkpt>
      <trkpt lat="42.941747" lon="-0.691363">
        <ele>1372.7</ele>
        <time>2019-08-05T11:40:24Z</time>
      </trkpt>
      <trkpt lat="42.941637" lon="-0.691457">
        <ele>1375.3</ele>
        <time>2019-08-05T11:40:39Z</time>
      </trkpt>
      <trkpt lat="42.941546" lon="-0.691490">
        <ele>1377.4</ele>
        <time>2019-08-05T11:40:50Z</time>
      </trkpt>
      <trkpt lat="42.941493" lon="-0.691621">
        <ele>1379.9</ele>
        <time>2019-08-05T11:41:04Z</time>
      </trkpt>
      <trkpt lat="42.941402" lon="-0.691761">
        <ele>1383.9</ele>
        <time>2019-08-05T11:41:19Z</time>
      </trkpt>
      <trkpt lat="42.941295" lon="-0.691831">
        <ele>1386.7</ele>
        <time>2019-08-05T11:41:34Z</time>
      </trkpt>
      <trkpt lat="42.941239" lon="-0.691948">
        <ele>1389.2</ele>
        <time>2019-08-05T11:41:49Z</time>
      </trkpt>
      <trkpt lat="42.941177" lon="-0.692031">
        <ele>1391.5</ele>
        <time>2019-08-05T11:42:02Z</time>
      </trkpt>
      <trkpt lat="42.941041" lon="-0.692123">
        <ele>1393.7</ele>
        <time>2019-08-05T11:42:14Z</time>
      </trkpt>
      <trkpt lat="42.940929" lon="-0.692188">
        <ele>1395.5</ele>
        <time>2019-08-05T11:42:29Z</time>
      </trkpt>
      <trkpt lat="42.940797" lon="-0.692248">
        <ele>1398.2</ele>
        <time>2019-08-05T11:42:44Z</time>
      </trkpt>
      <trkpt lat="42.940694" lon="-0.692343">
        <ele>1401.9</ele>
        <time>2019-08-05T11:43:01Z</time>
      </trkpt>
      <trkpt lat="42.940683" lon="-0.692471">
        <ele>1405.2</ele>
        <time>2019-08-05T11:43:15Z</time>
      </trkpt>
      <trkpt lat="42.940612" lon="-0.692621">
        <ele>1409.2</ele>
        <time>2019-08-05T11:43:32Z</time>
      </trkpt>
      <trkpt lat="42.940571" lon="-0.692642">
        <ele>1412.8</ele>
        <time>2019-08-05T11:43:48Z</time>
      </trkpt>
      <trkpt lat="42.940507" lon="-0.692746">
        <ele>1417.8</ele>
        <time>2019-08-05T11:44:08Z</time>
      </trkpt>
      <trkpt lat="42.940378" lon="-0.692773">
        <ele>1419.5</ele>
        <time>2019-08-05T11:44:18Z</time>
      </trkpt>
      <trkpt lat="42.940345" lon="-0.692899">
        <ele>1422.0</ele>
        <time>2019-08-05T11:44:31Z</time>
      </trkpt>
      <trkpt lat="42.940329" lon="-0.693041">
        <ele>1425.1</ele>
        <time>2019-08-05T11:44:47Z</time>
      </trkpt>
      <trkpt lat="42.940325" lon="-0.693147">
        <ele>1428.4</ele>
        <time>2019-08-05T11:45:03Z</time>
      </trkpt>
      <trkpt lat="42.940305" lon="-0.693269">
        <ele>1431.9</ele>
        <time>2019-08-05T11:45:20Z</time>
      </trkpt>
      <trkpt lat="42.940306" lon="-0.693408">
        <ele>1435.1</ele>
        <time>2019-08-05T11:45:37Z</time>
      </trkpt>
      <trkpt lat="42.940317" lon="-0.693546">
        <ele>1438.1</ele>
        <time>2019-08-05T11:45:51Z</time>
      </trkpt>
      <trkpt lat="42.940293" lon="-0.693679">
        <ele>1440.7</ele>
        <time>2019-08-05T11:46:03Z</time>
      </trkpt>
      <trkpt lat="42.940280" lon="-0.693821">
        <ele>1442.8</ele>
        <time>2019-08-05T11:46:15Z</time>
      </trkpt>
      <trkpt lat="42.940308" lon="-0.693921">
        <ele>1444.5</ele>
        <time>2019-08-05T11:46:27Z</time>
      </trkpt>
      <trkpt lat="42.940282" lon="-0.694049">
        <ele>1447.5</ele>
        <time>2019-08-05T11:46:42Z</time>
      </trkpt>
      <trkpt lat="42.940252" lon="-0.694184">
        <ele>1449.7</ele>
        <time>2019-08-05T11:46:56Z</time>
      </trkpt>
      <trkpt lat="42.940231" lon="-0.694312">
        <ele>1452.5</ele>
        <time>2019-08-05T11:47:09Z</time>
      </trkpt>
      <trkpt lat="42.940252" lon="-0.694449">
        <ele>1453.5</ele>
        <time>2019-08-05T11:47:20Z</time>
      </trkpt>
      <trkpt lat="42.940217" lon="-0.694563">
        <ele>1454.1</ele>
        <time>2019-08-05T11:47:30Z</time>
      </trkpt>
      <trkpt lat="42.940133" lon="-0.694649">
        <ele>1454.0</ele>
        <time>2019-08-05T11:47:38Z</time>
      </trkpt>
      <trkpt lat="42.940062" lon="-0.694709">
        <ele>1454.5</ele>
        <time>2019-08-05T11:47:46Z</time>
      </trkpt>
      <trkpt lat="42.940059" lon="-0.694748">
        <ele>1456.2</ele>
        <time>2019-08-05T11:48:27Z</time>
      </trkpt>
      <trkpt lat="42.939957" lon="-0.694823">
        <ele>1457.1</ele>
        <time>2019-08-05T11:48:42Z</time>
      </trkpt>
      <trkpt lat="42.939894" lon="-0.694919">
        <ele>1457.7</ele>
        <time>2019-08-05T11:48:51Z</time>
      </trkpt>
      <trkpt lat="42.939805" lon="-0.694991">
        <ele>1458.6</ele>
        <time>2019-08-05T11:48:59Z</time>
      </trkpt>
      <trkpt lat="42.939744" lon="-0.695065">
        <ele>1459.7</ele>
        <time>2019-08-05T11:49:07Z</time>
      </trkpt>
      <trkpt lat="42.939651" lon="-0.695105">
        <ele>1461.2</ele>
        <time>2019-08-05T11:49:17Z</time>
      </trkpt>
      <trkpt lat="42.939548" lon="-0.695113">
        <ele>1463.3</ele>
        <time>2019-08-05T11:49:28Z</time>
      </trkpt>
      <trkpt lat="42.939457" lon="-0.695158">
        <ele>1465.2</ele>
        <time>2019-08-05T11:49:38Z</time>
      </trkpt>
      <trkpt lat="42.939406" lon="-0.695281">
        <ele>1467.3</ele>
        <time>2019-08-05T11:49:48Z</time>
      </trkpt>
      <trkpt lat="42.939343" lon="-0.695341">
        <ele>1468.5</ele>
        <time>2019-08-05T11:49:55Z</time>
      </trkpt>
      <trkpt lat="42.939286" lon="-0.695443">
        <ele>1469.9</ele>
        <time>2019-08-05T11:50:04Z</time>
      </trkpt>
      <trkpt lat="42.939230" lon="-0.695543">
        <ele>1472.1</ele>
        <time>2019-08-05T11:50:14Z</time>
      </trkpt>
      <trkpt lat="42.939186" lon="-0.695652">
        <ele>1473.4</ele>
        <time>2019-08-05T11:50:22Z</time>
      </trkpt>
      <trkpt lat="42.939150" lon="-0.695751">
        <ele>1474.9</ele>
        <time>2019-08-05T11:50:30Z</time>
      </trkpt>
      <trkpt lat="42.939106" lon="-0.695854">
        <ele>1476.2</ele>
        <time>2019-08-05T11:50:39Z</time>
      </trkpt>
      <trkpt lat="42.939047" lon="-0.695964">
        <ele>1477.4</ele>
        <time>2019-08-05T11:50:47Z</time>
      </trkpt>
      <trkpt lat="42.938996" lon="-0.696047">
        <ele>1478.4</ele>
        <time>2019-08-05T11:50:54Z</time>
      </trkpt>
      <trkpt lat="42.938935" lon="-0.696151">
        <ele>1479.9</ele>
        <time>2019-08-05T11:51:03Z</time>
      </trkpt>
      <trkpt lat="42.938890" lon="-0.696257">
        <ele>1481.4</ele>
        <time>2019-08-05T11:51:11Z</time>
      </trkpt>
      <trkpt lat="42.938834" lon="-0.696342">
        <ele>1482.4</ele>
        <time>2019-08-05T11:51:18Z</time>
      </trkpt>
      <trkpt lat="42.938788" lon="-0.696455">
        <ele>1483.2</ele>
        <time>2019-08-05T11:51:25Z</time>
      </trkpt>
      <trkpt lat="42.938739" lon="-0.696575">
        <ele>1483.9</ele>
        <time>2019-08-05T11:51:33Z</time>
      </trkpt>
      <trkpt lat="42.938704" lon="-0.696691">
        <ele>1484.0</ele>
        <time>2019-08-05T11:51:40Z</time>
      </trkpt>
      <trkpt lat="42.938670" lon="-0.696801">
        <ele>1483.9</ele>
        <time>2019-08-05T11:51:47Z</time>
      </trkpt>
      <trkpt lat="42.938690" lon="-0.696934">
        <ele>1483.7</ele>
        <time>2019-08-05T11:51:55Z</time>
      </trkpt>
      <trkpt lat="42.938680" lon="-0.697070">
        <ele>1484.6</ele>
        <time>2019-08-05T11:52:03Z</time>
      </trkpt>
      <trkpt lat="42.938670" lon="-0.697202">
        <ele>1486.3</ele>
        <time>2019-08-05T11:52:14Z</time>
      </trkpt>
      <trkpt lat="42.938703" lon="-0.697329">
        <ele>1488.4</ele>
        <time>2019-08-05T11:52:24Z</time>
      </trkpt>
      <trkpt lat="42.938658" lon="-0.697444">
        <ele>1491.5</ele>
        <time>2019-08-05T11:52:38Z</time>
      </trkpt>
      <trkpt lat="42.938627" lon="-0.697556">
        <ele>1493.7</ele>
        <time>2019-08-05T11:54:07Z</time>
      </trkpt>
      <trkpt lat="42.938600" lon="-0.697692">
        <ele>1493.9</ele>
        <time>2019-08-05T11:54:17Z</time>
      </trkpt>
      <trkpt lat="42.938587" lon="-0.697826">
        <ele>1494.0</ele>
        <time>2019-08-05T11:54:28Z</time>
      </trkpt>
      <trkpt lat="42.938595" lon="-0.697984">
        <ele>1494.7</ele>
        <time>2019-08-05T11:54:41Z</time>
      </trkpt>
      <trkpt lat="42.938600" lon="-0.698100">
        <ele>1495.0</ele>
        <time>2019-08-05T11:54:49Z</time>
      </trkpt>
      <trkpt lat="42.938590" lon="-0.698245">
        <ele>1496.7</ele>
        <time>2019-08-05T11:55:00Z</time>
      </trkpt>
      <trkpt lat="42.938615" lon="-0.698374">
        <ele>1498.9</ele>
        <time>2019-08-05T11:55:10Z</time>
      </trkpt>
      <trkpt lat="42.938648" lon="-0.698515">
        <ele>1500.9</ele>
        <time>2019-08-05T11:55:21Z</time>
      </trkpt>
      <trkpt lat="42.938670" lon="-0.698653">
        <ele>1502.4</ele>
        <time>2019-08-05T11:55:31Z</time>
      </trkpt>
      <trkpt lat="42.938694" lon="-0.698787">
        <ele>1504.0</ele>
        <time>2019-08-05T11:55:41Z</time>
      </trkpt>
      <trkpt lat="42.938717" lon="-0.698924">
        <ele>1506.1</ele>
        <time>2019-08-05T11:55:52Z</time>
      </trkpt>
      <trkpt lat="42.938764" lon="-0.699055">
        <ele>1507.3</ele>
        <time>2019-08-05T11:56:01Z</time>
      </trkpt>
      <trkpt lat="42.938777" lon="-0.699175">
        <ele>1507.9</ele>
        <time>2019-08-05T11:56:11Z</time>
      </trkpt>
      <trkpt lat="42.938780" lon="-0.699300">
        <ele>1510.1</ele>
        <time>2019-08-05T11:56:21Z</time>
      </trkpt>
      <trkpt lat="42.938772" lon="-0.699427">
        <ele>1511.8</ele>
        <time>2019-08-05T11:56:31Z</time>
      </trkpt>
      <trkpt lat="42.938792" lon="-0.699563">
        <ele>1512.1</ele>
        <time>2019-08-05T11:56:39Z</time>
      </trkpt>
      <trkpt lat="42.938773" lon="-0.699701">
        <ele>1512.8</ele>
        <time>2019-08-05T11:56:47Z</time>
      </trkpt>
      <trkpt lat="42.938765" lon="-0.699819">
        <ele>1513.6</ele>
        <time>2019-08-05T11:56:54Z</time>
      </trkpt>
      <trkpt lat="42.938758" lon="-0.699954">
        <ele>1515.0</ele>
        <time>2019-08-05T11:57:01Z</time>
      </trkpt>
      <trkpt lat="42.938765" lon="-0.700101">
        <ele>1515.7</ele>
        <time>2019-08-05T11:57:07Z</time>
      </trkpt>
      <trkpt lat="42.938770" lon="-0.700235">
        <ele>1515.7</ele>
        <time>2019-08-05T11:57:13Z</time>
      </trkpt>
      <trkpt lat="42.938779" lon="-0.700368">
        <ele>1515.7</ele>
        <time>2019-08-05T11:57:19Z</time>
      </trkpt>
      <trkpt lat="42.938769" lon="-0.700485">
        <ele>1516.3</ele>
        <time>2019-08-05T11:57:26Z</time>
      </trkpt>
      <trkpt lat="42.938736" lon="-0.700588">
        <ele>1517.1</ele>
        <time>2019-08-05T11:57:33Z</time>
      </trkpt>
      <trkpt lat="42.938695" lon="-0.700709">
        <ele>1518.3</ele>
        <time>2019-08-05T11:57:41Z</time>
      </trkpt>
      <trkpt lat="42.938658" lon="-0.700816">
        <ele>1519.2</ele>
        <time>2019-08-05T11:57:49Z</time>
      </trkpt>
      <trkpt lat="42.938622" lon="-0.700924">
        <ele>1520.7</ele>
        <time>2019-08-05T11:57:57Z</time>
      </trkpt>
      <trkpt lat="42.938590" lon="-0.701036">
        <ele>1522.6</ele>
        <time>2019-08-05T11:58:06Z</time>
      </trkpt>
      <trkpt lat="42.938514" lon="-0.701141">
        <ele>1524.8</ele>
        <time>2019-08-05T11:58:16Z</time>
      </trkpt>
      <trkpt lat="42.938469" lon="-0.701243">
        <ele>1526.6</ele>
        <time>2019-08-05T11:58:24Z</time>
      </trkpt>
      <trkpt lat="42.938414" lon="-0.701325">
        <ele>1528.0</ele>
        <time>2019-08-05T11:58:31Z</time>
      </trkpt>
      <trkpt lat="42.938378" lon="-0.701446">
        <ele>1529.4</ele>
        <time>2019-08-05T11:58:40Z</time>
      </trkpt>
      <trkpt lat="42.938373" lon="-0.701575">
        <ele>1530.6</ele>
        <time>2019-08-05T11:58:49Z</time>
      </trkpt>
      <trkpt lat="42.938397" lon="-0.701706">
        <ele>1532.4</ele>
        <time>2019-08-05T11:58:59Z</time>
      </trkpt>
      <trkpt lat="42.938418" lon="-0.701841">
        <ele>1534.2</ele>
        <time>2019-08-05T11:59:09Z</time>
      </trkpt>
      <trkpt lat="42.938447" lon="-0.701959">
        <ele>1537.0</ele>
        <time>2019-08-05T11:59:24Z</time>
      </trkpt>
      <trkpt lat="42.938487" lon="-0.702083">
        <ele>1539.6</ele>
        <time>2019-08-05T11:59:36Z</time>
      </trkpt>
      <trkpt lat="42.938502" lon="-0.702210">
        <ele>1541.8</ele>
        <time>2019-08-05T11:59:47Z</time>
      </trkpt>
      <trkpt lat="42.938463" lon="-0.702326">
        <ele>1543.7</ele>
        <time>2019-08-05T11:59:57Z</time>
      </trkpt>
      <trkpt lat="42.938411" lon="-0.702438">
        <ele>1545.7</ele>
        <time>2019-08-05T12:00:07Z</time>
      </trkpt>
      <trkpt lat="42.938328" lon="-0.702524">
        <ele>1547.3</ele>
        <time>2019-08-05T12:00:16Z</time>
      </trkpt>
      <trkpt lat="42.938264" lon="-0.702591">
        <ele>1548.5</ele>
        <time>2019-08-05T12:00:23Z</time>
      </trkpt>
      <trkpt lat="42.938198" lon="-0.702690">
        <ele>1550.8</ele>
        <time>2019-08-05T12:00:34Z</time>
      </trkpt>
      <trkpt lat="42.938123" lon="-0.702791">
        <ele>1553.5</ele>
        <time>2019-08-05T12:00:47Z</time>
      </trkpt>
      <trkpt lat="42.938071" lon="-0.702883">
        <ele>1556.7</ele>
        <time>2019-08-05T12:00:59Z</time>
      </trkpt>
      <trkpt lat="42.937986" lon="-0.702971">
        <ele>1559.1</ele>
        <time>2019-08-05T12:01:11Z</time>
      </trkpt>
      <trkpt lat="42.937950" lon="-0.703087">
        <ele>1561.8</ele>
        <time>2019-08-05T12:01:24Z</time>
      </trkpt>
      <trkpt lat="42.937948" lon="-0.703219">
        <ele>1564.7</ele>
        <time>2019-08-05T12:01:38Z</time>
      </trkpt>
      <trkpt lat="42.937976" lon="-0.703368">
        <ele>1567.5</ele>
        <time>2019-08-05T12:01:52Z</time>
      </trkpt>
      <trkpt lat="42.937992" lon="-0.703496">
        <ele>1569.4</ele>
        <time>2019-08-05T12:02:03Z</time>
      </trkpt>
      <trkpt lat="42.937958" lon="-0.703616">
        <ele>1572.5</ele>
        <time>2019-08-05T12:02:18Z</time>
      </trkpt>
      <trkpt lat="42.937957" lon="-0.703737">
        <ele>1575.5</ele>
        <time>2019-08-05T12:02:30Z</time>
      </trkpt>
      <trkpt lat="42.937899" lon="-0.703816">
        <ele>1579.0</ele>
        <time>2019-08-05T12:02:44Z</time>
      </trkpt>
      <trkpt lat="42.937901" lon="-0.703925">
        <ele>1582.1</ele>
        <time>2019-08-05T12:02:58Z</time>
      </trkpt>
      <trkpt lat="42.937878" lon="-0.704029">
        <ele>1584.1</ele>
        <time>2019-08-05T12:03:09Z</time>
      </trkpt>
      <trkpt lat="42.937857" lon="-0.704167">
        <ele>1586.9</ele>
        <time>2019-08-05T12:03:23Z</time>
      </trkpt>
      <trkpt lat="42.937831" lon="-0.704286">
        <ele>1589.4</ele>
        <time>2019-08-05T12:03:35Z</time>
      </trkpt>
      <trkpt lat="42.937751" lon="-0.704327">
        <ele>1593.0</ele>
        <time>2019-08-05T12:03:49Z</time>
      </trkpt>
      <trkpt lat="42.937646" lon="-0.704459">
        <ele>1597.8</ele>
        <time>2019-08-05T12:04:11Z</time>
      </trkpt>
      <trkpt lat="42.937630" lon="-0.704584">
        <ele>1599.7</ele>
        <time>2019-08-05T12:04:20Z</time>
      </trkpt>
      <trkpt lat="42.937587" lon="-0.704699">
        <ele>1601.1</ele>
        <time>2019-08-05T12:04:29Z</time>
      </trkpt>
      <trkpt lat="42.937549" lon="-0.704817">
        <ele>1602.3</ele>
        <time>2019-08-05T12:04:37Z</time>
      </trkpt>
      <trkpt lat="42.937525" lon="-0.704926">
        <ele>1603.5</ele>
        <time>2019-08-05T12:04:46Z</time>
      </trkpt>
      <trkpt lat="42.937480" lon="-0.705028">
        <ele>1605.2</ele>
        <time>2019-08-05T12:04:56Z</time>
      </trkpt>
      <trkpt lat="42.937430" lon="-0.705119">
        <ele>1607.9</ele>
        <time>2019-08-05T12:05:10Z</time>
      </trkpt>
      <trkpt lat="42.937424" lon="-0.705257">
        <ele>1611.5</ele>
        <time>2019-08-05T12:05:25Z</time>
      </trkpt>
      <trkpt lat="42.937423" lon="-0.705382">
        <ele>1614.4</ele>
        <time>2019-08-05T12:05:38Z</time>
      </trkpt>
      <trkpt lat="42.937389" lon="-0.705497">
        <ele>1618.2</ele>
        <time>2019-08-05T12:05:53Z</time>
      </trkpt>
      <trkpt lat="42.937326" lon="-0.705575">
        <ele>1621.5</ele>
        <time>2019-08-05T12:06:08Z</time>
      </trkpt>
      <trkpt lat="42.937254" lon="-0.705633">
        <ele>1624.0</ele>
        <time>2019-08-05T12:06:20Z</time>
      </trkpt>
      <trkpt lat="42.937202" lon="-0.705720">
        <ele>1625.9</ele>
        <time>2019-08-05T12:06:29Z</time>
      </trkpt>
      <trkpt lat="42.937155" lon="-0.705811">
        <ele>1627.5</ele>
        <time>2019-08-05T12:06:39Z</time>
      </trkpt>
      <trkpt lat="42.937095" lon="-0.705894">
        <ele>1629.1</ele>
        <time>2019-08-05T12:06:49Z</time>
      </trkpt>
      <trkpt lat="42.937044" lon="-0.705991">
        <ele>1630.7</ele>
        <time>2019-08-05T12:06:59Z</time>
      </trkpt>
      <trkpt lat="42.936965" lon="-0.706067">
        <ele>1632.7</ele>
        <time>2019-08-05T12:07:09Z</time>
      </trkpt>
      <trkpt lat="42.936902" lon="-0.706141">
        <ele>1634.7</ele>
        <time>2019-08-05T12:07:19Z</time>
      </trkpt>
      <trkpt lat="42.936873" lon="-0.706248">
        <ele>1636.8</ele>
        <time>2019-08-05T12:07:29Z</time>
      </trkpt>
      <trkpt lat="42.936805" lon="-0.706331">
        <ele>1639.0</ele>
        <time>2019-08-05T12:07:40Z</time>
      </trkpt>
      <trkpt lat="42.936732" lon="-0.706420">
        <ele>1641.6</ele>
        <time>2019-08-05T12:07:54Z</time>
      </trkpt>
      <trkpt lat="42.936717" lon="-0.706526">
        <ele>1644.1</ele>
        <time>2019-08-05T12:08:08Z</time>
      </trkpt>
      <trkpt lat="42.936710" lon="-0.706660">
        <ele>1646.1</ele>
        <time>2019-08-05T12:08:19Z</time>
      </trkpt>
      <trkpt lat="42.936683" lon="-0.706780">
        <ele>1648.2</ele>
        <time>2019-08-05T12:08:28Z</time>
      </trkpt>
      <trkpt lat="42.936650" lon="-0.706884">
        <ele>1649.7</ele>
        <time>2019-08-05T12:08:36Z</time>
      </trkpt>
      <trkpt lat="42.936608" lon="-0.706973">
        <ele>1651.8</ele>
        <time>2019-08-05T12:08:46Z</time>
      </trkpt>
      <trkpt lat="42.936617" lon="-0.707091">
        <ele>1653.5</ele>
        <time>2019-08-05T12:08:54Z</time>
      </trkpt>
      <trkpt lat="42.936611" lon="-0.707207">
        <ele>1654.7</ele>
        <time>2019-08-05T12:09:01Z</time>
      </trkpt>
      <trkpt lat="42.936599" lon="-0.707339">
        <ele>1657.0</ele>
        <time>2019-08-05T12:09:12Z</time>
      </trkpt>
      <trkpt lat="42.936567" lon="-0.707467">
        <ele>1658.6</ele>
        <time>2019-08-05T12:09:21Z</time>
      </trkpt>
      <trkpt lat="42.936544" lon="-0.707571">
        <ele>1659.9</ele>
        <time>2019-08-05T12:09:29Z</time>
      </trkpt>
      <trkpt lat="42.936542" lon="-0.707689">
        <ele>1661.5</ele>
        <time>2019-08-05T12:09:38Z</time>
      </trkpt>
      <trkpt lat="42.936529" lon="-0.707810">
        <ele>1663.3</ele>
        <time>2019-08-05T12:09:47Z</time>
      </trkpt>
      <trkpt lat="42.936526" lon="-0.707948">
        <ele>1664.6</ele>
        <time>2019-08-05T12:09:55Z</time>
      </trkpt>
      <trkpt lat="42.936510" lon="-0.708091">
        <ele>1666.6</ele>
        <time>2019-08-05T12:10:05Z</time>
      </trkpt>
      <trkpt lat="42.936501" lon="-0.708218">
        <ele>1668.4</ele>
        <time>2019-08-05T12:10:14Z</time>
      </trkpt>
      <trkpt lat="42.936461" lon="-0.708330">
        <ele>1669.7</ele>
        <time>2019-08-05T12:10:23Z</time>
      </trkpt>
      <trkpt lat="42.936417" lon="-0.708432">
        <ele>1671.6</ele>
        <time>2019-08-05T12:10:32Z</time>
      </trkpt>
      <trkpt lat="42.936398" lon="-0.708541">
        <ele>1673.3</ele>
        <time>2019-08-05T12:10:41Z</time>
      </trkpt>
      <trkpt lat="42.936391" lon="-0.708667">
        <ele>1675.0</ele>
        <time>2019-08-05T12:10:50Z</time>
      </trkpt>
      <trkpt lat="42.936382" lon="-0.708794">
        <ele>1676.6</ele>
        <time>2019-08-05T12:10:59Z</time>
      </trkpt>
      <trkpt lat="42.936362" lon="-0.708906">
        <ele>1678.1</ele>
        <time>2019-08-05T12:11:08Z</time>
      </trkpt>
      <trkpt lat="42.936338" lon="-0.709002">
        <ele>1680.6</ele>
        <time>2019-08-05T12:11:27Z</time>
      </trkpt>
      <trkpt lat="42.936310" lon="-0.709122">
        <ele>1681.8</ele>
        <time>2019-08-05T12:11:40Z</time>
      </trkpt>
      <trkpt lat="42.936294" lon="-0.709254">
        <ele>1683.8</ele>
        <time>2019-08-05T12:11:52Z</time>
      </trkpt>
      <trkpt lat="42.936258" lon="-0.709384">
        <ele>1686.0</ele>
        <time>2019-08-05T12:12:02Z</time>
      </trkpt>
      <trkpt lat="42.936221" lon="-0.709500">
        <ele>1687.6</ele>
        <time>2019-08-05T12:12:12Z</time>
      </trkpt>
      <trkpt lat="42.936184" lon="-0.709625">
        <ele>1689.1</ele>
        <time>2019-08-05T12:12:23Z</time>
      </trkpt>
      <trkpt lat="42.936115" lon="-0.709725">
        <ele>1691.1</ele>
        <time>2019-08-05T12:12:34Z</time>
      </trkpt>
      <trkpt lat="42.936052" lon="-0.709832">
        <ele>1693.8</ele>
        <time>2019-08-05T12:12:47Z</time>
      </trkpt>
      <trkpt lat="42.936009" lon="-0.709949">
        <ele>1697.4</ele>
        <time>2019-08-05T12:13:58Z</time>
      </trkpt>
      <trkpt lat="42.935977" lon="-0.710075">
        <ele>1699.1</ele>
        <time>2019-08-05T12:14:11Z</time>
      </trkpt>
      <trkpt lat="42.935971" lon="-0.710212">
        <ele>1701.4</ele>
        <time>2019-08-05T12:14:25Z</time>
      </trkpt>
      <trkpt lat="42.935940" lon="-0.710330">
        <ele>1703.5</ele>
        <time>2019-08-05T12:14:38Z</time>
      </trkpt>
      <trkpt lat="42.935894" lon="-0.710427">
        <ele>1705.7</ele>
        <time>2019-08-05T12:14:50Z</time>
      </trkpt>
      <trkpt lat="42.935875" lon="-0.710533">
        <ele>1707.4</ele>
        <time>2019-08-05T12:15:01Z</time>
      </trkpt>
      <trkpt lat="42.935858" lon="-0.710655">
        <ele>1709.6</ele>
        <time>2019-08-05T12:15:13Z</time>
      </trkpt>
      <trkpt lat="42.935833" lon="-0.710769">
        <ele>1712.0</ele>
        <time>2019-08-05T12:15:25Z</time>
      </trkpt>
      <trkpt lat="42.935768" lon="-0.710860">
        <ele>1714.2</ele>
        <time>2019-08-05T12:15:37Z</time>
      </trkpt>
      <trkpt lat="42.935751" lon="-0.710982">
        <ele>1716.3</ele>
        <time>2019-08-05T12:15:50Z</time>
      </trkpt>
      <trkpt lat="42.935755" lon="-0.711124">
        <ele>1718.4</ele>
        <time>2019-08-05T12:16:01Z</time>
      </trkpt>
      <trkpt lat="42.935755" lon="-0.711240">
        <ele>1721.4</ele>
        <time>2019-08-05T12:16:15Z</time>
      </trkpt>
      <trkpt lat="42.935771" lon="-0.711353">
        <ele>1723.4</ele>
        <time>2019-08-05T12:16:28Z</time>
      </trkpt>
      <trkpt lat="42.935760" lon="-0.711468">
        <ele>1725.7</ele>
        <time>2019-08-05T12:16:40Z</time>
      </trkpt>
      <trkpt lat="42.935791" lon="-0.711588">
        <ele>1727.0</ele>
        <time>2019-08-05T12:16:52Z</time>
      </trkpt>
      <trkpt lat="42.935802" lon="-0.711711">
        <ele>1728.9</ele>
        <time>2019-08-05T12:17:04Z</time>
      </trkpt>
      <trkpt lat="42.935838" lon="-0.711830">
        <ele>1732.2</ele>
        <time>2019-08-05T12:17:19Z</time>
      </trkpt>
      <trkpt lat="42.935895" lon="-0.711928">
        <ele>1734.2</ele>
        <time>2019-08-05T12:17:32Z</time>
      </trkpt>
      <trkpt lat="42.935920" lon="-0.712024">
        <ele>1736.7</ele>
        <time>2019-08-05T12:17:44Z</time>
      </trkpt>
      <trkpt lat="42.935874" lon="-0.712119">
        <ele>1738.6</ele>
        <time>2019-08-05T12:17:55Z</time>
      </trkpt>
      <trkpt lat="42.935829" lon="-0.712235">
        <ele>1739.5</ele>
        <time>2019-08-05T12:18:06Z</time>
      </trkpt>
      <trkpt lat="42.935765" lon="-0.712345">
        <ele>1741.2</ele>
        <time>2019-08-05T12:18:18Z</time>
      </trkpt>
      <trkpt lat="42.935714" lon="-0.712452">
        <ele>1743.2</ele>
        <time>2019-08-05T12:18:32Z</time>
      </trkpt>
      <trkpt lat="42.935666" lon="-0.712545">
        <ele>1745.5</ele>
        <time>2019-08-05T12:18:44Z</time>
      </trkpt>
      <trkpt lat="42.935629" lon="-0.712670">
        <ele>1746.4</ele>
        <time>2019-08-05T12:18:54Z</time>
      </trkpt>
      <trkpt lat="42.935563" lon="-0.712761">
        <ele>1748.1</ele>
        <time>2019-08-05T12:19:09Z</time>
      </trkpt>
      <trkpt lat="42.935490" lon="-0.712862">
        <ele>1750.4</ele>
        <time>2019-08-05T12:19:22Z</time>
      </trkpt>
      <trkpt lat="42.935453" lon="-0.712961">
        <ele>1753.8</ele>
        <time>2019-08-05T12:19:38Z</time>
      </trkpt>
      <trkpt lat="42.935477" lon="-0.713103">
        <ele>1757.8</ele>
        <time>2019-08-05T12:19:55Z</time>
      </trkpt>
      <trkpt lat="42.935554" lon="-0.713198">
        <ele>1761.5</ele>
        <time>2019-08-05T12:20:13Z</time>
      </trkpt>
      <trkpt lat="42.935544" lon="-0.713277">
        <ele>1764.6</ele>
        <time>2019-08-05T12:20:32Z</time>
      </trkpt>
      <trkpt lat="42.935575" lon="-0.713388">
        <ele>1768.0</ele>
        <time>2019-08-05T12:20:54Z</time>
      </trkpt>
      <trkpt lat="42.935578" lon="-0.713527">
        <ele>1773.1</ele>
        <time>2019-08-05T12:21:25Z</time>
      </trkpt>
      <trkpt lat="42.935553" lon="-0.713642">
        <ele>1775.2</ele>
        <time>2019-08-05T12:21:40Z</time>
      </trkpt>
      <trkpt lat="42.935538" lon="-0.713749">
        <ele>1778.9</ele>
        <time>2019-08-05T12:21:56Z</time>
      </trkpt>
      <trkpt lat="42.935529" lon="-0.713877">
        <ele>1781.5</ele>
        <time>2019-08-05T12:22:11Z</time>
      </trkpt>
      <trkpt lat="42.935512" lon="-0.714003">
        <ele>1783.8</ele>
        <time>2019-08-05T12:22:23Z</time>
      </trkpt>
      <trkpt lat="42.935460" lon="-0.714105">
        <ele>1785.8</ele>
        <time>2019-08-05T12:22:36Z</time>
      </trkpt>
      <trkpt lat="42.935452" lon="-0.714241">
        <ele>1787.8</ele>
        <time>2019-08-05T12:22:50Z</time>
      </trkpt>
      <trkpt lat="42.935456" lon="-0.714266">
        <ele>1789.0</ele>
        <time>2019-08-05T12:24:51Z</time>
      </trkpt>
      <trkpt lat="42.935433" lon="-0.714385">
        <ele>1789.2</ele>
        <time>2019-08-05T12:25:00Z</time>
      </trkpt>
      <trkpt lat="42.935382" lon="-0.714498">
        <ele>1790.4</ele>
        <time>2019-08-05T12:25:10Z</time>
      </trkpt>
      <trkpt lat="42.935330" lon="-0.714598">
        <ele>1791.7</ele>
        <time>2019-08-05T12:25:19Z</time>
      </trkpt>
      <trkpt lat="42.935317" lon="-0.714719">
        <ele>1792.3</ele>
        <time>2019-08-05T12:25:30Z</time>
      </trkpt>
      <trkpt lat="42.935283" lon="-0.714834">
        <ele>1794.4</ele>
        <time>2019-08-05T12:25:49Z</time>
      </trkpt>
      <trkpt lat="42.935216" lon="-0.714930">
        <ele>1794.9</ele>
        <time>2019-08-05T12:26:05Z</time>
      </trkpt>
      <trkpt lat="42.935159" lon="-0.715032">
        <ele>1795.3</ele>
        <time>2019-08-05T12:26:15Z</time>
      </trkpt>
      <trkpt lat="42.935099" lon="-0.715145">
        <ele>1795.8</ele>
        <time>2019-08-05T12:26:25Z</time>
      </trkpt>
      <trkpt lat="42.935036" lon="-0.715241">
        <ele>1796.1</ele>
        <time>2019-08-05T12:26:35Z</time>
      </trkpt>
      <trkpt lat="42.934979" lon="-0.715364">
        <ele>1796.5</ele>
        <time>2019-08-05T12:26:44Z</time>
      </trkpt>
      <trkpt lat="42.934947" lon="-0.715488">
        <ele>1797.5</ele>
        <time>2019-08-05T12:26:52Z</time>
      </trkpt>
      <trkpt lat="42.934863" lon="-0.715558">
        <ele>1798.8</ele>
        <time>2019-08-05T12:27:01Z</time>
      </trkpt>
      <trkpt lat="42.934743" lon="-0.715592">
        <ele>1799.3</ele>
        <time>2019-08-05T12:27:09Z</time>
      </trkpt>
      <trkpt lat="42.934655" lon="-0.715618">
        <ele>1799.2</ele>
        <time>2019-08-05T12:27:17Z</time>
      </trkpt>
      <trkpt lat="42.934557" lon="-0.715649">
        <ele>1799.5</ele>
        <time>2019-08-05T12:27:25Z</time>
      </trkpt>
      <trkpt lat="42.934506" lon="-0.715745">
        <ele>1799.9</ele>
        <time>2019-08-05T12:27:33Z</time>
      </trkpt>
      <trkpt lat="42.934477" lon="-0.715867">
        <ele>1800.7</ele>
        <time>2019-08-05T12:27:41Z</time>
      </trkpt>
      <trkpt lat="42.934398" lon="-0.715954">
        <ele>1800.9</ele>
        <time>2019-08-05T12:27:50Z</time>
      </trkpt>
      <trkpt lat="42.934303" lon="-0.716023">
        <ele>1800.4</ele>
        <time>2019-08-05T12:27:59Z</time>
      </trkpt>
      <trkpt lat="42.934296" lon="-0.716173">
        <ele>1800.1</ele>
        <time>2019-08-05T12:28:07Z</time>
      </trkpt>
      <trkpt lat="42.934225" lon="-0.716267">
        <ele>1800.5</ele>
        <time>2019-08-05T12:28:14Z</time>
      </trkpt>
      <trkpt lat="42.934171" lon="-0.716355">
        <ele>1800.5</ele>
        <time>2019-08-05T12:28:21Z</time>
      </trkpt>
      <trkpt lat="42.934100" lon="-0.716464">
        <ele>1800.7</ele>
        <time>2019-08-05T12:28:30Z</time>
      </trkpt>
      <trkpt lat="42.934024" lon="-0.716540">
        <ele>1801.8</ele>
        <time>2019-08-05T12:28:39Z</time>
      </trkpt>
      <trkpt lat="42.933949" lon="-0.716644">
        <ele>1802.2</ele>
        <time>2019-08-05T12:28:48Z</time>
      </trkpt>
      <trkpt lat="42.933917" lon="-0.716769">
        <ele>1802.5</ele>
        <time>2019-08-05T12:28:56Z</time>
      </trkpt>
      <trkpt lat="42.933956" lon="-0.716900">
        <ele>1802.8</ele>
        <time>2019-08-05T12:29:06Z</time>
      </trkpt>
      <trkpt lat="42.934011" lon="-0.717011">
        <ele>1803.2</ele>
        <time>2019-08-05T12:29:15Z</time>
      </trkpt>
      <trkpt lat="42.933995" lon="-0.717137">
        <ele>1803.7</ele>
        <time>2019-08-05T12:29:22Z</time>
      </trkpt>
      <trkpt lat="42.933970" lon="-0.717263">
        <ele>1803.8</ele>
        <time>2019-08-05T12:29:30Z</time>
      </trkpt>
      <trkpt lat="42.933978" lon="-0.717409">
        <ele>1804.8</ele>
        <time>2019-08-05T12:29:40Z</time>
      </trkpt>
      <trkpt lat="42.933889" lon="-0.717484">
        <ele>1806.9</ele>
        <time>2019-08-05T12:29:50Z</time>
      </trkpt>
      <trkpt lat="42.933770" lon="-0.717522">
        <ele>1808.3</ele>
        <time>2019-08-05T12:29:59Z</time>
      </trkpt>
      <trkpt lat="42.933722" lon="-0.717626">
        <ele>1809.2</ele>
        <time>2019-08-05T12:30:06Z</time>
      </trkpt>
      <trkpt lat="42.933681" lon="-0.717745">
        <ele>1810.4</ele>
        <time>2019-08-05T12:30:15Z</time>
      </trkpt>
      <trkpt lat="42.933679" lon="-0.717870">
        <ele>1811.4</ele>
        <time>2019-08-05T12:30:22Z</time>
      </trkpt>
      <trkpt lat="42.933627" lon="-0.717973">
        <ele>1812.5</ele>
        <time>2019-08-05T12:30:31Z</time>
      </trkpt>
      <trkpt lat="42.933592" lon="-0.718074">
        <ele>1813.2</ele>
        <time>2019-08-05T12:30:41Z</time>
      </trkpt>
      <trkpt lat="42.933526" lon="-0.718163">
        <ele>1814.8</ele>
        <time>2019-08-05T12:30:57Z</time>
      </trkpt>
      <trkpt lat="42.933491" lon="-0.718298">
        <ele>1816.7</ele>
        <time>2019-08-05T12:31:10Z</time>
      </trkpt>
      <trkpt lat="42.933468" lon="-0.718415">
        <ele>1818.9</ele>
        <time>2019-08-05T12:31:22Z</time>
      </trkpt>
      <trkpt lat="42.933453" lon="-0.718551">
        <ele>1821.4</ele>
        <time>2019-08-05T12:31:36Z</time>
      </trkpt>
      <trkpt lat="42.933470" lon="-0.718658">
        <ele>1823.8</ele>
        <time>2019-08-05T12:31:49Z</time>
      </trkpt>
      <trkpt lat="42.933427" lon="-0.718766">
        <ele>1825.9</ele>
        <time>2019-08-05T12:32:05Z</time>
      </trkpt>
      <trkpt lat="42.933370" lon="-0.718896">
        <ele>1828.2</ele>
        <time>2019-08-05T12:32:20Z</time>
      </trkpt>
      <trkpt lat="42.933317" lon="-0.719022">
        <ele>1828.9</ele>
        <time>2019-08-05T12:32:32Z</time>
      </trkpt>
      <trkpt lat="42.933261" lon="-0.719118">
        <ele>1830.4</ele>
        <time>2019-08-05T12:32:41Z</time>
      </trkpt>
      <trkpt lat="42.933169" lon="-0.719212">
        <ele>1831.7</ele>
        <time>2019-08-05T12:32:53Z</time>
      </trkpt>
      <trkpt lat="42.933112" lon="-0.719307">
        <ele>1832.8</ele>
        <time>2019-08-05T12:33:04Z</time>
      </trkpt>
      <trkpt lat="42.933104" lon="-0.719437">
        <ele>1833.9</ele>
        <time>2019-08-05T12:33:15Z</time>
      </trkpt>
      <trkpt lat="42.933076" lon="-0.719544">
        <ele>1835.3</ele>
        <time>2019-08-05T12:33:30Z</time>
      </trkpt>
      <trkpt lat="42.933046" lon="-0.719665">
        <ele>1835.8</ele>
        <time>2019-08-05T12:33:45Z</time>
      </trkpt>
      <trkpt lat="42.933004" lon="-0.719782">
        <ele>1836.5</ele>
        <time>2019-08-05T12:33:55Z</time>
      </trkpt>
      <trkpt lat="42.932957" lon="-0.719889">
        <ele>1836.8</ele>
        <time>2019-08-05T12:34:03Z</time>
      </trkpt>
      <trkpt lat="42.932930" lon="-0.720004">
        <ele>1838.2</ele>
        <time>2019-08-05T12:34:12Z</time>
      </trkpt>
      <trkpt lat="42.932914" lon="-0.720116">
        <ele>1840.0</ele>
        <time>2019-08-05T12:34:21Z</time>
      </trkpt>
      <trkpt lat="42.932907" lon="-0.720249">
        <ele>1840.2</ele>
        <time>2019-08-05T12:34:29Z</time>
      </trkpt>
      <trkpt lat="42.932867" lon="-0.720358">
        <ele>1840.1</ele>
        <time>2019-08-05T12:34:36Z</time>
      </trkpt>
      <trkpt lat="42.932814" lon="-0.720460">
        <ele>1841.1</ele>
        <time>2019-08-05T12:34:43Z</time>
      </trkpt>
      <trkpt lat="42.932750" lon="-0.720550">
        <ele>1841.2</ele>
        <time>2019-08-05T12:34:54Z</time>
      </trkpt>
      <trkpt lat="42.932690" lon="-0.720644">
        <ele>1840.8</ele>
        <time>2019-08-05T12:35:11Z</time>
      </trkpt>
      <trkpt lat="42.932623" lon="-0.720733">
        <ele>1840.2</ele>
        <time>2019-08-05T12:35:19Z</time>
      </trkpt>
      <trkpt lat="42.932550" lon="-0.720799">
        <ele>1839.6</ele>
        <time>2019-08-05T12:35:26Z</time>
      </trkpt>
      <trkpt lat="42.932503" lon="-0.720850">
        <ele>1839.2</ele>
        <time>2019-08-05T12:35:45Z</time>
      </trkpt>
      <trkpt lat="42.932434" lon="-0.720914">
        <ele>1839.7</ele>
        <time>2019-08-05T12:35:55Z</time>
      </trkpt>
      <trkpt lat="42.932375" lon="-0.721002">
        <ele>1839.8</ele>
        <time>2019-08-05T12:36:06Z</time>
      </trkpt>
      <trkpt lat="42.932327" lon="-0.721122">
        <ele>1840.5</ele>
        <time>2019-08-05T12:36:14Z</time>
      </trkpt>
      <trkpt lat="42.932291" lon="-0.721207">
        <ele>1841.9</ele>
        <time>2019-08-05T12:36:24Z</time>
      </trkpt>
      <trkpt lat="42.932247" lon="-0.721315">
        <ele>1843.9</ele>
        <time>2019-08-05T12:36:34Z</time>
      </trkpt>
      <trkpt lat="42.932194" lon="-0.721377">
        <ele>1844.0</ele>
        <time>2019-08-05T12:36:47Z</time>
      </trkpt>
      <trkpt lat="42.932147" lon="-0.721473">
        <ele>1844.3</ele>
        <time>2019-08-05T12:36:57Z</time>
      </trkpt>
      <trkpt lat="42.932099" lon="-0.721585">
        <ele>1845.7</ele>
        <time>2019-08-05T12:37:05Z</time>
      </trkpt>
      <trkpt lat="42.932041" lon="-0.721658">
        <ele>1846.6</ele>
        <time>2019-08-05T12:37:13Z</time>
      </trkpt>
      <trkpt lat="42.931973" lon="-0.721775">
        <ele>1847.5</ele>
        <time>2019-08-05T12:37:22Z</time>
      </trkpt>
      <trkpt lat="42.931915" lon="-0.721856">
        <ele>1848.4</ele>
        <time>2019-08-05T12:37:29Z</time>
      </trkpt>
      <trkpt lat="42.931859" lon="-0.721955">
        <ele>1849.9</ele>
        <time>2019-08-05T12:37:38Z</time>
      </trkpt>
      <trkpt lat="42.931778" lon="-0.722045">
        <ele>1851.1</ele>
        <time>2019-08-05T12:37:47Z</time>
      </trkpt>
      <trkpt lat="42.931704" lon="-0.722119">
        <ele>1851.7</ele>
        <time>2019-08-05T12:37:54Z</time>
      </trkpt>
      <trkpt lat="42.931661" lon="-0.722215">
        <ele>1852.5</ele>
        <time>2019-08-05T12:38:02Z</time>
      </trkpt>
      <trkpt lat="42.931573" lon="-0.722282">
        <ele>1854.0</ele>
        <time>2019-08-05T12:38:10Z</time>
      </trkpt>
      <trkpt lat="42.931468" lon="-0.722306">
        <ele>1855.0</ele>
        <time>2019-08-05T12:38:18Z</time>
      </trkpt>
      <trkpt lat="42.931382" lon="-0.722373">
        <ele>1856.2</ele>
        <time>2019-08-05T12:38:25Z</time>
      </trkpt>
      <trkpt lat="42.931308" lon="-0.722440">
        <ele>1857.3</ele>
        <time>2019-08-05T12:38:32Z</time>
      </trkpt>
      <trkpt lat="42.931245" lon="-0.722511">
        <ele>1858.6</ele>
        <time>2019-08-05T12:38:39Z</time>
      </trkpt>
      <trkpt lat="42.931165" lon="-0.722537">
        <ele>1860.3</ele>
        <time>2019-08-05T12:38:49Z</time>
      </trkpt>
      <trkpt lat="42.931108" lon="-0.722589">
        <ele>1862.9</ele>
        <time>2019-08-05T12:39:02Z</time>
      </trkpt>
      <trkpt lat="42.931000" lon="-0.722651">
        <ele>1866.6</ele>
        <time>2019-08-05T12:39:18Z</time>
      </trkpt>
      <trkpt lat="42.930892" lon="-0.722718">
        <ele>1869.5</ele>
        <time>2019-08-05T12:39:31Z</time>
      </trkpt>
      <trkpt lat="42.930843" lon="-0.722835">
        <ele>1871.7</ele>
        <time>2019-08-05T12:39:42Z</time>
      </trkpt>
      <trkpt lat="42.930756" lon="-0.722876">
        <ele>1873.5</ele>
        <time>2019-08-05T12:39:54Z</time>
      </trkpt>
      <trkpt lat="42.930696" lon="-0.722962">
        <ele>1876.1</ele>
        <time>2019-08-05T12:40:09Z</time>
      </trkpt>
      <trkpt lat="42.930607" lon="-0.722969">
        <ele>1879.3</ele>
        <time>2019-08-05T12:40:27Z</time>
      </trkpt>
      <trkpt lat="42.930536" lon="-0.723058">
        <ele>1882.4</ele>
        <time>2019-08-05T12:40:42Z</time>
      </trkpt>
      <trkpt lat="42.930466" lon="-0.723119">
        <ele>1885.0</ele>
        <time>2019-08-05T12:40:56Z</time>
      </trkpt>
      <trkpt lat="42.930378" lon="-0.723187">
        <ele>1888.0</ele>
        <time>2019-08-05T12:41:12Z</time>
      </trkpt>
      <trkpt lat="42.930319" lon="-0.723203">
        <ele>1891.5</ele>
        <time>2019-08-05T12:41:28Z</time>
      </trkpt>
      <trkpt lat="42.930234" lon="-0.723185">
        <ele>1895.4</ele>
        <time>2019-08-05T12:41:48Z</time>
      </trkpt>
      <trkpt lat="42.930146" lon="-0.723200">
        <ele>1899.2</ele>
        <time>2019-08-05T12:42:08Z</time>
      </trkpt>
      <trkpt lat="42.930059" lon="-0.723168">
        <ele>1902.7</ele>
        <time>2019-08-05T12:42:27Z</time>
      </trkpt>
      <trkpt lat="42.929999" lon="-0.723238">
        <ele>1904.7</ele>
        <time>2019-08-05T12:42:41Z</time>
      </trkpt>
      <trkpt lat="42.929956" lon="-0.723210">
        <ele>1908.0</ele>
        <time>2019-08-05T12:43:03Z</time>
      </trkpt>
      <trkpt lat="42.929888" lon="-0.723290">
        <ele>1909.8</ele>
        <time>2019-08-05T12:43:16Z</time>
      </trkpt>
      <trkpt lat="42.929800" lon="-0.723310">
        <ele>1914.9</ele>
        <time>2019-08-05T12:43:37Z</time>
      </trkpt>
      <trkpt lat="42.929723" lon="-0.723371">
        <ele>1917.7</ele>
        <time>2019-08-05T12:43:52Z</time>
      </trkpt>
      <trkpt lat="42.929639" lon="-0.723457">
        <ele>1920.9</ele>
        <time>2019-08-05T12:44:08Z</time>
      </trkpt>
      <trkpt lat="42.929595" lon="-0.723583">
        <ele>1922.8</ele>
        <time>2019-08-05T12:44:23Z</time>
      </trkpt>
      <trkpt lat="42.929538" lon="-0.723726">
        <ele>1925.1</ele>
        <time>2019-08-05T12:44:38Z</time>
      </trkpt>
      <trkpt lat="42.929476" lon="-0.723807">
        <ele>1928.8</ele>
        <time>2019-08-05T12:44:58Z</time>
      </trkpt>
      <trkpt lat="42.929379" lon="-0.723832">
        <ele>1926.5</ele>
        <time>2019-08-05T12:45:18Z</time>
      </trkpt>
      <trkpt lat="42.929296" lon="-0.723922">
        <ele>1924.9</ele>
        <time>2019-08-05T12:45:29Z</time>
      </trkpt>
      <trkpt lat="42.929260" lon="-0.724047">
        <ele>1924.9</ele>
        <time>2019-08-05T12:45:41Z</time>
      </trkpt>
      <trkpt lat="42.929211" lon="-0.724163">
        <ele>1925.8</ele>
        <time>2019-08-05T12:45:50Z</time>
      </trkpt>
      <trkpt lat="42.929167" lon="-0.724258">
        <ele>1927.3</ele>
        <time>2019-08-05T12:46:01Z</time>
      </trkpt>
      <trkpt lat="42.929126" lon="-0.724363">
        <ele>1930.9</ele>
        <time>2019-08-05T12:46:16Z</time>
      </trkpt>
      <trkpt lat="42.929050" lon="-0.724456">
        <ele>1932.7</ele>
        <time>2019-08-05T12:46:27Z</time>
      </trkpt>
      <trkpt lat="42.928972" lon="-0.724538">
        <ele>1933.8</ele>
        <time>2019-08-05T12:46:37Z</time>
      </trkpt>
      <trkpt lat="42.928881" lon="-0.724594">
        <ele>1936.8</ele>
        <time>2019-08-05T12:46:59Z</time>
      </trkpt>
      <trkpt lat="42.928832" lon="-0.724669">
        <ele>1938.7</ele>
        <time>2019-08-05T12:47:18Z</time>
      </trkpt>
      <trkpt lat="42.928755" lon="-0.724807">
        <ele>1943.0</ele>
        <time>2019-08-05T12:47:35Z</time>
      </trkpt>
      <trkpt lat="42.928687" lon="-0.724906">
        <ele>1947.4</ele>
        <time>2019-08-05T12:47:50Z</time>
      </trkpt>
      <trkpt lat="42.928652" lon="-0.725016">
        <ele>1950.9</ele>
        <time>2019-08-05T12:48:07Z</time>
      </trkpt>
      <trkpt lat="42.928571" lon="-0.725064">
        <ele>1955.6</ele>
        <time>2019-08-05T12:48:28Z</time>
      </trkpt>
      <trkpt lat="42.928497" lon="-0.725148">
        <ele>1959.5</ele>
        <time>2019-08-05T12:48:49Z</time>
      </trkpt>
      <trkpt lat="42.928478" lon="-0.725199">
        <ele>1963.4</ele>
        <time>2019-08-05T12:49:15Z</time>
      </trkpt>
      <trkpt lat="42.928401" lon="-0.725285">
        <ele>1965.6</ele>
        <time>2019-08-05T12:49:31Z</time>
      </trkpt>
      <trkpt lat="42.928349" lon="-0.725397">
        <ele>1967.1</ele>
        <time>2019-08-05T12:49:42Z</time>
      </trkpt>
      <trkpt lat="42.928286" lon="-0.725463">
        <ele>1970.9</ele>
        <time>2019-08-05T12:50:00Z</time>
      </trkpt>
      <trkpt lat="42.928229" lon="-0.725559">
        <ele>1976.0</ele>
        <time>2019-08-05T12:50:18Z</time>
      </trkpt>
      <trkpt lat="42.928142" lon="-0.725659">
        <ele>1978.6</ele>
        <time>2019-08-05T12:50:31Z</time>
      </trkpt>
      <trkpt lat="42.928092" lon="-0.725815">
        <ele>1981.1</ele>
        <time>2019-08-05T12:50:47Z</time>
      </trkpt>
      <trkpt lat="42.928086" lon="-0.725907">
        <ele>1981.5</ele>
        <time>2019-08-05T12:50:58Z</time>
      </trkpt>
      <trkpt lat="42.928050" lon="-0.726003">
        <ele>1982.3</ele>
        <time>2019-08-05T12:51:12Z</time>
      </trkpt>
      <trkpt lat="42.928039" lon="-0.726133">
        <ele>1984.7</ele>
        <time>2019-08-05T12:51:31Z</time>
      </trkpt>
      <trkpt lat="42.927990" lon="-0.726242">
        <ele>1988.8</ele>
        <time>2019-08-05T12:51:48Z</time>
      </trkpt>
      <trkpt lat="42.927990" lon="-0.726345">
        <ele>1992.9</ele>
        <time>2019-08-05T12:52:07Z</time>
      </trkpt>
      <trkpt lat="42.927969" lon="-0.726453">
        <ele>1996.8</ele>
        <time>2019-08-05T12:52:28Z</time>
      </trkpt>
      <trkpt lat="42.927952" lon="-0.726561">
        <ele>2000.4</ele>
        <time>2019-08-05T12:52:52Z</time>
      </trkpt>
      <trkpt lat="42.927988" lon="-0.726686">
        <ele>2003.5</ele>
        <time>2019-08-05T12:53:11Z</time>
      </trkpt>
      <trkpt lat="42.928061" lon="-0.726772">
        <ele>2006.5</ele>
        <time>2019-08-05T12:53:26Z</time>
      </trkpt>
      <trkpt lat="42.928078" lon="-0.726877">
        <ele>2009.3</ele>
        <time>2019-08-05T12:53:42Z</time>
      </trkpt>
      <trkpt lat="42.928106" lon="-0.726974">
        <ele>2014.2</ele>
        <time>2019-08-05T12:54:08Z</time>
      </trkpt>
      <trkpt lat="42.928050" lon="-0.727070">
        <ele>2022.9</ele>
        <time>2019-08-05T12:56:07Z</time>
      </trkpt>
      <trkpt lat="42.928003" lon="-0.727162">
        <ele>2025.9</ele>
        <time>2019-08-05T12:56:31Z</time>
      </trkpt>
      <trkpt lat="42.927947" lon="-0.727246">
        <ele>2030.2</ele>
        <time>2019-08-05T12:56:55Z</time>
      </trkpt>
      <trkpt lat="42.927883" lon="-0.727309">
        <ele>2034.4</ele>
        <time>2019-08-05T12:57:21Z</time>
      </trkpt>
      <trkpt lat="42.927896" lon="-0.727411">
        <ele>2038.3</ele>
        <time>2019-08-05T12:57:41Z</time>
      </trkpt>
      <trkpt lat="42.927902" lon="-0.727525">
        <ele>2042.5</ele>
        <time>2019-08-05T12:58:04Z</time>
      </trkpt>
      <trkpt lat="42.927925" lon="-0.727638">
        <ele>2047.7</ele>
        <time>2019-08-05T12:58:28Z</time>
      </trkpt>
      <trkpt lat="42.927952" lon="-0.727726">
        <ele>2052.3</ele>
        <time>2019-08-05T12:58:57Z</time>
      </trkpt>
      <trkpt lat="42.927958" lon="-0.727826">
        <ele>2057.1</ele>
        <time>2019-08-05T12:59:21Z</time>
      </trkpt>
      <trkpt lat="42.927951" lon="-0.727924">
        <ele>2061.0</ele>
        <time>2019-08-05T12:59:42Z</time>
      </trkpt>
      <trkpt lat="42.927940" lon="-0.728019">
        <ele>2062.8</ele>
        <time>2019-08-05T12:59:58Z</time>
      </trkpt>
      <trkpt lat="42.928004" lon="-0.728132">
        <ele>2064.4</ele>
        <time>2019-08-05T13:00:16Z</time>
      </trkpt>
      <trkpt lat="42.928035" lon="-0.728251">
        <ele>2068.7</ele>
        <time>2019-08-05T13:00:36Z</time>
      </trkpt>
      <trkpt lat="42.928048" lon="-0.728373">
        <ele>2071.6</ele>
        <time>2019-08-05T13:00:50Z</time>
      </trkpt>
      <trkpt lat="42.928026" lon="-0.728486">
        <ele>2076.3</ele>
        <time>2019-08-05T13:01:12Z</time>
      </trkpt>
      <trkpt lat="42.927976" lon="-0.728611">
        <ele>2079.9</ele>
        <time>2019-08-05T13:01:34Z</time>
      </trkpt>
      <trkpt lat="42.927881" lon="-0.728617">
        <ele>2084.2</ele>
        <time>2019-08-05T13:01:56Z</time>
      </trkpt>
      <trkpt lat="42.927847" lon="-0.728644">
        <ele>2088.2</ele>
        <time>2019-08-05T13:02:17Z</time>
      </trkpt>
      <trkpt lat="42.927810" lon="-0.728794">
        <ele>2092.1</ele>
        <time>2019-08-05T13:02:37Z</time>
      </trkpt>
      <trkpt lat="42.927800" lon="-0.728930">
        <ele>2093.1</ele>
        <time>2019-08-05T13:02:54Z</time>
      </trkpt>
      <trkpt lat="42.927754" lon="-0.728994">
        <ele>2094.2</ele>
        <time>2019-08-05T13:03:09Z</time>
      </trkpt>
      <trkpt lat="42.927677" lon="-0.728897">
        <ele>2097.8</ele>
        <time>2019-08-05T13:03:25Z</time>
      </trkpt>
      <trkpt lat="42.927450" lon="-0.728841">
        <ele>2105.0</ele>
        <time>2019-08-05T13:07:49Z</time>
      </trkpt>
      <trkpt lat="42.927368" lon="-0.728767">
        <ele>2104.3</ele>
        <time>2019-08-05T13:07:59Z</time>
      </trkpt>
      <trkpt lat="42.927290" lon="-0.728677">
        <ele>2104.2</ele>
        <time>2019-08-05T13:08:09Z</time>
      </trkpt>
      <trkpt lat="42.927210" lon="-0.728783">
        <ele>2104.9</ele>
        <time>2019-08-05T13:08:21Z</time>
      </trkpt>
      <trkpt lat="42.927124" lon="-0.728852">
        <ele>2107.6</ele>
        <time>2019-08-05T13:08:32Z</time>
      </trkpt>
      <trkpt lat="42.927063" lon="-0.728931">
        <ele>2109.9</ele>
        <time>2019-08-05T13:08:42Z</time>
      </trkpt>
      <trkpt lat="42.926973" lon="-0.728982">
        <ele>2111.0</ele>
        <time>2019-08-05T13:08:53Z</time>
      </trkpt>
      <trkpt lat="42.926886" lon="-0.729054">
        <ele>2113.4</ele>
        <time>2019-08-05T13:09:05Z</time>
      </trkpt>
      <trkpt lat="42.926812" lon="-0.729154">
        <ele>2115.2</ele>
        <time>2019-08-05T13:09:19Z</time>
      </trkpt>
      <trkpt lat="42.926720" lon="-0.729183">
        <ele>2119.3</ele>
        <time>2019-08-05T13:09:35Z</time>
      </trkpt>
      <trkpt lat="42.926632" lon="-0.729264">
        <ele>2123.3</ele>
        <time>2019-08-05T13:09:51Z</time>
      </trkpt>
      <trkpt lat="42.926563" lon="-0.729323">
        <ele>2125.7</ele>
        <time>2019-08-05T13:10:05Z</time>
      </trkpt>
      <trkpt lat="42.926470" lon="-0.729304">
        <ele>2128.1</ele>
        <time>2019-08-05T13:10:21Z</time>
      </trkpt>
      <trkpt lat="42.926412" lon="-0.729399">
        <ele>2129.9</ele>
        <time>2019-08-05T13:10:31Z</time>
      </trkpt>
      <trkpt lat="42.926344" lon="-0.729481">
        <ele>2130.7</ele>
        <time>2019-08-05T13:10:44Z</time>
      </trkpt>
      <trkpt lat="42.926281" lon="-0.729575">
        <ele>2133.1</ele>
        <time>2019-08-05T13:10:57Z</time>
      </trkpt>
      <trkpt lat="42.926216" lon="-0.729618">
        <ele>2137.4</ele>
        <time>2019-08-05T13:12:38Z</time>
      </trkpt>
      <trkpt lat="42.926220" lon="-0.729487">
        <ele>2138.9</ele>
        <time>2019-08-05T13:12:55Z</time>
      </trkpt>
      <trkpt lat="42.926216" lon="-0.729359">
        <ele>2138.0</ele>
        <time>2019-08-05T13:13:06Z</time>
      </trkpt>
      <trkpt lat="42.926206" lon="-0.729243">
        <ele>2138.1</ele>
        <time>2019-08-05T13:13:15Z</time>
      </trkpt>
      <trkpt lat="42.926168" lon="-0.729122">
        <ele>2137.1</ele>
        <time>2019-08-05T13:13:24Z</time>
      </trkpt>
      <trkpt lat="42.926103" lon="-0.729045">
        <ele>2137.5</ele>
        <time>2019-08-05T13:13:33Z</time>
      </trkpt>
      <trkpt lat="42.926084" lon="-0.728931">
        <ele>2138.9</ele>
        <time>2019-08-05T13:13:45Z</time>
      </trkpt>
      <trkpt lat="42.926016" lon="-0.728857">
        <ele>2137.6</ele>
        <time>2019-08-05T13:13:55Z</time>
      </trkpt>
      <trkpt lat="42.925983" lon="-0.728741">
        <ele>2138.6</ele>
        <time>2019-08-05T13:14:04Z</time>
      </trkpt>
      <trkpt lat="42.925964" lon="-0.728609">
        <ele>2139.1</ele>
        <time>2019-08-05T13:14:15Z</time>
      </trkpt>
      <trkpt lat="42.925938" lon="-0.728471">
        <ele>2140.8</ele>
        <time>2019-08-05T13:14:24Z</time>
      </trkpt>
      <trkpt lat="42.925893" lon="-0.728349">
        <ele>2142.4</ele>
        <time>2019-08-05T13:14:34Z</time>
      </trkpt>
      <trkpt lat="42.925829" lon="-0.728236">
        <ele>2144.8</ele>
        <time>2019-08-05T13:14:46Z</time>
      </trkpt>
      <trkpt lat="42.925735" lon="-0.728164">
        <ele>2147.3</ele>
        <time>2019-08-05T13:14:58Z</time>
      </trkpt>
      <trkpt lat="42.925651" lon="-0.728128">
        <ele>2148.2</ele>
        <time>2019-08-05T13:15:10Z</time>
      </trkpt>
      <trkpt lat="42.925556" lon="-0.728089">
        <ele>2151.2</ele>
        <time>2019-08-05T13:15:22Z</time>
      </trkpt>
      <trkpt lat="42.925466" lon="-0.728017">
        <ele>2153.7</ele>
        <time>2019-08-05T13:15:32Z</time>
      </trkpt>
      <trkpt lat="42.925365" lon="-0.727984">
        <ele>2155.9</ele>
        <time>2019-08-05T13:15:41Z</time>
      </trkpt>
      <trkpt lat="42.925278" lon="-0.727957">
        <ele>2157.2</ele>
        <time>2019-08-05T13:15:51Z</time>
      </trkpt>
      <trkpt lat="42.925184" lon="-0.727955">
        <ele>2155.8</ele>
        <time>2019-08-05T13:16:01Z</time>
      </trkpt>
      <trkpt lat="42.925104" lon="-0.727890">
        <ele>2154.1</ele>
        <time>2019-08-05T13:16:10Z</time>
      </trkpt>
      <trkpt lat="42.925013" lon="-0.727818">
        <ele>2154.6</ele>
        <time>2019-08-05T13:16:21Z</time>
      </trkpt>
      <trkpt lat="42.924916" lon="-0.727801">
        <ele>2155.3</ele>
        <time>2019-08-05T13:16:31Z</time>
      </trkpt>
      <trkpt lat="42.924854" lon="-0.727721">
        <ele>2156.5</ele>
        <time>2019-08-05T13:16:43Z</time>
      </trkpt>
      <trkpt lat="42.924799" lon="-0.727722">
        <ele>2159.5</ele>
        <time>2019-08-05T13:17:24Z</time>
      </trkpt>
      <trkpt lat="42.924716" lon="-0.727766">
        <ele>2161.3</ele>
        <time>2019-08-05T13:17:36Z</time>
      </trkpt>
      <trkpt lat="42.924638" lon="-0.727842">
        <ele>2164.8</ele>
        <time>2019-08-05T13:17:54Z</time>
      </trkpt>
      <trkpt lat="42.924617" lon="-0.727782">
        <ele>2168.0</ele>
        <time>2019-08-05T13:18:09Z</time>
      </trkpt>
      <trkpt lat="42.924594" lon="-0.727686">
        <ele>2170.9</ele>
        <time>2019-08-05T13:18:25Z</time>
      </trkpt>
      <trkpt lat="42.924521" lon="-0.727612">
        <ele>2175.3</ele>
        <time>2019-08-05T13:18:42Z</time>
      </trkpt>
      <trkpt lat="42.924485" lon="-0.727516">
        <ele>2178.1</ele>
        <time>2019-08-05T13:18:57Z</time>
      </trkpt>
      <trkpt lat="42.924405" lon="-0.727458">
        <ele>2180.5</ele>
        <time>2019-08-05T13:19:12Z</time>
      </trkpt>
      <trkpt lat="42.924277" lon="-0.727383">
        <ele>2189.9</ele>
        <time>2019-08-05T13:20:21Z</time>
      </trkpt>
      <trkpt lat="42.924202" lon="-0.727310">
        <ele>2194.1</ele>
        <time>2019-08-05T13:20:40Z</time>
      </trkpt>
      <trkpt lat="42.924157" lon="-0.727193">
        <ele>2196.9</ele>
        <time>2019-08-05T13:20:58Z</time>
      </trkpt>
      <trkpt lat="42.924045" lon="-0.727139">
        <ele>2197.4</ele>
        <time>2019-08-05T13:21:13Z</time>
      </trkpt>
      <trkpt lat="42.923943" lon="-0.727130">
        <ele>2197.5</ele>
        <time>2019-08-05T13:21:32Z</time>
      </trkpt>
      <trkpt lat="42.923856" lon="-0.727099">
        <ele>2201.8</ele>
        <time>2019-08-05T13:21:57Z</time>
      </trkpt>
      <trkpt lat="42.923790" lon="-0.727054">
        <ele>2204.1</ele>
        <time>2019-08-05T13:22:26Z</time>
      </trkpt>
      <trkpt lat="42.923703" lon="-0.727033">
        <ele>2209.4</ele>
        <time>2019-08-05T13:22:51Z</time>
      </trkpt>
      <trkpt lat="42.923621" lon="-0.726973">
        <ele>2214.9</ele>
        <time>2019-08-05T13:23:18Z</time>
      </trkpt>
      <trkpt lat="42.923572" lon="-0.726956">
        <ele>2218.7</ele>
        <time>2019-08-05T13:24:14Z</time>
      </trkpt>
      <trkpt lat="42.923527" lon="-0.726916">
        <ele>2223.3</ele>
        <time>2019-08-05T13:24:51Z</time>
      </trkpt>
      <trkpt lat="42.923447" lon="-0.726883">
        <ele>2227.3</ele>
        <time>2019-08-05T13:25:12Z</time>
      </trkpt>
      <trkpt lat="42.923425" lon="-0.726787">
        <ele>2231.3</ele>
        <time>2019-08-05T13:25:33Z</time>
      </trkpt>
      <trkpt lat="42.923413" lon="-0.726673">
        <ele>2236.4</ele>
        <time>2019-08-05T13:26:11Z</time>
      </trkpt>
      <trkpt lat="42.923333" lon="-0.726614">
        <ele>2238.6</ele>
        <time>2019-08-05T13:26:30Z</time>
      </trkpt>
      <trkpt lat="42.923298" lon="-0.726531">
        <ele>2243.5</ele>
        <time>2019-08-05T13:27:37Z</time>
      </trkpt>
      <trkpt lat="42.923221" lon="-0.726472">
        <ele>2245.9</ele>
        <time>2019-08-05T13:28:01Z</time>
      </trkpt>
      <trkpt lat="42.923133" lon="-0.726479">
        <ele>2248.7</ele>
        <time>2019-08-05T13:28:21Z</time>
      </trkpt>
      <trkpt lat="42.923082" lon="-0.726389">
        <ele>2250.3</ele>
        <time>2019-08-05T13:29:08Z</time>
      </trkpt>
      <trkpt lat="42.923043" lon="-0.726276">
        <ele>2251.3</ele>
        <time>2019-08-05T13:29:23Z</time>
      </trkpt>
      <trkpt lat="42.923036" lon="-0.726166">
        <ele>2253.4</ele>
        <time>2019-08-05T13:29:45Z</time>
      </trkpt>
      <trkpt lat="42.922976" lon="-0.726113">
        <ele>2257.4</ele>
        <time>2019-08-05T13:30:40Z</time>
      </trkpt>
      <trkpt lat="42.922903" lon="-0.726046">
        <ele>2260.9</ele>
        <time>2019-08-05T13:30:56Z</time>
      </trkpt>
      <trkpt lat="42.922815" lon="-0.725994">
        <ele>2264.2</ele>
        <time>2019-08-05T13:31:17Z</time>
      </trkpt>
      <trkpt lat="42.922739" lon="-0.725928">
        <ele>2265.9</ele>
        <time>2019-08-05T13:31:30Z</time>
      </trkpt>
      <trkpt lat="42.922654" lon="-0.725944">
        <ele>2266.3</ele>
        <time>2019-08-05T13:31:45Z</time>
      </trkpt>
      <trkpt lat="42.922562" lon="-0.725986">
        <ele>2268.2</ele>
        <time>2019-08-05T13:31:55Z</time>
      </trkpt>
      <trkpt lat="42.922470" lon="-0.725977">
        <ele>2269.9</ele>
        <time>2019-08-05T13:32:05Z</time>
      </trkpt>
      <trkpt lat="42.922413" lon="-0.725875">
        <ele>2270.9</ele>
        <time>2019-08-05T13:32:14Z</time>
      </trkpt>
      <trkpt lat="42.922384" lon="-0.725796">
        <ele>2272.9</ele>
        <time>2019-08-05T13:32:31Z</time>
      </trkpt>
      <trkpt lat="42.922334" lon="-0.725680">
        <ele>2273.3</ele>
        <time>2019-08-05T13:32:42Z</time>
      </trkpt>
      <trkpt lat="42.922253" lon="-0.725625">
        <ele>2274.2</ele>
        <time>2019-08-05T13:33:00Z</time>
      </trkpt>
      <trkpt lat="42.922165" lon="-0.725683">
        <ele>2271.6</ele>
        <time>2019-08-05T13:33:11Z</time>
      </trkpt>
      <trkpt lat="42.922076" lon="-0.725712">
        <ele>2270.2</ele>
        <time>2019-08-05T13:33:20Z</time>
      </trkpt>
      <trkpt lat="42.921973" lon="-0.725727">
        <ele>2271.0</ele>
        <time>2019-08-05T13:33:31Z</time>
      </trkpt>
      <trkpt lat="42.921870" lon="-0.725669">
        <ele>2272.9</ele>
        <time>2019-08-05T13:33:45Z</time>
      </trkpt>
      <trkpt lat="42.921801" lon="-0.725572">
        <ele>2275.3</ele>
        <time>2019-08-05T13:33:58Z</time>
      </trkpt>
      <trkpt lat="42.921747" lon="-0.725434">
        <ele>2277.5</ele>
        <time>2019-08-05T13:34:10Z</time>
      </trkpt>
      <trkpt lat="42.921666" lon="-0.725349">
        <ele>2279.0</ele>
        <time>2019-08-05T13:34:20Z</time>
      </trkpt>
      <trkpt lat="42.921609" lon="-0.725232">
        <ele>2280.1</ele>
        <time>2019-08-05T13:34:31Z</time>
      </trkpt>
      <trkpt lat="42.921508" lon="-0.725182">
        <ele>2280.2</ele>
        <time>2019-08-05T13:34:42Z</time>
      </trkpt>
      <trkpt lat="42.921427" lon="-0.725091">
        <ele>2281.5</ele>
        <time>2019-08-05T13:34:53Z</time>
      </trkpt>
      <trkpt lat="42.921367" lon="-0.725099">
        <ele>2280.5</ele>
        <time>2019-08-05T13:35:21Z</time>
      </trkpt>
      <trkpt lat="42.921273" lon="-0.725166">
        <ele>2279.9</ele>
        <time>2019-08-05T13:35:34Z</time>
      </trkpt>
      <trkpt lat="42.921217" lon="-0.725222">
        <ele>2277.9</ele>
        <time>2019-08-05T13:35:49Z</time>
      </trkpt>
      <trkpt lat="42.921143" lon="-0.725134">
        <ele>2276.1</ele>
        <time>2019-08-05T13:36:07Z</time>
      </trkpt>
      <trkpt lat="42.921123" lon="-0.724999">
        <ele>2274.9</ele>
        <time>2019-08-05T13:36:18Z</time>
      </trkpt>
      <trkpt lat="42.921036" lon="-0.724959">
        <ele>2275.3</ele>
        <time>2019-08-05T13:36:30Z</time>
      </trkpt>
      <trkpt lat="42.920943" lon="-0.724985">
        <ele>2276.4</ele>
        <time>2019-08-05T13:37:02Z</time>
      </trkpt>
      <trkpt lat="42.920873" lon="-0.725089">
        <ele>2275.5</ele>
        <time>2019-08-05T13:37:24Z</time>
      </trkpt>
      <trkpt lat="42.920800" lon="-0.725091">
        <ele>2275.6</ele>
        <time>2019-08-05T13:37:39Z</time>
      </trkpt>
      <trkpt lat="42.920733" lon="-0.724997">
        <ele>2275.5</ele>
        <time>2019-08-05T13:37:51Z</time>
      </trkpt>
      <trkpt lat="42.920694" lon="-0.724916">
        <ele>2277.0</ele>
        <time>2019-08-05T13:38:04Z</time>
      </trkpt>
      <trkpt lat="42.920621" lon="-0.724863">
        <ele>2277.5</ele>
        <time>2019-08-05T13:38:15Z</time>
      </trkpt>
      <trkpt lat="42.920537" lon="-0.724805">
        <ele>2278.9</ele>
        <time>2019-08-05T13:38:28Z</time>
      </trkpt>
      <trkpt lat="42.920456" lon="-0.724790">
        <ele>2281.0</ele>
        <time>2019-08-05T13:38:41Z</time>
      </trkpt>
      <trkpt lat="42.920385" lon="-0.724844">
        <ele>2283.0</ele>
        <time>2019-08-05T13:39:12Z</time>
      </trkpt>
      <trkpt lat="42.920315" lon="-0.724851">
        <ele>2284.4</ele>
        <time>2019-08-05T13:39:23Z</time>
      </trkpt>
      <trkpt lat="42.920262" lon="-0.724888">
        <ele>2287.4</ele>
        <time>2019-08-05T13:39:45Z</time>
      </trkpt>
      <trkpt lat="42.920230" lon="-0.724791">
        <ele>2289.5</ele>
        <time>2019-08-05T13:39:57Z</time>
      </trkpt>
      <trkpt lat="42.920142" lon="-0.724793">
        <ele>2293.1</ele>
        <time>2019-08-05T13:40:15Z</time>
      </trkpt>
      <trkpt lat="42.920032" lon="-0.724710">
        <ele>2295.5</ele>
        <time>2019-08-05T13:40:29Z</time>
      </trkpt>
      <trkpt lat="42.919967" lon="-0.724621">
        <ele>2295.7</ele>
        <time>2019-08-05T13:40:40Z</time>
      </trkpt>
      <trkpt lat="42.919891" lon="-0.724663">
        <ele>2296.9</ele>
        <time>2019-08-05T13:40:54Z</time>
      </trkpt>
      <trkpt lat="42.919822" lon="-0.724658">
        <ele>2301.9</ele>
        <time>2019-08-05T13:41:20Z</time>
      </trkpt>
      <trkpt lat="42.919734" lon="-0.724758">
        <ele>2304.5</ele>
        <time>2019-08-05T13:41:37Z</time>
      </trkpt>
      <trkpt lat="42.919679" lon="-0.724857">
        <ele>2307.0</ele>
        <time>2019-08-05T13:41:51Z</time>
      </trkpt>
      <trkpt lat="42.919614" lon="-0.724968">
        <ele>2309.8</ele>
        <time>2019-08-05T13:42:07Z</time>
      </trkpt>
      <trkpt lat="42.919527" lon="-0.725043">
        <ele>2311.1</ele>
        <time>2019-08-05T13:42:19Z</time>
      </trkpt>
      <trkpt lat="42.919444" lon="-0.725103">
        <ele>2312.5</ele>
        <time>2019-08-05T13:42:35Z</time>
      </trkpt>
      <trkpt lat="42.919407" lon="-0.725215">
        <ele>2315.4</ele>
        <time>2019-08-05T13:42:52Z</time>
      </trkpt>
      <trkpt lat="42.919316" lon="-0.725236">
        <ele>2318.5</ele>
        <time>2019-08-05T13:43:12Z</time>
      </trkpt>
      <trkpt lat="42.919301" lon="-0.725329">
        <ele>2321.4</ele>
        <time>2019-08-05T13:43:30Z</time>
      </trkpt>
      <trkpt lat="42.919260" lon="-0.725446">
        <ele>2323.9</ele>
        <time>2019-08-05T13:43:45Z</time>
      </trkpt>
      <trkpt lat="42.919209" lon="-0.725473">
        <ele>2327.3</ele>
        <time>2019-08-05T13:44:08Z</time>
      </trkpt>
      <trkpt lat="42.919155" lon="-0.725487">
        <ele>2330.9</ele>
        <time>2019-08-05T13:44:32Z</time>
      </trkpt>
      <trkpt lat="42.919106" lon="-0.725581">
        <ele>2334.0</ele>
        <time>2019-08-05T13:44:54Z</time>
      </trkpt>
      <trkpt lat="42.919083" lon="-0.725666">
        <ele>2337.8</ele>
        <time>2019-08-05T13:45:17Z</time>
      </trkpt>
      <trkpt lat="42.919037" lon="-0.725717">
        <ele>2343.2</ele>
        <time>2019-08-05T13:45:40Z</time>
      </trkpt>
      <trkpt lat="42.918962" lon="-0.725678">
        <ele>2347.8</ele>
        <time>2019-08-05T13:46:03Z</time>
      </trkpt>
      <trkpt lat="42.918900" lon="-0.725595">
        <ele>2350.1</ele>
        <time>2019-08-05T13:46:24Z</time>
      </trkpt>
      <trkpt lat="42.918857" lon="-0.725470">
        <ele>2352.2</ele>
        <time>2019-08-05T13:46:39Z</time>
      </trkpt>
      <trkpt lat="42.918777" lon="-0.725511">
        <ele>2356.0</ele>
        <time>2019-08-05T13:47:01Z</time>
      </trkpt>
      <trkpt lat="42.918720" lon="-0.725509">
        <ele>2359.5</ele>
        <time>2019-08-05T13:47:31Z</time>
      </trkpt>
      <trkpt lat="42.918641" lon="-0.725433">
        <ele>2363.3</ele>
        <time>2019-08-05T13:47:51Z</time>
      </trkpt>
      <trkpt lat="42.918556" lon="-0.725367">
        <ele>2366.6</ele>
        <time>2019-08-05T13:48:11Z</time>
      </trkpt>
      <trkpt lat="42.918512" lon="-0.725288">
        <ele>2369.5</ele>
        <time>2019-08-05T13:48:33Z</time>
      </trkpt>
      <trkpt lat="42.918435" lon="-0.725200">
        <ele>2372.5</ele>
        <time>2019-08-05T13:48:51Z</time>
      </trkpt>
      <trkpt lat="42.918420" lon="-0.725078">
        <ele>2373.8</ele>
        <time>2019-08-05T13:49:06Z</time>
      </trkpt>
      <trkpt lat="42.918372" lon="-0.724972">
        <ele>2375.7</ele>
        <time>2019-08-05T13:49:19Z</time>
      </trkpt>
      <trkpt lat="42.918337" lon="-0.724847">
        <ele>2377.0</ele>
        <time>2019-08-05T13:49:32Z</time>
      </trkpt>
      <trkpt lat="42.918315" lon="-0.724733">
        <ele>2379.6</ele>
        <time>2019-08-05T13:49:45Z</time>
      </trkpt>
      <trkpt lat="42.918286" lon="-0.724609">
        <ele>2382.3</ele>
        <time>2019-08-05T13:50:00Z</time>
      </trkpt>
      <trkpt lat="42.918294" lon="-0.724472">
        <ele>2385.2</ele>
        <time>2019-08-05T13:50:21Z</time>
      </trkpt>
      <trkpt lat="42.918326" lon="-0.724360">
        <ele>2386.9</ele>
        <time>2019-08-05T13:50:34Z</time>
      </trkpt>
      <trkpt lat="42.918369" lon="-0.724254">
        <ele>2389.6</ele>
        <time>2019-08-05T13:50:55Z</time>
      </trkpt>
      <trkpt lat="42.918415" lon="-0.724134">
        <ele>2389.9</ele>
        <time>2019-08-05T13:51:06Z</time>
      </trkpt>
      <trkpt lat="42.918449" lon="-0.724019">
        <ele>2390.3</ele>
        <time>2019-08-05T13:51:36Z</time>
      </trkpt>
      <trkpt lat="42.918453" lon="-0.723888">
        <ele>2391.3</ele>
        <time>2019-08-05T13:51:46Z</time>
      </trkpt>
      <trkpt lat="42.918415" lon="-0.723764">
        <ele>2392.9</ele>
        <time>2019-08-05T13:51:57Z</time>
      </trkpt>
      <trkpt lat="42.918364" lon="-0.723653">
        <ele>2395.4</ele>
        <time>2019-08-05T13:52:09Z</time>
      </trkpt>
      <trkpt lat="42.918308" lon="-0.723545">
        <ele>2396.6</ele>
        <time>2019-08-05T13:52:21Z</time>
      </trkpt>
      <trkpt lat="42.918238" lon="-0.723449">
        <ele>2397.9</ele>
        <time>2019-08-05T13:52:35Z</time>
      </trkpt>
      <trkpt lat="42.918232" lon="-0.723363">
        <ele>2399.6</ele>
        <time>2019-08-05T13:52:55Z</time>
      </trkpt>
      <trkpt lat="42.918306" lon="-0.723307">
        <ele>2399.7</ele>
        <time>2019-08-05T13:53:09Z</time>
      </trkpt>
      <trkpt lat="42.918324" lon="-0.723224">
        <ele>2399.2</ele>
        <time>2019-08-05T13:53:33Z</time>
      </trkpt>
      <trkpt lat="42.918321" lon="-0.723245">
        <ele>2400.4</ele>
        <time>2019-08-05T13:55:29Z</time>
      </trkpt>
      <trkpt lat="42.918271" lon="-0.723346">
        <ele>2401.0</ele>
        <time>2019-08-05T13:55:45Z</time>
      </trkpt>
      <trkpt lat="42.918220" lon="-0.723426">
        <ele>2404.3</ele>
        <time>2019-08-05T14:02:30Z</time>
      </trkpt>
      <trkpt lat="42.918221" lon="-0.723456">
        <ele>2405.7</ele>
        <time>2019-08-05T14:04:05Z</time>
      </trkpt>
      <trkpt lat="42.918293" lon="-0.723535">
        <ele>2405.2</ele>
        <time>2019-08-05T14:04:18Z</time>
      </trkpt>
      <trkpt lat="42.918351" lon="-0.723628">
        <ele>2404.4</ele>
        <time>2019-08-05T14:04:25Z</time>
      </trkpt>
      <trkpt lat="42.918396" lon="-0.723743">
        <ele>2403.2</ele>
        <time>2019-08-05T14:04:32Z</time>
      </trkpt>
      <trkpt lat="42.918432" lon="-0.723872">
        <ele>2401.7</ele>
        <time>2019-08-05T14:04:40Z</time>
      </trkpt>
      <trkpt lat="42.918443" lon="-0.723999">
        <ele>2399.7</ele>
        <time>2019-08-05T14:04:47Z</time>
      </trkpt>
      <trkpt lat="42.918441" lon="-0.724114">
        <ele>2398.4</ele>
        <time>2019-08-05T14:04:56Z</time>
      </trkpt>
      <trkpt lat="42.918436" lon="-0.724237">
        <ele>2397.9</ele>
        <time>2019-08-05T14:05:04Z</time>
      </trkpt>
      <trkpt lat="42.918430" lon="-0.724362">
        <ele>2396.8</ele>
        <time>2019-08-05T14:05:12Z</time>
      </trkpt>
      <trkpt lat="42.918404" lon="-0.724499">
        <ele>2395.0</ele>
        <time>2019-08-05T14:05:20Z</time>
      </trkpt>
      <trkpt lat="42.918405" lon="-0.724617">
        <ele>2393.4</ele>
        <time>2019-08-05T14:05:27Z</time>
      </trkpt>
      <trkpt lat="42.918395" lon="-0.724745">
        <ele>2391.3</ele>
        <time>2019-08-05T14:05:36Z</time>
      </trkpt>
      <trkpt lat="42.918385" lon="-0.724866">
        <ele>2389.4</ele>
        <time>2019-08-05T14:05:43Z</time>
      </trkpt>
      <trkpt lat="42.918396" lon="-0.724990">
        <ele>2387.1</ele>
        <time>2019-08-05T14:05:51Z</time>
      </trkpt>
      <trkpt lat="42.918426" lon="-0.725110">
        <ele>2385.1</ele>
        <time>2019-08-05T14:05:59Z</time>
      </trkpt>
      <trkpt lat="42.918439" lon="-0.725239">
        <ele>2382.6</ele>
        <time>2019-08-05T14:07:41Z</time>
      </trkpt>
      <trkpt lat="42.918457" lon="-0.725344">
        <ele>2382.0</ele>
        <time>2019-08-05T14:09:04Z</time>
      </trkpt>
      <trkpt lat="42.918489" lon="-0.725469">
        <ele>2380.1</ele>
        <time>2019-08-05T14:09:14Z</time>
      </trkpt>
      <trkpt lat="42.918529" lon="-0.725609">
        <ele>2378.5</ele>
        <time>2019-08-05T14:09:28Z</time>
      </trkpt>
      <trkpt lat="42.918576" lon="-0.725744">
        <ele>2378.4</ele>
        <time>2019-08-05T14:09:36Z</time>
      </trkpt>
      <trkpt lat="42.918628" lon="-0.725875">
        <ele>2378.1</ele>
        <time>2019-08-05T14:09:47Z</time>
      </trkpt>
      <trkpt lat="42.918685" lon="-0.725973">
        <ele>2375.8</ele>
        <time>2019-08-05T14:10:04Z</time>
      </trkpt>
      <trkpt lat="42.918723" lon="-0.726074">
        <ele>2374.7</ele>
        <time>2019-08-05T14:10:16Z</time>
      </trkpt>
      <trkpt lat="42.918750" lon="-0.725992">
        <ele>2377.5</ele>
        <time>2019-08-05T14:10:32Z</time>
      </trkpt>
      <trkpt lat="42.918796" lon="-0.725993">
        <ele>2381.3</ele>
        <time>2019-08-05T14:10:51Z</time>
      </trkpt>
      <trkpt lat="42.918845" lon="-0.725969">
        <ele>2385.6</ele>
        <time>2019-08-05T14:11:11Z</time>
      </trkpt>
      <trkpt lat="42.918912" lon="-0.726065">
        <ele>2386.9</ele>
        <time>2019-08-05T14:11:27Z</time>
      </trkpt>
      <trkpt lat="42.918893" lon="-0.726213">
        <ele>2391.4</ele>
        <time>2019-08-05T14:11:50Z</time>
      </trkpt>
      <trkpt lat="42.918872" lon="-0.726325">
        <ele>2395.4</ele>
        <time>2019-08-05T14:12:06Z</time>
      </trkpt>
      <trkpt lat="42.918887" lon="-0.726453">
        <ele>2393.1</ele>
        <time>2019-08-05T14:12:20Z</time>
      </trkpt>
      <trkpt lat="42.918861" lon="-0.726580">
        <ele>2390.3</ele>
        <time>2019-08-05T14:12:33Z</time>
      </trkpt>
      <trkpt lat="42.918845" lon="-0.726707">
        <ele>2388.5</ele>
        <time>2019-08-05T14:12:49Z</time>
      </trkpt>
      <trkpt lat="42.918847" lon="-0.726839">
        <ele>2386.1</ele>
        <time>2019-08-05T14:13:00Z</time>
      </trkpt>
      <trkpt lat="42.918826" lon="-0.726978">
        <ele>2384.4</ele>
        <time>2019-08-05T14:13:17Z</time>
      </trkpt>
      <trkpt lat="42.918818" lon="-0.727124">
        <ele>2382.3</ele>
        <time>2019-08-05T14:13:27Z</time>
      </trkpt>
      <trkpt lat="42.918835" lon="-0.727261">
        <ele>2380.5</ele>
        <time>2019-08-05T14:13:34Z</time>
      </trkpt>
      <trkpt lat="42.918874" lon="-0.727362">
        <ele>2379.9</ele>
        <time>2019-08-05T14:13:44Z</time>
      </trkpt>
      <trkpt lat="42.918921" lon="-0.727487">
        <ele>2382.0</ele>
        <time>2019-08-05T14:13:54Z</time>
      </trkpt>
      <trkpt lat="42.918944" lon="-0.727632">
        <ele>2380.3</ele>
        <time>2019-08-05T14:14:05Z</time>
      </trkpt>
      <trkpt lat="42.918951" lon="-0.727778">
        <ele>2378.8</ele>
        <time>2019-08-05T14:14:23Z</time>
      </trkpt>
      <trkpt lat="42.918960" lon="-0.727903">
        <ele>2376.4</ele>
        <time>2019-08-05T14:14:33Z</time>
      </trkpt>
      <trkpt lat="42.918991" lon="-0.727949">
        <ele>2378.2</ele>
        <time>2019-08-05T14:15:02Z</time>
      </trkpt>
      <trkpt lat="42.919028" lon="-0.728085">
        <ele>2382.7</ele>
        <time>2019-08-05T14:15:19Z</time>
      </trkpt>
      <trkpt lat="42.919096" lon="-0.728098">
        <ele>2388.4</ele>
        <time>2019-08-05T14:15:36Z</time>
      </trkpt>
      <trkpt lat="42.919147" lon="-0.727990">
        <ele>2392.1</ele>
        <time>2019-08-05T14:15:54Z</time>
      </trkpt>
      <trkpt lat="42.919174" lon="-0.727902">
        <ele>2396.4</ele>
        <time>2019-08-05T14:16:09Z</time>
      </trkpt>
      <trkpt lat="42.919184" lon="-0.727821">
        <ele>2399.1</ele>
        <time>2019-08-05T14:16:26Z</time>
      </trkpt>
      <trkpt lat="42.919223" lon="-0.727779">
        <ele>2406.0</ele>
        <time>2019-08-05T14:17:25Z</time>
      </trkpt>
      <trkpt lat="42.919269" lon="-0.727678">
        <ele>2409.1</ele>
        <time>2019-08-05T14:17:43Z</time>
      </trkpt>
      <trkpt lat="42.919277" lon="-0.727557">
        <ele>2413.1</ele>
        <time>2019-08-05T14:18:00Z</time>
      </trkpt>
      <trkpt lat="42.919278" lon="-0.727431">
        <ele>2417.1</ele>
        <time>2019-08-05T14:18:17Z</time>
      </trkpt>
      <trkpt lat="42.919307" lon="-0.727413">
        <ele>2425.4</ele>
        <time>2019-08-05T14:19:03Z</time>
      </trkpt>
      <trkpt lat="42.919368" lon="-0.727440">
        <ele>2428.9</ele>
        <time>2019-08-05T14:19:36Z</time>
      </trkpt>
      <trkpt lat="42.919388" lon="-0.727511">
        <ele>2434.8</ele>
        <time>2019-08-05T14:31:15Z</time>
      </trkpt>
      <trkpt lat="42.919370" lon="-0.727487">
        <ele>2436.9</ele>
        <time>2019-08-05T14:33:37Z</time>
      </trkpt>
      <trkpt lat="42.919301" lon="-0.727492">
        <ele>2434.6</ele>
        <time>2019-08-05T14:34:01Z</time>
      </trkpt>
      <trkpt lat="42.919238" lon="-0.727410">
        <ele>2429.3</ele>
        <time>2019-08-05T14:34:26Z</time>
      </trkpt>
      <trkpt lat="42.919229" lon="-0.727436">
        <ele>2423.5</ele>
        <time>2019-08-05T14:34:54Z</time>
      </trkpt>
      <trkpt lat="42.919213" lon="-0.727573">
        <ele>2420.1</ele>
        <time>2019-08-05T14:35:08Z</time>
      </trkpt>
      <trkpt lat="42.919185" lon="-0.727684">
        <ele>2414.7</ele>
        <time>2019-08-05T14:35:26Z</time>
      </trkpt>
      <trkpt lat="42.919189" lon="-0.727798">
        <ele>2410.7</ele>
        <time>2019-08-05T14:35:44Z</time>
      </trkpt>
      <trkpt lat="42.919116" lon="-0.727886">
        <ele>2404.9</ele>
        <time>2019-08-05T14:36:06Z</time>
      </trkpt>
      <trkpt lat="42.919071" lon="-0.727945">
        <ele>2400.7</ele>
        <time>2019-08-05T14:36:26Z</time>
      </trkpt>
      <trkpt lat="42.919045" lon="-0.727952">
        <ele>2392.8</ele>
        <time>2019-08-05T14:37:08Z</time>
      </trkpt>
      <trkpt lat="42.919004" lon="-0.727931">
        <ele>2388.4</ele>
        <time>2019-08-05T14:37:56Z</time>
      </trkpt>
      <trkpt lat="42.918966" lon="-0.727830">
        <ele>2385.9</ele>
        <time>2019-08-05T14:38:24Z</time>
      </trkpt>
      <trkpt lat="42.918945" lon="-0.727803">
        <ele>2381.5</ele>
        <time>2019-08-05T14:39:10Z</time>
      </trkpt>
      <trkpt lat="42.918963" lon="-0.727661">
        <ele>2384.9</ele>
        <time>2019-08-05T14:39:26Z</time>
      </trkpt>
      <trkpt lat="42.918957" lon="-0.727516">
        <ele>2385.6</ele>
        <time>2019-08-05T14:39:49Z</time>
      </trkpt>
      <trkpt lat="42.918911" lon="-0.727393">
        <ele>2387.2</ele>
        <time>2019-08-05T14:40:00Z</time>
      </trkpt>
      <trkpt lat="42.918871" lon="-0.727270">
        <ele>2386.3</ele>
        <time>2019-08-05T14:40:13Z</time>
      </trkpt>
      <trkpt lat="42.918846" lon="-0.727140">
        <ele>2384.7</ele>
        <time>2019-08-05T14:40:21Z</time>
      </trkpt>
      <trkpt lat="42.918845" lon="-0.727032">
        <ele>2385.2</ele>
        <time>2019-08-05T14:40:32Z</time>
      </trkpt>
      <trkpt lat="42.918857" lon="-0.726912">
        <ele>2389.1</ele>
        <time>2019-08-05T14:41:29Z</time>
      </trkpt>
      <trkpt lat="42.918865" lon="-0.726771">
        <ele>2390.3</ele>
        <time>2019-08-05T14:41:42Z</time>
      </trkpt>
      <trkpt lat="42.918862" lon="-0.726618">
        <ele>2392.4</ele>
        <time>2019-08-05T14:41:54Z</time>
      </trkpt>
      <trkpt lat="42.918883" lon="-0.726477">
        <ele>2394.2</ele>
        <time>2019-08-05T14:42:04Z</time>
      </trkpt>
      <trkpt lat="42.918873" lon="-0.726334">
        <ele>2395.0</ele>
        <time>2019-08-05T14:42:14Z</time>
      </trkpt>
      <trkpt lat="42.918871" lon="-0.726244">
        <ele>2397.6</ele>
        <time>2019-08-05T14:42:32Z</time>
      </trkpt>
      <trkpt lat="42.918870" lon="-0.726127">
        <ele>2396.6</ele>
        <time>2019-08-05T14:42:49Z</time>
      </trkpt>
      <trkpt lat="42.918838" lon="-0.726028">
        <ele>2394.7</ele>
        <time>2019-08-05T14:43:04Z</time>
      </trkpt>
      <trkpt lat="42.918800" lon="-0.726001">
        <ele>2392.7</ele>
        <time>2019-08-05T14:43:26Z</time>
      </trkpt>
      <trkpt lat="42.918739" lon="-0.725997">
        <ele>2387.2</ele>
        <time>2019-08-05T14:43:53Z</time>
      </trkpt>
      <trkpt lat="42.918724" lon="-0.726063">
        <ele>2385.3</ele>
        <time>2019-08-05T14:44:02Z</time>
      </trkpt>
      <trkpt lat="42.918703" lon="-0.726084">
        <ele>2383.6</ele>
        <time>2019-08-05T14:44:13Z</time>
      </trkpt>
      <trkpt lat="42.918657" lon="-0.725990">
        <ele>2381.9</ele>
        <time>2019-08-05T14:44:24Z</time>
      </trkpt>
      <trkpt lat="42.918662" lon="-0.725851">
        <ele>2382.9</ele>
        <time>2019-08-05T14:45:01Z</time>
      </trkpt>
      <trkpt lat="42.918728" lon="-0.725787">
        <ele>2380.5</ele>
        <time>2019-08-05T14:45:12Z</time>
      </trkpt>
      <trkpt lat="42.918810" lon="-0.725738">
        <ele>2377.4</ele>
        <time>2019-08-05T14:45:22Z</time>
      </trkpt>
      <trkpt lat="42.918899" lon="-0.725745">
        <ele>2374.7</ele>
        <time>2019-08-05T14:45:32Z</time>
      </trkpt>
      <trkpt lat="42.918927" lon="-0.725639">
        <ele>2371.5</ele>
        <time>2019-08-05T14:45:40Z</time>
      </trkpt>
      <trkpt lat="42.919017" lon="-0.725691">
        <ele>2368.4</ele>
        <time>2019-08-05T14:45:48Z</time>
      </trkpt>
      <trkpt lat="42.919097" lon="-0.725663">
        <ele>2364.9</ele>
        <time>2019-08-05T14:45:56Z</time>
      </trkpt>
      <trkpt lat="42.919171" lon="-0.725571">
        <ele>2359.2</ele>
        <time>2019-08-05T14:46:05Z</time>
      </trkpt>
      <trkpt lat="42.919219" lon="-0.725456">
        <ele>2353.6</ele>
        <time>2019-08-05T14:46:14Z</time>
      </trkpt>
      <trkpt lat="42.919287" lon="-0.725373">
        <ele>2348.3</ele>
        <time>2019-08-05T14:46:24Z</time>
      </trkpt>
      <trkpt lat="42.919330" lon="-0.725253">
        <ele>2343.3</ele>
        <time>2019-08-05T14:46:33Z</time>
      </trkpt>
      <trkpt lat="42.919411" lon="-0.725210">
        <ele>2338.9</ele>
        <time>2019-08-05T14:46:48Z</time>
      </trkpt>
      <trkpt lat="42.919470" lon="-0.725089">
        <ele>2336.1</ele>
        <time>2019-08-05T14:46:59Z</time>
      </trkpt>
      <trkpt lat="42.919548" lon="-0.725025">
        <ele>2333.1</ele>
        <time>2019-08-05T14:47:10Z</time>
      </trkpt>
      <trkpt lat="42.919610" lon="-0.724919">
        <ele>2331.7</ele>
        <time>2019-08-05T14:47:21Z</time>
      </trkpt>
      <trkpt lat="42.919678" lon="-0.724857">
        <ele>2330.2</ele>
        <time>2019-08-05T14:47:31Z</time>
      </trkpt>
      <trkpt lat="42.919742" lon="-0.724754">
        <ele>2328.2</ele>
        <time>2019-08-05T14:47:41Z</time>
      </trkpt>
      <trkpt lat="42.919820" lon="-0.724677">
        <ele>2325.6</ele>
        <time>2019-08-05T14:47:51Z</time>
      </trkpt>
      <trkpt lat="42.919884" lon="-0.724609">
        <ele>2321.7</ele>
        <time>2019-08-05T14:48:04Z</time>
      </trkpt>
      <trkpt lat="42.919971" lon="-0.724633">
        <ele>2318.6</ele>
        <time>2019-08-05T14:48:15Z</time>
      </trkpt>
      <trkpt lat="42.920040" lon="-0.724733">
        <ele>2317.4</ele>
        <time>2019-08-05T14:48:22Z</time>
      </trkpt>
      <trkpt lat="42.920125" lon="-0.724784">
        <ele>2317.1</ele>
        <time>2019-08-05T14:48:32Z</time>
      </trkpt>
      <trkpt lat="42.920214" lon="-0.724774">
        <ele>2314.2</ele>
        <time>2019-08-05T14:48:45Z</time>
      </trkpt>
      <trkpt lat="42.920288" lon="-0.724847">
        <ele>2312.6</ele>
        <time>2019-08-05T14:48:55Z</time>
      </trkpt>
      <trkpt lat="42.920367" lon="-0.724867">
        <ele>2310.1</ele>
        <time>2019-08-05T14:49:09Z</time>
      </trkpt>
      <trkpt lat="42.920463" lon="-0.724850">
        <ele>2307.5</ele>
        <time>2019-08-05T14:49:17Z</time>
      </trkpt>
      <trkpt lat="42.920521" lon="-0.724782">
        <ele>2305.9</ele>
        <time>2019-08-05T14:49:26Z</time>
      </trkpt>
      <trkpt lat="42.920603" lon="-0.724737">
        <ele>2304.4</ele>
        <time>2019-08-05T14:49:35Z</time>
      </trkpt>
      <trkpt lat="42.920679" lon="-0.724790">
        <ele>2303.3</ele>
        <time>2019-08-05T14:49:44Z</time>
      </trkpt>
      <trkpt lat="42.920737" lon="-0.724907">
        <ele>2301.1</ele>
        <time>2019-08-05T14:49:54Z</time>
      </trkpt>
      <trkpt lat="42.920773" lon="-0.725018">
        <ele>2299.9</ele>
        <time>2019-08-05T14:50:03Z</time>
      </trkpt>
      <trkpt lat="42.920844" lon="-0.725123">
        <ele>2298.3</ele>
        <time>2019-08-05T14:50:13Z</time>
      </trkpt>
      <trkpt lat="42.920938" lon="-0.725137">
        <ele>2298.2</ele>
        <time>2019-08-05T14:50:23Z</time>
      </trkpt>
      <trkpt lat="42.921009" lon="-0.725079">
        <ele>2298.7</ele>
        <time>2019-08-05T14:50:36Z</time>
      </trkpt>
      <trkpt lat="42.921085" lon="-0.725052">
        <ele>2296.3</ele>
        <time>2019-08-05T14:50:52Z</time>
      </trkpt>
      <trkpt lat="42.921149" lon="-0.725157">
        <ele>2296.7</ele>
        <time>2019-08-05T14:51:03Z</time>
      </trkpt>
      <trkpt lat="42.921246" lon="-0.725237">
        <ele>2298.2</ele>
        <time>2019-08-05T14:51:15Z</time>
      </trkpt>
      <trkpt lat="42.921306" lon="-0.725145">
        <ele>2301.1</ele>
        <time>2019-08-05T14:51:29Z</time>
      </trkpt>
      <trkpt lat="42.921394" lon="-0.725146">
        <ele>2303.8</ele>
        <time>2019-08-05T14:51:43Z</time>
      </trkpt>
      <trkpt lat="42.921473" lon="-0.725191">
        <ele>2304.6</ele>
        <time>2019-08-05T14:51:55Z</time>
      </trkpt>
      <trkpt lat="42.921536" lon="-0.725297">
        <ele>2304.3</ele>
        <time>2019-08-05T14:52:07Z</time>
      </trkpt>
      <trkpt lat="42.921613" lon="-0.725255">
        <ele>2304.3</ele>
        <time>2019-08-05T14:52:16Z</time>
      </trkpt>
      <trkpt lat="42.921711" lon="-0.725282">
        <ele>2303.5</ele>
        <time>2019-08-05T14:52:26Z</time>
      </trkpt>
      <trkpt lat="42.921788" lon="-0.725332">
        <ele>2304.7</ele>
        <time>2019-08-05T14:52:35Z</time>
      </trkpt>
      <trkpt lat="42.921850" lon="-0.725435">
        <ele>2304.1</ele>
        <time>2019-08-05T14:52:44Z</time>
      </trkpt>
      <trkpt lat="42.921908" lon="-0.725534">
        <ele>2302.3</ele>
        <time>2019-08-05T14:52:53Z</time>
      </trkpt>
      <trkpt lat="42.921986" lon="-0.725602">
        <ele>2299.7</ele>
        <time>2019-08-05T14:53:03Z</time>
      </trkpt>
      <trkpt lat="42.922086" lon="-0.725650">
        <ele>2297.0</ele>
        <time>2019-08-05T14:53:13Z</time>
      </trkpt>
      <trkpt lat="42.922165" lon="-0.725699">
        <ele>2295.1</ele>
        <time>2019-08-05T14:53:21Z</time>
      </trkpt>
      <trkpt lat="42.922254" lon="-0.725728">
        <ele>2294.0</ele>
        <time>2019-08-05T14:53:29Z</time>
      </trkpt>
      <trkpt lat="42.922333" lon="-0.725813">
        <ele>2295.6</ele>
        <time>2019-08-05T14:53:39Z</time>
      </trkpt>
      <trkpt lat="42.922418" lon="-0.725876">
        <ele>2295.6</ele>
        <time>2019-08-05T14:53:48Z</time>
      </trkpt>
      <trkpt lat="42.922492" lon="-0.725950">
        <ele>2294.5</ele>
        <time>2019-08-05T14:53:55Z</time>
      </trkpt>
      <trkpt lat="42.922583" lon="-0.725980">
        <ele>2293.2</ele>
        <time>2019-08-05T14:54:05Z</time>
      </trkpt>
      <trkpt lat="42.922682" lon="-0.725972">
        <ele>2291.5</ele>
        <time>2019-08-05T14:54:16Z</time>
      </trkpt>
      <trkpt lat="42.922754" lon="-0.726075">
        <ele>2290.1</ele>
        <time>2019-08-05T14:54:25Z</time>
      </trkpt>
      <trkpt lat="42.922827" lon="-0.726157">
        <ele>2288.8</ele>
        <time>2019-08-05T14:54:42Z</time>
      </trkpt>
      <trkpt lat="42.922906" lon="-0.726225">
        <ele>2287.2</ele>
        <time>2019-08-05T14:54:53Z</time>
      </trkpt>
      <trkpt lat="42.922970" lon="-0.726176">
        <ele>2283.4</ele>
        <time>2019-08-05T14:55:11Z</time>
      </trkpt>
      <trkpt lat="42.923030" lon="-0.726200">
        <ele>2280.9</ele>
        <time>2019-08-05T14:55:24Z</time>
      </trkpt>
      <trkpt lat="42.923083" lon="-0.726265">
        <ele>2277.9</ele>
        <time>2019-08-05T14:56:28Z</time>
      </trkpt>
      <trkpt lat="42.923123" lon="-0.726389">
        <ele>2276.6</ele>
        <time>2019-08-05T14:56:36Z</time>
      </trkpt>
      <trkpt lat="42.923173" lon="-0.726472">
        <ele>2274.5</ele>
        <time>2019-08-05T14:56:47Z</time>
      </trkpt>
      <trkpt lat="42.923247" lon="-0.726538">
        <ele>2272.3</ele>
        <time>2019-08-05T14:56:59Z</time>
      </trkpt>
      <trkpt lat="42.923326" lon="-0.726613">
        <ele>2267.8</ele>
        <time>2019-08-05T14:57:25Z</time>
      </trkpt>
      <trkpt lat="42.923398" lon="-0.726682">
        <ele>2264.9</ele>
        <time>2019-08-05T14:57:37Z</time>
      </trkpt>
      <trkpt lat="42.923437" lon="-0.726783">
        <ele>2261.0</ele>
        <time>2019-08-05T14:57:52Z</time>
      </trkpt>
      <trkpt lat="42.923491" lon="-0.726893">
        <ele>2256.5</ele>
        <time>2019-08-05T14:58:09Z</time>
      </trkpt>
      <trkpt lat="42.923537" lon="-0.726928">
        <ele>2252.1</ele>
        <time>2019-08-05T14:58:30Z</time>
      </trkpt>
      <trkpt lat="42.923583" lon="-0.726932">
        <ele>2249.3</ele>
        <time>2019-08-05T14:58:54Z</time>
      </trkpt>
      <trkpt lat="42.923639" lon="-0.726998">
        <ele>2246.8</ele>
        <time>2019-08-05T14:59:14Z</time>
      </trkpt>
      <trkpt lat="42.923673" lon="-0.726977">
        <ele>2243.6</ele>
        <time>2019-08-05T14:59:41Z</time>
      </trkpt>
      <trkpt lat="42.923744" lon="-0.727031">
        <ele>2239.6</ele>
        <time>2019-08-05T15:00:01Z</time>
      </trkpt>
      <trkpt lat="42.923788" lon="-0.727127">
        <ele>2235.8</ele>
        <time>2019-08-05T15:00:19Z</time>
      </trkpt>
      <trkpt lat="42.923856" lon="-0.727098">
        <ele>2231.6</ele>
        <time>2019-08-05T15:00:46Z</time>
      </trkpt>
      <trkpt lat="42.923929" lon="-0.727138">
        <ele>2229.0</ele>
        <time>2019-08-05T15:00:59Z</time>
      </trkpt>
      <trkpt lat="42.924007" lon="-0.727127">
        <ele>2225.9</ele>
        <time>2019-08-05T15:01:17Z</time>
      </trkpt>
      <trkpt lat="42.924109" lon="-0.727161">
        <ele>2224.9</ele>
        <time>2019-08-05T15:01:31Z</time>
      </trkpt>
      <trkpt lat="42.924181" lon="-0.727222">
        <ele>2225.0</ele>
        <time>2019-08-05T15:01:52Z</time>
      </trkpt>
      <trkpt lat="42.924285" lon="-0.727242">
        <ele>2222.7</ele>
        <time>2019-08-05T15:02:05Z</time>
      </trkpt>
      <trkpt lat="42.924311" lon="-0.727358">
        <ele>2219.8</ele>
        <time>2019-08-05T15:02:18Z</time>
      </trkpt>
      <trkpt lat="42.924351" lon="-0.727436">
        <ele>2214.4</ele>
        <time>2019-08-05T15:02:41Z</time>
      </trkpt>
      <trkpt lat="42.924427" lon="-0.727531">
        <ele>2211.3</ele>
        <time>2019-08-05T15:02:57Z</time>
      </trkpt>
      <trkpt lat="42.924477" lon="-0.727637">
        <ele>2208.8</ele>
        <time>2019-08-05T15:03:09Z</time>
      </trkpt>
      <trkpt lat="42.924548" lon="-0.727680">
        <ele>2205.1</ele>
        <time>2019-08-05T15:03:24Z</time>
      </trkpt>
      <trkpt lat="42.924614" lon="-0.727721">
        <ele>2202.4</ele>
        <time>2019-08-05T15:03:38Z</time>
      </trkpt>
      <trkpt lat="42.924614" lon="-0.727816">
        <ele>2198.9</ele>
        <time>2019-08-05T15:03:57Z</time>
      </trkpt>
      <trkpt lat="42.924682" lon="-0.727824">
        <ele>2195.1</ele>
        <time>2019-08-05T15:04:11Z</time>
      </trkpt>
      <trkpt lat="42.924749" lon="-0.727752">
        <ele>2192.0</ele>
        <time>2019-08-05T15:04:20Z</time>
      </trkpt>
      <trkpt lat="42.924840" lon="-0.727729">
        <ele>2189.6</ele>
        <time>2019-08-05T15:04:35Z</time>
      </trkpt>
      <trkpt lat="42.924911" lon="-0.727790">
        <ele>2186.8</ele>
        <time>2019-08-05T15:04:44Z</time>
      </trkpt>
      <trkpt lat="42.924979" lon="-0.727832">
        <ele>2184.8</ele>
        <time>2019-08-05T15:04:53Z</time>
      </trkpt>
      <trkpt lat="42.925057" lon="-0.727820">
        <ele>2183.7</ele>
        <time>2019-08-05T15:05:09Z</time>
      </trkpt>
      <trkpt lat="42.925133" lon="-0.727881">
        <ele>2180.9</ele>
        <time>2019-08-05T15:05:23Z</time>
      </trkpt>
      <trkpt lat="42.925177" lon="-0.727975">
        <ele>2180.6</ele>
        <time>2019-08-05T15:05:35Z</time>
      </trkpt>
      <trkpt lat="42.925281" lon="-0.727991">
        <ele>2182.1</ele>
        <time>2019-08-05T15:05:49Z</time>
      </trkpt>
      <trkpt lat="42.925375" lon="-0.728059">
        <ele>2183.0</ele>
        <time>2019-08-05T15:06:00Z</time>
      </trkpt>
      <trkpt lat="42.925448" lon="-0.728105">
        <ele>2182.7</ele>
        <time>2019-08-05T15:06:08Z</time>
      </trkpt>
      <trkpt lat="42.925536" lon="-0.728128">
        <ele>2180.6</ele>
        <time>2019-08-05T15:06:20Z</time>
      </trkpt>
      <trkpt lat="42.925627" lon="-0.728174">
        <ele>2178.5</ele>
        <time>2019-08-05T15:06:29Z</time>
      </trkpt>
      <trkpt lat="42.925699" lon="-0.728231">
        <ele>2176.6</ele>
        <time>2019-08-05T15:06:39Z</time>
      </trkpt>
      <trkpt lat="42.925771" lon="-0.728151">
        <ele>2175.0</ele>
        <time>2019-08-05T15:06:48Z</time>
      </trkpt>
      <trkpt lat="42.925835" lon="-0.728053">
        <ele>2173.7</ele>
        <time>2019-08-05T15:06:57Z</time>
      </trkpt>
      <trkpt lat="42.925870" lon="-0.727943">
        <ele>2172.8</ele>
        <time>2019-08-05T15:07:07Z</time>
      </trkpt>
      <trkpt lat="42.925959" lon="-0.727859">
        <ele>2171.5</ele>
        <time>2019-08-05T15:07:17Z</time>
      </trkpt>
      <trkpt lat="42.926051" lon="-0.727835">
        <ele>2168.8</ele>
        <time>2019-08-05T15:07:38Z</time>
      </trkpt>
      <trkpt lat="42.926151" lon="-0.727846">
        <ele>2168.4</ele>
        <time>2019-08-05T15:07:49Z</time>
      </trkpt>
      <trkpt lat="42.926210" lon="-0.727969">
        <ele>2167.7</ele>
        <time>2019-08-05T15:07:59Z</time>
      </trkpt>
      <trkpt lat="42.926254" lon="-0.728065">
        <ele>2167.9</ele>
        <time>2019-08-05T15:08:18Z</time>
      </trkpt>
      <trkpt lat="42.926320" lon="-0.728168">
        <ele>2168.1</ele>
        <time>2019-08-05T15:08:30Z</time>
      </trkpt>
      <trkpt lat="42.926388" lon="-0.728249">
        <ele>2166.8</ele>
        <time>2019-08-05T15:08:42Z</time>
      </trkpt>
      <trkpt lat="42.926493" lon="-0.728303">
        <ele>2165.6</ele>
        <time>2019-08-05T15:08:56Z</time>
      </trkpt>
      <trkpt lat="42.926577" lon="-0.728294">
        <ele>2164.2</ele>
        <time>2019-08-05T15:09:05Z</time>
      </trkpt>
      <trkpt lat="42.926662" lon="-0.728232">
        <ele>2162.1</ele>
        <time>2019-08-05T15:09:18Z</time>
      </trkpt>
      <trkpt lat="42.926738" lon="-0.728235">
        <ele>2157.3</ele>
        <time>2019-08-05T15:09:36Z</time>
      </trkpt>
      <trkpt lat="42.926825" lon="-0.728308">
        <ele>2152.8</ele>
        <time>2019-08-05T15:09:47Z</time>
      </trkpt>
      <trkpt lat="42.926907" lon="-0.728387">
        <ele>2148.6</ele>
        <time>2019-08-05T15:09:57Z</time>
      </trkpt>
      <trkpt lat="42.926994" lon="-0.728443">
        <ele>2145.6</ele>
        <time>2019-08-05T15:10:07Z</time>
      </trkpt>
      <trkpt lat="42.927091" lon="-0.728454">
        <ele>2141.9</ele>
        <time>2019-08-05T15:10:18Z</time>
      </trkpt>
      <trkpt lat="42.927179" lon="-0.728456">
        <ele>2139.9</ele>
        <time>2019-08-05T15:10:29Z</time>
      </trkpt>
      <trkpt lat="42.927258" lon="-0.728584">
        <ele>2137.6</ele>
        <time>2019-08-05T15:10:51Z</time>
      </trkpt>
      <trkpt lat="42.927294" lon="-0.728646">
        <ele>2135.2</ele>
        <time>2019-08-05T15:11:20Z</time>
      </trkpt>
      <trkpt lat="42.927358" lon="-0.728749">
        <ele>2133.2</ele>
        <time>2019-08-05T15:11:28Z</time>
      </trkpt>
      <trkpt lat="42.927415" lon="-0.728833">
        <ele>2132.5</ele>
        <time>2019-08-05T15:11:39Z</time>
      </trkpt>
      <trkpt lat="42.927484" lon="-0.728852">
        <ele>2132.1</ele>
        <time>2019-08-05T15:11:50Z</time>
      </trkpt>
      <trkpt lat="42.927544" lon="-0.728937">
        <ele>2132.2</ele>
        <time>2019-08-05T15:11:58Z</time>
      </trkpt>
      <trkpt lat="42.927630" lon="-0.728891">
        <ele>2131.9</ele>
        <time>2019-08-05T15:12:08Z</time>
      </trkpt>
      <trkpt lat="42.927685" lon="-0.728969">
        <ele>2129.6</ele>
        <time>2019-08-05T15:12:20Z</time>
      </trkpt>
      <trkpt lat="42.927773" lon="-0.728992">
        <ele>2126.7</ele>
        <time>2019-08-05T15:12:46Z</time>
      </trkpt>
      <trkpt lat="42.927804" lon="-0.728847">
        <ele>2124.2</ele>
        <time>2019-08-05T15:13:01Z</time>
      </trkpt>
      <trkpt lat="42.927819" lon="-0.728704">
        <ele>2122.2</ele>
        <time>2019-08-05T15:13:15Z</time>
      </trkpt>
      <trkpt lat="42.927824" lon="-0.728615">
        <ele>2117.9</ele>
        <time>2019-08-05T15:13:31Z</time>
      </trkpt>
      <trkpt lat="42.927897" lon="-0.728601">
        <ele>2113.7</ele>
        <time>2019-08-05T15:13:46Z</time>
      </trkpt>
      <trkpt lat="42.927908" lon="-0.728461">
        <ele>2108.3</ele>
        <time>2019-08-05T15:14:01Z</time>
      </trkpt>
      <trkpt lat="42.928023" lon="-0.728375">
        <ele>2105.6</ele>
        <time>2019-08-05T15:14:14Z</time>
      </trkpt>
      <trkpt lat="42.928025" lon="-0.728211">
        <ele>2103.0</ele>
        <time>2019-08-05T15:14:26Z</time>
      </trkpt>
      <trkpt lat="42.928001" lon="-0.728087">
        <ele>2100.2</ele>
        <time>2019-08-05T15:14:37Z</time>
      </trkpt>
      <trkpt lat="42.927968" lon="-0.727976">
        <ele>2095.7</ele>
        <time>2019-08-05T15:14:53Z</time>
      </trkpt>
      <trkpt lat="42.927993" lon="-0.727862">
        <ele>2092.5</ele>
        <time>2019-08-05T15:15:18Z</time>
      </trkpt>
      <trkpt lat="42.927937" lon="-0.727733">
        <ele>2088.3</ele>
        <time>2019-08-05T15:15:33Z</time>
      </trkpt>
      <trkpt lat="42.927939" lon="-0.727623">
        <ele>2083.1</ele>
        <time>2019-08-05T15:15:51Z</time>
      </trkpt>
      <trkpt lat="42.927944" lon="-0.727501">
        <ele>2078.9</ele>
        <time>2019-08-05T15:16:07Z</time>
      </trkpt>
      <trkpt lat="42.927913" lon="-0.727379">
        <ele>2075.1</ele>
        <time>2019-08-05T15:16:20Z</time>
      </trkpt>
      <trkpt lat="42.927942" lon="-0.727252">
        <ele>2070.0</ele>
        <time>2019-08-05T15:16:36Z</time>
      </trkpt>
      <trkpt lat="42.928003" lon="-0.727153">
        <ele>2066.6</ele>
        <time>2019-08-05T15:16:44Z</time>
      </trkpt>
      <trkpt lat="42.928066" lon="-0.727086">
        <ele>2060.0</ele>
        <time>2019-08-05T15:16:57Z</time>
      </trkpt>
      <trkpt lat="42.928072" lon="-0.726985">
        <ele>2054.8</ele>
        <time>2019-08-05T15:17:12Z</time>
      </trkpt>
      <trkpt lat="42.928066" lon="-0.726861">
        <ele>2049.3</ele>
        <time>2019-08-05T15:17:28Z</time>
      </trkpt>
      <trkpt lat="42.928124" lon="-0.726770">
        <ele>2045.6</ele>
        <time>2019-08-05T15:17:41Z</time>
      </trkpt>
      <trkpt lat="42.928160" lon="-0.726662">
        <ele>2042.6</ele>
        <time>2019-08-05T15:17:52Z</time>
      </trkpt>
      <trkpt lat="42.928165" lon="-0.726532">
        <ele>2038.9</ele>
        <time>2019-08-05T15:18:04Z</time>
      </trkpt>
      <trkpt lat="42.928155" lon="-0.726423">
        <ele>2033.7</ele>
        <time>2019-08-05T15:18:17Z</time>
      </trkpt>
      <trkpt lat="42.928165" lon="-0.726345">
        <ele>2030.9</ele>
        <time>2019-08-05T15:18:30Z</time>
      </trkpt>
      <trkpt lat="42.928142" lon="-0.726253">
        <ele>2027.6</ele>
        <time>2019-08-05T15:18:43Z</time>
      </trkpt>
      <trkpt lat="42.928170" lon="-0.726138">
        <ele>2023.2</ele>
        <time>2019-08-05T15:18:56Z</time>
      </trkpt>
      <trkpt lat="42.928112" lon="-0.726050">
        <ele>2019.6</ele>
        <time>2019-08-05T15:19:08Z</time>
      </trkpt>
      <trkpt lat="42.928146" lon="-0.725782">
        <ele>2013.5</ele>
        <time>2019-08-05T15:19:45Z</time>
      </trkpt>
      <trkpt lat="42.928139" lon="-0.725629">
        <ele>2013.9</ele>
        <time>2019-08-05T15:19:55Z</time>
      </trkpt>
      <trkpt lat="42.928187" lon="-0.725533">
        <ele>2012.4</ele>
        <time>2019-08-05T15:20:06Z</time>
      </trkpt>
      <trkpt lat="42.928229" lon="-0.725440">
        <ele>2009.4</ele>
        <time>2019-08-05T15:20:18Z</time>
      </trkpt>
      <trkpt lat="42.928325" lon="-0.725386">
        <ele>2006.2</ele>
        <time>2019-08-05T15:20:30Z</time>
      </trkpt>
      <trkpt lat="42.928372" lon="-0.725279">
        <ele>2002.4</ele>
        <time>2019-08-05T15:20:44Z</time>
      </trkpt>
      <trkpt lat="42.928426" lon="-0.725174">
        <ele>2000.7</ele>
        <time>2019-08-05T15:20:53Z</time>
      </trkpt>
      <trkpt lat="42.928502" lon="-0.725108">
        <ele>1999.0</ele>
        <time>2019-08-05T15:21:02Z</time>
      </trkpt>
      <trkpt lat="42.928511" lon="-0.725019">
        <ele>1995.6</ele>
        <time>2019-08-05T15:21:14Z</time>
      </trkpt>
      <trkpt lat="42.928607" lon="-0.724999">
        <ele>1992.2</ele>
        <time>2019-08-05T15:21:27Z</time>
      </trkpt>
      <trkpt lat="42.928668" lon="-0.724936">
        <ele>1988.1</ele>
        <time>2019-08-05T15:21:40Z</time>
      </trkpt>
      <trkpt lat="42.928688" lon="-0.724833">
        <ele>1984.3</ele>
        <time>2019-08-05T15:21:50Z</time>
      </trkpt>
      <trkpt lat="42.928749" lon="-0.724787">
        <ele>1981.7</ele>
        <time>2019-08-05T15:22:00Z</time>
      </trkpt>
      <trkpt lat="42.928785" lon="-0.724691">
        <ele>1978.8</ele>
        <time>2019-08-05T15:22:11Z</time>
      </trkpt>
      <trkpt lat="42.928828" lon="-0.724610">
        <ele>1975.3</ele>
        <time>2019-08-05T15:22:22Z</time>
      </trkpt>
      <trkpt lat="42.928933" lon="-0.724557">
        <ele>1971.5</ele>
        <time>2019-08-05T15:22:37Z</time>
      </trkpt>
      <trkpt lat="42.929029" lon="-0.724456">
        <ele>1968.4</ele>
        <time>2019-08-05T15:22:52Z</time>
      </trkpt>
      <trkpt lat="42.929116" lon="-0.724360">
        <ele>1967.0</ele>
        <time>2019-08-05T15:23:03Z</time>
      </trkpt>
      <trkpt lat="42.929220" lon="-0.724309">
        <ele>1966.3</ele>
        <time>2019-08-05T15:23:14Z</time>
      </trkpt>
      <trkpt lat="42.929310" lon="-0.724272">
        <ele>1965.4</ele>
        <time>2019-08-05T15:23:24Z</time>
      </trkpt>
      <trkpt lat="42.929416" lon="-0.724313">
        <ele>1964.4</ele>
        <time>2019-08-05T15:23:49Z</time>
      </trkpt>
      <trkpt lat="42.929510" lon="-0.724244">
        <ele>1964.2</ele>
        <time>2019-08-05T15:24:02Z</time>
      </trkpt>
      <trkpt lat="42.929549" lon="-0.724142">
        <ele>1963.1</ele>
        <time>2019-08-05T15:24:12Z</time>
      </trkpt>
      <trkpt lat="42.929509" lon="-0.724005">
        <ele>1963.6</ele>
        <time>2019-08-05T15:24:23Z</time>
      </trkpt>
      <trkpt lat="42.929532" lon="-0.723897">
        <ele>1963.7</ele>
        <time>2019-08-05T15:24:33Z</time>
      </trkpt>
      <trkpt lat="42.929618" lon="-0.723916">
        <ele>1963.1</ele>
        <time>2019-08-05T15:24:42Z</time>
      </trkpt>
      <trkpt lat="42.929722" lon="-0.723892">
        <ele>1962.8</ele>
        <time>2019-08-05T15:24:54Z</time>
      </trkpt>
      <trkpt lat="42.929820" lon="-0.723859">
        <ele>1959.6</ele>
        <time>2019-08-05T15:25:08Z</time>
      </trkpt>
      <trkpt lat="42.929841" lon="-0.723749">
        <ele>1955.8</ele>
        <time>2019-08-05T15:25:21Z</time>
      </trkpt>
      <trkpt lat="42.929852" lon="-0.723649">
        <ele>1953.4</ele>
        <time>2019-08-05T15:25:31Z</time>
      </trkpt>
      <trkpt lat="42.929930" lon="-0.723629">
        <ele>1947.7</ele>
        <time>2019-08-05T15:25:59Z</time>
      </trkpt>
      <trkpt lat="42.930015" lon="-0.723633">
        <ele>1944.0</ele>
        <time>2019-08-05T15:26:16Z</time>
      </trkpt>
      <trkpt lat="42.930111" lon="-0.723629">
        <ele>1939.4</ele>
        <time>2019-08-05T15:26:32Z</time>
      </trkpt>
      <trkpt lat="42.930230" lon="-0.723546">
        <ele>1934.8</ele>
        <time>2019-08-05T15:27:00Z</time>
      </trkpt>
      <trkpt lat="42.930322" lon="-0.723431">
        <ele>1930.2</ele>
        <time>2019-08-05T15:27:31Z</time>
      </trkpt>
      <trkpt lat="42.930333" lon="-0.723352">
        <ele>1927.6</ele>
        <time>2019-08-05T15:27:47Z</time>
      </trkpt>
      <trkpt lat="42.930360" lon="-0.723239">
        <ele>1925.3</ele>
        <time>2019-08-05T15:28:01Z</time>
      </trkpt>
      <trkpt lat="42.930468" lon="-0.723209">
        <ele>1922.1</ele>
        <time>2019-08-05T15:28:54Z</time>
      </trkpt>
      <trkpt lat="42.930549" lon="-0.723113">
        <ele>1918.5</ele>
        <time>2019-08-05T15:29:09Z</time>
      </trkpt>
      <trkpt lat="42.930618" lon="-0.723036">
        <ele>1915.9</ele>
        <time>2019-08-05T15:29:23Z</time>
      </trkpt>
      <trkpt lat="42.930669" lon="-0.722956">
        <ele>1912.8</ele>
        <time>2019-08-05T15:29:39Z</time>
      </trkpt>
      <trkpt lat="42.930735" lon="-0.722870">
        <ele>1909.7</ele>
        <time>2019-08-05T15:29:51Z</time>
      </trkpt>
      <trkpt lat="42.930786" lon="-0.722769">
        <ele>1907.7</ele>
        <time>2019-08-05T15:30:01Z</time>
      </trkpt>
      <trkpt lat="42.930882" lon="-0.722714">
        <ele>1905.7</ele>
        <time>2019-08-05T15:30:11Z</time>
      </trkpt>
      <trkpt lat="42.930959" lon="-0.722655">
        <ele>1903.4</ele>
        <time>2019-08-05T15:30:21Z</time>
      </trkpt>
      <trkpt lat="42.931047" lon="-0.722603">
        <ele>1901.1</ele>
        <time>2019-08-05T15:30:33Z</time>
      </trkpt>
      <trkpt lat="42.931164" lon="-0.722537">
        <ele>1896.3</ele>
        <time>2019-08-05T15:30:45Z</time>
      </trkpt>
      <trkpt lat="42.931244" lon="-0.722465">
        <ele>1892.4</ele>
        <time>2019-08-05T15:30:53Z</time>
      </trkpt>
      <trkpt lat="42.931325" lon="-0.722395">
        <ele>1890.5</ele>
        <time>2019-08-05T15:31:02Z</time>
      </trkpt>
      <trkpt lat="42.931416" lon="-0.722334">
        <ele>1889.0</ele>
        <time>2019-08-05T15:31:11Z</time>
      </trkpt>
      <trkpt lat="42.931507" lon="-0.722297">
        <ele>1888.1</ele>
        <time>2019-08-05T15:31:19Z</time>
      </trkpt>
      <trkpt lat="42.931579" lon="-0.722292">
        <ele>1887.1</ele>
        <time>2019-08-05T15:31:31Z</time>
      </trkpt>
      <trkpt lat="42.931638" lon="-0.722195">
        <ele>1886.3</ele>
        <time>2019-08-05T15:31:39Z</time>
      </trkpt>
      <trkpt lat="42.931730" lon="-0.722101">
        <ele>1884.7</ele>
        <time>2019-08-05T15:31:48Z</time>
      </trkpt>
      <trkpt lat="42.931807" lon="-0.722020">
        <ele>1883.2</ele>
        <time>2019-08-05T15:31:56Z</time>
      </trkpt>
      <trkpt lat="42.931879" lon="-0.721934">
        <ele>1882.8</ele>
        <time>2019-08-05T15:32:05Z</time>
      </trkpt>
      <trkpt lat="42.931938" lon="-0.721842">
        <ele>1881.9</ele>
        <time>2019-08-05T15:32:14Z</time>
      </trkpt>
      <trkpt lat="42.932001" lon="-0.721760">
        <ele>1880.6</ele>
        <time>2019-08-05T15:32:23Z</time>
      </trkpt>
      <trkpt lat="42.932062" lon="-0.721673">
        <ele>1877.4</ele>
        <time>2019-08-05T15:32:52Z</time>
      </trkpt>
      <trkpt lat="42.932093" lon="-0.721548">
        <ele>1877.3</ele>
        <time>2019-08-05T15:33:03Z</time>
      </trkpt>
      <trkpt lat="42.932142" lon="-0.721452">
        <ele>1876.6</ele>
        <time>2019-08-05T15:33:12Z</time>
      </trkpt>
      <trkpt lat="42.932180" lon="-0.721334">
        <ele>1875.9</ele>
        <time>2019-08-05T15:33:21Z</time>
      </trkpt>
      <trkpt lat="42.932240" lon="-0.721240">
        <ele>1875.4</ele>
        <time>2019-08-05T15:33:30Z</time>
      </trkpt>
      <trkpt lat="42.932300" lon="-0.721124">
        <ele>1873.3</ele>
        <time>2019-08-05T15:33:39Z</time>
      </trkpt>
      <trkpt lat="42.932344" lon="-0.721016">
        <ele>1872.3</ele>
        <time>2019-08-05T15:33:47Z</time>
      </trkpt>
      <trkpt lat="42.932399" lon="-0.720916">
        <ele>1871.2</ele>
        <time>2019-08-05T15:33:55Z</time>
      </trkpt>
      <trkpt lat="42.932474" lon="-0.720815">
        <ele>1871.5</ele>
        <time>2019-08-05T15:34:04Z</time>
      </trkpt>
      <trkpt lat="42.932549" lon="-0.720759">
        <ele>1871.1</ele>
        <time>2019-08-05T15:34:12Z</time>
      </trkpt>
      <trkpt lat="42.932622" lon="-0.720677">
        <ele>1871.4</ele>
        <time>2019-08-05T15:34:20Z</time>
      </trkpt>
      <trkpt lat="42.932677" lon="-0.720584">
        <ele>1872.5</ele>
        <time>2019-08-05T15:34:28Z</time>
      </trkpt>
      <trkpt lat="42.932754" lon="-0.720509">
        <ele>1873.2</ele>
        <time>2019-08-05T15:34:36Z</time>
      </trkpt>
      <trkpt lat="42.932805" lon="-0.720409">
        <ele>1873.4</ele>
        <time>2019-08-05T15:34:44Z</time>
      </trkpt>
      <trkpt lat="42.932835" lon="-0.720291">
        <ele>1872.9</ele>
        <time>2019-08-05T15:34:52Z</time>
      </trkpt>
      <trkpt lat="42.932852" lon="-0.720159">
        <ele>1872.6</ele>
        <time>2019-08-05T15:35:00Z</time>
      </trkpt>
      <trkpt lat="42.932852" lon="-0.720013">
        <ele>1872.6</ele>
        <time>2019-08-05T15:35:09Z</time>
      </trkpt>
      <trkpt lat="42.932908" lon="-0.719909">
        <ele>1872.3</ele>
        <time>2019-08-05T15:35:17Z</time>
      </trkpt>
      <trkpt lat="42.932956" lon="-0.719799">
        <ele>1870.9</ele>
        <time>2019-08-05T15:35:25Z</time>
      </trkpt>
      <trkpt lat="42.933002" lon="-0.719674">
        <ele>1869.5</ele>
        <time>2019-08-05T15:35:35Z</time>
      </trkpt>
      <trkpt lat="42.933039" lon="-0.719543">
        <ele>1868.4</ele>
        <time>2019-08-05T15:35:43Z</time>
      </trkpt>
      <trkpt lat="42.933061" lon="-0.719400">
        <ele>1867.6</ele>
        <time>2019-08-05T15:35:52Z</time>
      </trkpt>
      <trkpt lat="42.933102" lon="-0.719288">
        <ele>1866.3</ele>
        <time>2019-08-05T15:36:01Z</time>
      </trkpt>
      <trkpt lat="42.933176" lon="-0.719198">
        <ele>1864.6</ele>
        <time>2019-08-05T15:36:09Z</time>
      </trkpt>
      <trkpt lat="42.933266" lon="-0.719110">
        <ele>1863.6</ele>
        <time>2019-08-05T15:36:18Z</time>
      </trkpt>
      <trkpt lat="42.933304" lon="-0.718994">
        <ele>1863.0</ele>
        <time>2019-08-05T15:36:27Z</time>
      </trkpt>
      <trkpt lat="42.933357" lon="-0.718877">
        <ele>1862.3</ele>
        <time>2019-08-05T15:36:37Z</time>
      </trkpt>
      <trkpt lat="42.933407" lon="-0.718759">
        <ele>1860.2</ele>
        <time>2019-08-05T15:36:47Z</time>
      </trkpt>
      <trkpt lat="42.933432" lon="-0.718640">
        <ele>1858.0</ele>
        <time>2019-08-05T15:36:57Z</time>
      </trkpt>
      <trkpt lat="42.933426" lon="-0.718519">
        <ele>1855.5</ele>
        <time>2019-08-05T15:37:09Z</time>
      </trkpt>
      <trkpt lat="42.933443" lon="-0.718386">
        <ele>1853.2</ele>
        <time>2019-08-05T15:37:20Z</time>
      </trkpt>
      <trkpt lat="42.933462" lon="-0.718266">
        <ele>1851.1</ele>
        <time>2019-08-05T15:37:31Z</time>
      </trkpt>
      <trkpt lat="42.933487" lon="-0.718138">
        <ele>1848.6</ele>
        <time>2019-08-05T15:37:42Z</time>
      </trkpt>
      <trkpt lat="42.933551" lon="-0.718023">
        <ele>1846.8</ele>
        <time>2019-08-05T15:37:51Z</time>
      </trkpt>
      <trkpt lat="42.933602" lon="-0.717914">
        <ele>1845.4</ele>
        <time>2019-08-05T15:37:59Z</time>
      </trkpt>
      <trkpt lat="42.933647" lon="-0.717811">
        <ele>1845.2</ele>
        <time>2019-08-05T15:38:07Z</time>
      </trkpt>
      <trkpt lat="42.933697" lon="-0.717699">
        <ele>1844.3</ele>
        <time>2019-08-05T15:38:15Z</time>
      </trkpt>
      <trkpt lat="42.933730" lon="-0.717590">
        <ele>1843.1</ele>
        <time>2019-08-05T15:38:24Z</time>
      </trkpt>
      <trkpt lat="42.933801" lon="-0.717507">
        <ele>1842.0</ele>
        <time>2019-08-05T15:38:33Z</time>
      </trkpt>
      <trkpt lat="42.933899" lon="-0.717500">
        <ele>1841.1</ele>
        <time>2019-08-05T15:38:41Z</time>
      </trkpt>
      <trkpt lat="42.933912" lon="-0.717385">
        <ele>1840.2</ele>
        <time>2019-08-05T15:38:48Z</time>
      </trkpt>
      <trkpt lat="42.933928" lon="-0.717264">
        <ele>1838.2</ele>
        <time>2019-08-05T15:38:56Z</time>
      </trkpt>
      <trkpt lat="42.933941" lon="-0.717135">
        <ele>1836.4</ele>
        <time>2019-08-05T15:39:05Z</time>
      </trkpt>
      <trkpt lat="42.933970" lon="-0.717000">
        <ele>1836.1</ele>
        <time>2019-08-05T15:39:15Z</time>
      </trkpt>
      <trkpt lat="42.933923" lon="-0.716887">
        <ele>1836.0</ele>
        <time>2019-08-05T15:39:24Z</time>
      </trkpt>
      <trkpt lat="42.933913" lon="-0.716760">
        <ele>1835.2</ele>
        <time>2019-08-05T15:39:37Z</time>
      </trkpt>
      <trkpt lat="42.933942" lon="-0.716633">
        <ele>1834.1</ele>
        <time>2019-08-05T15:39:48Z</time>
      </trkpt>
      <trkpt lat="42.933989" lon="-0.716530">
        <ele>1834.4</ele>
        <time>2019-08-05T15:39:58Z</time>
      </trkpt>
      <trkpt lat="42.934068" lon="-0.716436">
        <ele>1834.4</ele>
        <time>2019-08-05T15:40:10Z</time>
      </trkpt>
      <trkpt lat="42.934140" lon="-0.716327">
        <ele>1833.6</ele>
        <time>2019-08-05T15:40:19Z</time>
      </trkpt>
      <trkpt lat="42.934200" lon="-0.716235">
        <ele>1833.3</ele>
        <time>2019-08-05T15:40:27Z</time>
      </trkpt>
      <trkpt lat="42.934249" lon="-0.716118">
        <ele>1833.2</ele>
        <time>2019-08-05T15:40:37Z</time>
      </trkpt>
      <trkpt lat="42.934292" lon="-0.716006">
        <ele>1832.3</ele>
        <time>2019-08-05T15:40:48Z</time>
      </trkpt>
      <trkpt lat="42.934378" lon="-0.715919">
        <ele>1832.3</ele>
        <time>2019-08-05T15:40:58Z</time>
      </trkpt>
      <trkpt lat="42.934443" lon="-0.715817">
        <ele>1833.2</ele>
        <time>2019-08-05T15:41:08Z</time>
      </trkpt>
      <trkpt lat="42.934501" lon="-0.715719">
        <ele>1832.9</ele>
        <time>2019-08-05T15:41:17Z</time>
      </trkpt>
      <trkpt lat="42.934587" lon="-0.715640">
        <ele>1831.6</ele>
        <time>2019-08-05T15:41:24Z</time>
      </trkpt>
      <trkpt lat="42.934678" lon="-0.715626">
        <ele>1831.1</ele>
        <time>2019-08-05T15:41:32Z</time>
      </trkpt>
      <trkpt lat="42.934760" lon="-0.715576">
        <ele>1830.3</ele>
        <time>2019-08-05T15:41:39Z</time>
      </trkpt>
      <trkpt lat="42.934849" lon="-0.715512">
        <ele>1830.3</ele>
        <time>2019-08-05T15:41:48Z</time>
      </trkpt>
      <trkpt lat="42.934918" lon="-0.715402">
        <ele>1830.6</ele>
        <time>2019-08-05T15:41:57Z</time>
      </trkpt>
      <trkpt lat="42.934963" lon="-0.715289">
        <ele>1829.3</ele>
        <time>2019-08-05T15:42:05Z</time>
      </trkpt>
      <trkpt lat="42.935033" lon="-0.715189">
        <ele>1827.6</ele>
        <time>2019-08-05T15:42:14Z</time>
      </trkpt>
      <trkpt lat="42.935085" lon="-0.715086">
        <ele>1827.4</ele>
        <time>2019-08-05T15:42:22Z</time>
      </trkpt>
      <trkpt lat="42.935139" lon="-0.714981">
        <ele>1827.3</ele>
        <time>2019-08-05T15:42:30Z</time>
      </trkpt>
      <trkpt lat="42.935218" lon="-0.714901">
        <ele>1826.9</ele>
        <time>2019-08-05T15:42:39Z</time>
      </trkpt>
      <trkpt lat="42.935278" lon="-0.714803">
        <ele>1826.8</ele>
        <time>2019-08-05T15:42:54Z</time>
      </trkpt>
      <trkpt lat="42.935258" lon="-0.714671">
        <ele>1825.6</ele>
        <time>2019-08-05T15:43:07Z</time>
      </trkpt>
      <trkpt lat="42.935310" lon="-0.714543">
        <ele>1824.4</ele>
        <time>2019-08-05T15:43:17Z</time>
      </trkpt>
      <trkpt lat="42.935371" lon="-0.714406">
        <ele>1824.1</ele>
        <time>2019-08-05T15:43:28Z</time>
      </trkpt>
      <trkpt lat="42.935425" lon="-0.714291">
        <ele>1822.5</ele>
        <time>2019-08-05T15:43:37Z</time>
      </trkpt>
      <trkpt lat="42.935456" lon="-0.714169">
        <ele>1821.1</ele>
        <time>2019-08-05T15:43:46Z</time>
      </trkpt>
      <trkpt lat="42.935420" lon="-0.714064">
        <ele>1820.8</ele>
        <time>2019-08-05T15:44:27Z</time>
      </trkpt>
      <trkpt lat="42.935445" lon="-0.713947">
        <ele>1818.1</ele>
        <time>2019-08-05T15:44:42Z</time>
      </trkpt>
      <trkpt lat="42.935475" lon="-0.713822">
        <ele>1816.2</ele>
        <time>2019-08-05T15:44:53Z</time>
      </trkpt>
      <trkpt lat="42.935495" lon="-0.713710">
        <ele>1814.2</ele>
        <time>2019-08-05T15:45:03Z</time>
      </trkpt>
      <trkpt lat="42.935495" lon="-0.713591">
        <ele>1811.6</ele>
        <time>2019-08-05T15:45:15Z</time>
      </trkpt>
      <trkpt lat="42.935546" lon="-0.713519">
        <ele>1807.2</ele>
        <time>2019-08-05T15:45:29Z</time>
      </trkpt>
      <trkpt lat="42.935556" lon="-0.713428">
        <ele>1804.4</ele>
        <time>2019-08-05T15:45:42Z</time>
      </trkpt>
      <trkpt lat="42.935480" lon="-0.713352">
        <ele>1801.4</ele>
        <time>2019-08-05T15:45:54Z</time>
      </trkpt>
      <trkpt lat="42.935484" lon="-0.713250">
        <ele>1797.9</ele>
        <time>2019-08-05T15:46:09Z</time>
      </trkpt>
      <trkpt lat="42.935442" lon="-0.713168">
        <ele>1794.0</ele>
        <time>2019-08-05T15:46:23Z</time>
      </trkpt>
      <trkpt lat="42.935410" lon="-0.713049">
        <ele>1791.0</ele>
        <time>2019-08-05T15:46:35Z</time>
      </trkpt>
      <trkpt lat="42.935422" lon="-0.712915">
        <ele>1787.5</ele>
        <time>2019-08-05T15:46:48Z</time>
      </trkpt>
      <trkpt lat="42.935479" lon="-0.712824">
        <ele>1785.1</ele>
        <time>2019-08-05T15:46:57Z</time>
      </trkpt>
      <trkpt lat="42.935543" lon="-0.712721">
        <ele>1782.7</ele>
        <time>2019-08-05T15:47:07Z</time>
      </trkpt>
      <trkpt lat="42.935591" lon="-0.712626">
        <ele>1780.5</ele>
        <time>2019-08-05T15:47:18Z</time>
      </trkpt>
      <trkpt lat="42.935636" lon="-0.712504">
        <ele>1778.9</ele>
        <time>2019-08-05T15:47:28Z</time>
      </trkpt>
      <trkpt lat="42.935661" lon="-0.712400">
        <ele>1777.5</ele>
        <time>2019-08-05T15:47:38Z</time>
      </trkpt>
      <trkpt lat="42.935700" lon="-0.712310">
        <ele>1775.5</ele>
        <time>2019-08-05T15:47:52Z</time>
      </trkpt>
      <trkpt lat="42.935757" lon="-0.712249">
        <ele>1774.1</ele>
        <time>2019-08-05T15:48:09Z</time>
      </trkpt>
      <trkpt lat="42.935776" lon="-0.712123">
        <ele>1771.8</ele>
        <time>2019-08-05T15:48:22Z</time>
      </trkpt>
      <trkpt lat="42.935804" lon="-0.712004">
        <ele>1770.1</ele>
        <time>2019-08-05T15:48:33Z</time>
      </trkpt>
      <trkpt lat="42.935814" lon="-0.711869">
        <ele>1768.2</ele>
        <time>2019-08-05T15:48:46Z</time>
      </trkpt>
      <trkpt lat="42.935774" lon="-0.711744">
        <ele>1766.3</ele>
        <time>2019-08-05T15:48:56Z</time>
      </trkpt>
      <trkpt lat="42.935735" lon="-0.711651">
        <ele>1763.9</ele>
        <time>2019-08-05T15:49:06Z</time>
      </trkpt>
      <trkpt lat="42.935740" lon="-0.711528">
        <ele>1761.5</ele>
        <time>2019-08-05T15:49:15Z</time>
      </trkpt>
      <trkpt lat="42.935722" lon="-0.711397">
        <ele>1759.3</ele>
        <time>2019-08-05T15:49:25Z</time>
      </trkpt>
      <trkpt lat="42.935711" lon="-0.711281">
        <ele>1757.6</ele>
        <time>2019-08-05T15:49:33Z</time>
      </trkpt>
      <trkpt lat="42.935713" lon="-0.711162">
        <ele>1755.4</ele>
        <time>2019-08-05T15:49:43Z</time>
      </trkpt>
      <trkpt lat="42.935709" lon="-0.711018">
        <ele>1752.5</ele>
        <time>2019-08-05T15:49:54Z</time>
      </trkpt>
      <trkpt lat="42.935743" lon="-0.710893">
        <ele>1750.5</ele>
        <time>2019-08-05T15:50:09Z</time>
      </trkpt>
      <trkpt lat="42.935787" lon="-0.710778">
        <ele>1748.5</ele>
        <time>2019-08-05T15:50:19Z</time>
      </trkpt>
      <trkpt lat="42.935828" lon="-0.710656">
        <ele>1746.0</ele>
        <time>2019-08-05T15:50:30Z</time>
      </trkpt>
      <trkpt lat="42.935855" lon="-0.710513">
        <ele>1743.5</ele>
        <time>2019-08-05T15:50:40Z</time>
      </trkpt>
      <trkpt lat="42.935879" lon="-0.710374">
        <ele>1741.4</ele>
        <time>2019-08-05T15:50:50Z</time>
      </trkpt>
      <trkpt lat="42.935895" lon="-0.710259">
        <ele>1739.0</ele>
        <time>2019-08-05T15:50:59Z</time>
      </trkpt>
      <trkpt lat="42.935935" lon="-0.710147">
        <ele>1736.7</ele>
        <time>2019-08-05T15:51:09Z</time>
      </trkpt>
      <trkpt lat="42.935928" lon="-0.710033">
        <ele>1734.4</ele>
        <time>2019-08-05T15:51:18Z</time>
      </trkpt>
      <trkpt lat="42.935975" lon="-0.709934">
        <ele>1732.6</ele>
        <time>2019-08-05T15:51:27Z</time>
      </trkpt>
      <trkpt lat="42.936037" lon="-0.709835">
        <ele>1730.4</ele>
        <time>2019-08-05T15:51:36Z</time>
      </trkpt>
      <trkpt lat="42.936086" lon="-0.709713">
        <ele>1728.2</ele>
        <time>2019-08-05T15:51:45Z</time>
      </trkpt>
      <trkpt lat="42.936145" lon="-0.709606">
        <ele>1726.1</ele>
        <time>2019-08-05T15:51:54Z</time>
      </trkpt>
      <trkpt lat="42.936175" lon="-0.709494">
        <ele>1724.1</ele>
        <time>2019-08-05T15:52:02Z</time>
      </trkpt>
      <trkpt lat="42.936205" lon="-0.709386">
        <ele>1722.7</ele>
        <time>2019-08-05T15:52:10Z</time>
      </trkpt>
      <trkpt lat="42.936244" lon="-0.709270">
        <ele>1721.2</ele>
        <time>2019-08-05T15:52:19Z</time>
      </trkpt>
      <trkpt lat="42.936254" lon="-0.709135">
        <ele>1719.4</ele>
        <time>2019-08-05T15:52:28Z</time>
      </trkpt>
      <trkpt lat="42.936287" lon="-0.709018">
        <ele>1717.3</ele>
        <time>2019-08-05T15:52:37Z</time>
      </trkpt>
      <trkpt lat="42.936308" lon="-0.708890">
        <ele>1715.7</ele>
        <time>2019-08-05T15:52:46Z</time>
      </trkpt>
      <trkpt lat="42.936337" lon="-0.708773">
        <ele>1714.1</ele>
        <time>2019-08-05T15:52:54Z</time>
      </trkpt>
      <trkpt lat="42.936354" lon="-0.708654">
        <ele>1712.5</ele>
        <time>2019-08-05T15:53:02Z</time>
      </trkpt>
      <trkpt lat="42.936367" lon="-0.708508">
        <ele>1710.8</ele>
        <time>2019-08-05T15:53:11Z</time>
      </trkpt>
      <trkpt lat="42.936394" lon="-0.708387">
        <ele>1709.4</ele>
        <time>2019-08-05T15:53:20Z</time>
      </trkpt>
      <trkpt lat="42.936434" lon="-0.708277">
        <ele>1707.7</ele>
        <time>2019-08-05T15:53:28Z</time>
      </trkpt>
      <trkpt lat="42.936458" lon="-0.708157">
        <ele>1706.0</ele>
        <time>2019-08-05T15:53:36Z</time>
      </trkpt>
      <trkpt lat="42.936484" lon="-0.708024">
        <ele>1704.7</ele>
        <time>2019-08-05T15:53:44Z</time>
      </trkpt>
      <trkpt lat="42.936491" lon="-0.707889">
        <ele>1703.2</ele>
        <time>2019-08-05T15:53:53Z</time>
      </trkpt>
      <trkpt lat="42.936493" lon="-0.707767">
        <ele>1701.6</ele>
        <time>2019-08-05T15:54:01Z</time>
      </trkpt>
      <trkpt lat="42.936517" lon="-0.707634">
        <ele>1700.1</ele>
        <time>2019-08-05T15:54:10Z</time>
      </trkpt>
      <trkpt lat="42.936534" lon="-0.707518">
        <ele>1698.8</ele>
        <time>2019-08-05T15:54:18Z</time>
      </trkpt>
      <trkpt lat="42.936554" lon="-0.707401">
        <ele>1696.8</ele>
        <time>2019-08-05T15:54:27Z</time>
      </trkpt>
      <trkpt lat="42.936561" lon="-0.707267">
        <ele>1695.1</ele>
        <time>2019-08-05T15:54:37Z</time>
      </trkpt>
      <trkpt lat="42.936562" lon="-0.707148">
        <ele>1693.2</ele>
        <time>2019-08-05T15:54:46Z</time>
      </trkpt>
      <trkpt lat="42.936568" lon="-0.707020">
        <ele>1690.9</ele>
        <time>2019-08-05T15:55:00Z</time>
      </trkpt>
      <trkpt lat="42.936587" lon="-0.706890">
        <ele>1689.0</ele>
        <time>2019-08-05T15:55:11Z</time>
      </trkpt>
      <trkpt lat="42.936645" lon="-0.706786">
        <ele>1686.8</ele>
        <time>2019-08-05T15:55:20Z</time>
      </trkpt>
      <trkpt lat="42.936664" lon="-0.706659">
        <ele>1684.9</ele>
        <time>2019-08-05T15:55:29Z</time>
      </trkpt>
      <trkpt lat="42.936683" lon="-0.706542">
        <ele>1682.6</ele>
        <time>2019-08-05T15:55:39Z</time>
      </trkpt>
      <trkpt lat="42.936730" lon="-0.706429">
        <ele>1680.6</ele>
        <time>2019-08-05T15:55:49Z</time>
      </trkpt>
      <trkpt lat="42.936792" lon="-0.706338">
        <ele>1678.4</ele>
        <time>2019-08-05T15:55:57Z</time>
      </trkpt>
      <trkpt lat="42.936850" lon="-0.706233">
        <ele>1675.4</ele>
        <time>2019-08-05T15:56:06Z</time>
      </trkpt>
      <trkpt lat="42.936894" lon="-0.706126">
        <ele>1673.5</ele>
        <time>2019-08-05T15:56:15Z</time>
      </trkpt>
      <trkpt lat="42.936969" lon="-0.706048">
        <ele>1671.2</ele>
        <time>2019-08-05T15:56:23Z</time>
      </trkpt>
      <trkpt lat="42.937051" lon="-0.705974">
        <ele>1668.9</ele>
        <time>2019-08-05T15:56:31Z</time>
      </trkpt>
      <trkpt lat="42.937106" lon="-0.705880">
        <ele>1667.1</ele>
        <time>2019-08-05T15:56:39Z</time>
      </trkpt>
      <trkpt lat="42.937177" lon="-0.705795">
        <ele>1665.6</ele>
        <time>2019-08-05T15:56:47Z</time>
      </trkpt>
      <trkpt lat="42.937249" lon="-0.705735">
        <ele>1663.1</ele>
        <time>2019-08-05T15:57:04Z</time>
      </trkpt>
      <trkpt lat="42.937299" lon="-0.705637">
        <ele>1661.6</ele>
        <time>2019-08-05T15:57:21Z</time>
      </trkpt>
      <trkpt lat="42.937322" lon="-0.705535">
        <ele>1659.5</ele>
        <time>2019-08-05T15:57:33Z</time>
      </trkpt>
      <trkpt lat="42.937401" lon="-0.705478">
        <ele>1656.0</ele>
        <time>2019-08-05T15:57:48Z</time>
      </trkpt>
      <trkpt lat="42.937432" lon="-0.705368">
        <ele>1653.2</ele>
        <time>2019-08-05T15:58:00Z</time>
      </trkpt>
      <trkpt lat="42.937417" lon="-0.705253">
        <ele>1650.0</ele>
        <time>2019-08-05T15:58:11Z</time>
      </trkpt>
      <trkpt lat="42.937456" lon="-0.705138">
        <ele>1647.4</ele>
        <time>2019-08-05T15:58:20Z</time>
      </trkpt>
      <trkpt lat="42.937504" lon="-0.705043">
        <ele>1644.7</ele>
        <time>2019-08-05T15:58:30Z</time>
      </trkpt>
      <trkpt lat="42.937541" lon="-0.704934">
        <ele>1642.0</ele>
        <time>2019-08-05T15:58:40Z</time>
      </trkpt>
      <trkpt lat="42.937564" lon="-0.704811">
        <ele>1640.4</ele>
        <time>2019-08-05T15:58:48Z</time>
      </trkpt>
      <trkpt lat="42.937614" lon="-0.704673">
        <ele>1638.8</ele>
        <time>2019-08-05T15:58:56Z</time>
      </trkpt>
      <trkpt lat="42.937634" lon="-0.704540">
        <ele>1637.8</ele>
        <time>2019-08-05T15:59:03Z</time>
      </trkpt>
      <trkpt lat="42.937688" lon="-0.704440">
        <ele>1635.7</ele>
        <time>2019-08-05T15:59:18Z</time>
      </trkpt>
      <trkpt lat="42.937743" lon="-0.704343">
        <ele>1633.8</ele>
        <time>2019-08-05T15:59:29Z</time>
      </trkpt>
      <trkpt lat="42.937825" lon="-0.704311">
        <ele>1630.4</ele>
        <time>2019-08-05T15:59:41Z</time>
      </trkpt>
      <trkpt lat="42.937864" lon="-0.704203">
        <ele>1627.2</ele>
        <time>2019-08-05T15:59:51Z</time>
      </trkpt>
      <trkpt lat="42.937875" lon="-0.704058">
        <ele>1623.8</ele>
        <time>2019-08-05T16:00:00Z</time>
      </trkpt>
      <trkpt lat="42.937884" lon="-0.703919">
        <ele>1621.2</ele>
        <time>2019-08-05T16:00:09Z</time>
      </trkpt>
      <trkpt lat="42.937923" lon="-0.703831">
        <ele>1616.3</ele>
        <time>2019-08-05T16:02:18Z</time>
      </trkpt>
      <trkpt lat="42.937920" lon="-0.703744">
        <ele>1614.9</ele>
        <time>2019-08-05T16:02:27Z</time>
      </trkpt>
      <trkpt lat="42.937943" lon="-0.703629">
        <ele>1612.2</ele>
        <time>2019-08-05T16:02:35Z</time>
      </trkpt>
      <trkpt lat="42.937991" lon="-0.703510">
        <ele>1608.6</ele>
        <time>2019-08-05T16:02:44Z</time>
      </trkpt>
      <trkpt lat="42.937972" lon="-0.703375">
        <ele>1605.0</ele>
        <time>2019-08-05T16:02:53Z</time>
      </trkpt>
      <trkpt lat="42.937961" lon="-0.703248">
        <ele>1602.9</ele>
        <time>2019-08-05T16:03:02Z</time>
      </trkpt>
      <trkpt lat="42.937963" lon="-0.703116">
        <ele>1600.1</ele>
        <time>2019-08-05T16:03:12Z</time>
      </trkpt>
      <trkpt lat="42.938000" lon="-0.702998">
        <ele>1597.2</ele>
        <time>2019-08-05T16:03:21Z</time>
      </trkpt>
      <trkpt lat="42.938070" lon="-0.702913">
        <ele>1595.1</ele>
        <time>2019-08-05T16:03:29Z</time>
      </trkpt>
      <trkpt lat="42.938140" lon="-0.702835">
        <ele>1593.0</ele>
        <time>2019-08-05T16:03:37Z</time>
      </trkpt>
      <trkpt lat="42.938212" lon="-0.702755">
        <ele>1590.3</ele>
        <time>2019-08-05T16:03:44Z</time>
      </trkpt>
      <trkpt lat="42.938271" lon="-0.702651">
        <ele>1587.5</ele>
        <time>2019-08-05T16:03:51Z</time>
      </trkpt>
      <trkpt lat="42.938349" lon="-0.702568">
        <ele>1585.3</ele>
        <time>2019-08-05T16:03:58Z</time>
      </trkpt>
      <trkpt lat="42.938424" lon="-0.702512">
        <ele>1583.6</ele>
        <time>2019-08-05T16:04:04Z</time>
      </trkpt>
      <trkpt lat="42.938480" lon="-0.702416">
        <ele>1581.5</ele>
        <time>2019-08-05T16:04:13Z</time>
      </trkpt>
      <trkpt lat="42.938507" lon="-0.702293">
        <ele>1579.4</ele>
        <time>2019-08-05T16:04:24Z</time>
      </trkpt>
      <trkpt lat="42.938492" lon="-0.702162">
        <ele>1578.1</ele>
        <time>2019-08-05T16:04:32Z</time>
      </trkpt>
      <trkpt lat="42.938488" lon="-0.702038">
        <ele>1575.7</ele>
        <time>2019-08-05T16:04:42Z</time>
      </trkpt>
      <trkpt lat="42.938463" lon="-0.701938">
        <ele>1572.8</ele>
        <time>2019-08-05T16:05:06Z</time>
      </trkpt>
      <trkpt lat="42.938424" lon="-0.701833">
        <ele>1571.0</ele>
        <time>2019-08-05T16:05:18Z</time>
      </trkpt>
      <trkpt lat="42.938400" lon="-0.701722">
        <ele>1569.1</ele>
        <time>2019-08-05T16:05:27Z</time>
      </trkpt>
      <trkpt lat="42.938375" lon="-0.701600">
        <ele>1567.1</ele>
        <time>2019-08-05T16:05:35Z</time>
      </trkpt>
      <trkpt lat="42.938380" lon="-0.701468">
        <ele>1565.5</ele>
        <time>2019-08-05T16:05:43Z</time>
      </trkpt>
      <trkpt lat="42.938417" lon="-0.701342">
        <ele>1563.5</ele>
        <time>2019-08-05T16:05:51Z</time>
      </trkpt>
      <trkpt lat="42.938479" lon="-0.701237">
        <ele>1562.5</ele>
        <time>2019-08-05T16:05:59Z</time>
      </trkpt>
      <trkpt lat="42.938539" lon="-0.701121">
        <ele>1560.7</ele>
        <time>2019-08-05T16:06:07Z</time>
      </trkpt>
      <trkpt lat="42.938603" lon="-0.701026">
        <ele>1558.8</ele>
        <time>2019-08-05T16:06:15Z</time>
      </trkpt>
      <trkpt lat="42.938665" lon="-0.700919">
        <ele>1556.9</ele>
        <time>2019-08-05T16:06:23Z</time>
      </trkpt>
      <trkpt lat="42.938686" lon="-0.700788">
        <ele>1555.3</ele>
        <time>2019-08-05T16:06:30Z</time>
      </trkpt>
      <trkpt lat="42.938731" lon="-0.700672">
        <ele>1553.2</ele>
        <time>2019-08-05T16:06:38Z</time>
      </trkpt>
      <trkpt lat="42.938760" lon="-0.700556">
        <ele>1552.4</ele>
        <time>2019-08-05T16:06:46Z</time>
      </trkpt>
      <trkpt lat="42.938787" lon="-0.700427">
        <ele>1551.2</ele>
        <time>2019-08-05T16:06:54Z</time>
      </trkpt>
      <trkpt lat="42.938797" lon="-0.700302">
        <ele>1549.8</ele>
        <time>2019-08-05T16:07:02Z</time>
      </trkpt>
      <trkpt lat="42.938843" lon="-0.700183">
        <ele>1548.7</ele>
        <time>2019-08-05T16:07:10Z</time>
      </trkpt>
      <trkpt lat="42.938855" lon="-0.700052">
        <ele>1547.0</ele>
        <time>2019-08-05T16:07:19Z</time>
      </trkpt>
      <trkpt lat="42.938854" lon="-0.699922">
        <ele>1545.8</ele>
        <time>2019-08-05T16:07:27Z</time>
      </trkpt>
      <trkpt lat="42.938854" lon="-0.699786">
        <ele>1544.8</ele>
        <time>2019-08-05T16:07:35Z</time>
      </trkpt>
      <trkpt lat="42.938849" lon="-0.699651">
        <ele>1543.7</ele>
        <time>2019-08-05T16:07:43Z</time>
      </trkpt>
      <trkpt lat="42.938832" lon="-0.699526">
        <ele>1543.5</ele>
        <time>2019-08-05T16:07:52Z</time>
      </trkpt>
      <trkpt lat="42.938857" lon="-0.699418">
        <ele>1543.4</ele>
        <time>2019-08-05T16:08:03Z</time>
      </trkpt>
      <trkpt lat="42.938908" lon="-0.699301">
        <ele>1540.4</ele>
        <time>2019-08-05T16:08:14Z</time>
      </trkpt>
      <trkpt lat="42.938974" lon="-0.699207">
        <ele>1538.1</ele>
        <time>2019-08-05T16:08:21Z</time>
      </trkpt>
      <trkpt lat="42.938994" lon="-0.699099">
        <ele>1535.5</ele>
        <time>2019-08-05T16:08:30Z</time>
      </trkpt>
      <trkpt lat="42.938974" lon="-0.698971">
        <ele>1533.8</ele>
        <time>2019-08-05T16:08:38Z</time>
      </trkpt>
      <trkpt lat="42.938920" lon="-0.698868">
        <ele>1532.7</ele>
        <time>2019-08-05T16:08:45Z</time>
      </trkpt>
      <trkpt lat="42.938861" lon="-0.698761">
        <ele>1531.4</ele>
        <time>2019-08-05T16:08:55Z</time>
      </trkpt>
      <trkpt lat="42.938789" lon="-0.698625">
        <ele>1530.7</ele>
        <time>2019-08-05T16:09:03Z</time>
      </trkpt>
      <trkpt lat="42.938760" lon="-0.698505">
        <ele>1530.0</ele>
        <time>2019-08-05T16:09:12Z</time>
      </trkpt>
      <trkpt lat="42.938725" lon="-0.698381">
        <ele>1529.6</ele>
        <time>2019-08-05T16:09:19Z</time>
      </trkpt>
      <trkpt lat="42.938673" lon="-0.698271">
        <ele>1528.9</ele>
        <time>2019-08-05T16:09:26Z</time>
      </trkpt>
      <trkpt lat="42.938612" lon="-0.698156">
        <ele>1528.6</ele>
        <time>2019-08-05T16:09:35Z</time>
      </trkpt>
      <trkpt lat="42.938590" lon="-0.698017">
        <ele>1527.7</ele>
        <time>2019-08-05T16:09:45Z</time>
      </trkpt>
      <trkpt lat="42.938602" lon="-0.697885">
        <ele>1527.5</ele>
        <time>2019-08-05T16:09:55Z</time>
      </trkpt>
      <trkpt lat="42.938648" lon="-0.697769">
        <ele>1526.8</ele>
        <time>2019-08-05T16:10:03Z</time>
      </trkpt>
      <trkpt lat="42.938695" lon="-0.697645">
        <ele>1525.8</ele>
        <time>2019-08-05T16:10:11Z</time>
      </trkpt>
      <trkpt lat="42.938728" lon="-0.697526">
        <ele>1524.9</ele>
        <time>2019-08-05T16:10:19Z</time>
      </trkpt>
      <trkpt lat="42.938778" lon="-0.697421">
        <ele>1523.5</ele>
        <time>2019-08-05T16:10:27Z</time>
      </trkpt>
      <trkpt lat="42.938798" lon="-0.697274">
        <ele>1520.9</ele>
        <time>2019-08-05T16:10:44Z</time>
      </trkpt>
      <trkpt lat="42.938740" lon="-0.697171">
        <ele>1519.7</ele>
        <time>2019-08-05T16:10:51Z</time>
      </trkpt>
      <trkpt lat="42.938720" lon="-0.697062">
        <ele>1518.5</ele>
        <time>2019-08-05T16:10:59Z</time>
      </trkpt>
      <trkpt lat="42.938695" lon="-0.696940">
        <ele>1518.1</ele>
        <time>2019-08-05T16:11:07Z</time>
      </trkpt>
      <trkpt lat="42.938722" lon="-0.696808">
        <ele>1517.5</ele>
        <time>2019-08-05T16:11:14Z</time>
      </trkpt>
      <trkpt lat="42.938748" lon="-0.696688">
        <ele>1516.3</ele>
        <time>2019-08-05T16:11:22Z</time>
      </trkpt>
      <trkpt lat="42.938795" lon="-0.696567">
        <ele>1516.2</ele>
        <time>2019-08-05T16:11:30Z</time>
      </trkpt>
      <trkpt lat="42.938839" lon="-0.696453">
        <ele>1516.1</ele>
        <time>2019-08-05T16:11:36Z</time>
      </trkpt>
      <trkpt lat="42.938887" lon="-0.696338">
        <ele>1515.8</ele>
        <time>2019-08-05T16:11:42Z</time>
      </trkpt>
      <trkpt lat="42.938930" lon="-0.696233">
        <ele>1515.7</ele>
        <time>2019-08-05T16:11:49Z</time>
      </trkpt>
      <trkpt lat="42.938983" lon="-0.696133">
        <ele>1515.3</ele>
        <time>2019-08-05T16:11:56Z</time>
      </trkpt>
      <trkpt lat="42.939034" lon="-0.696031">
        <ele>1514.2</ele>
        <time>2019-08-05T16:12:03Z</time>
      </trkpt>
      <trkpt lat="42.939096" lon="-0.695933">
        <ele>1512.7</ele>
        <time>2019-08-05T16:12:10Z</time>
      </trkpt>
      <trkpt lat="42.939186" lon="-0.695854">
        <ele>1511.1</ele>
        <time>2019-08-05T16:12:19Z</time>
      </trkpt>
      <trkpt lat="42.939272" lon="-0.695765">
        <ele>1509.4</ele>
        <time>2019-08-05T16:12:27Z</time>
      </trkpt>
      <trkpt lat="42.939353" lon="-0.695695">
        <ele>1508.1</ele>
        <time>2019-08-05T16:12:33Z</time>
      </trkpt>
      <trkpt lat="42.939423" lon="-0.695631">
        <ele>1506.2</ele>
        <time>2019-08-05T16:12:40Z</time>
      </trkpt>
      <trkpt lat="42.939508" lon="-0.695565">
        <ele>1504.3</ele>
        <time>2019-08-05T16:12:48Z</time>
      </trkpt>
      <trkpt lat="42.939579" lon="-0.695472">
        <ele>1502.2</ele>
        <time>2019-08-05T16:12:57Z</time>
      </trkpt>
      <trkpt lat="42.939634" lon="-0.695354">
        <ele>1500.0</ele>
        <time>2019-08-05T16:13:05Z</time>
      </trkpt>
      <trkpt lat="42.939715" lon="-0.695284">
        <ele>1498.3</ele>
        <time>2019-08-05T16:13:13Z</time>
      </trkpt>
      <trkpt lat="42.939805" lon="-0.695200">
        <ele>1496.8</ele>
        <time>2019-08-05T16:13:21Z</time>
      </trkpt>
      <trkpt lat="42.939903" lon="-0.695156">
        <ele>1495.1</ele>
        <time>2019-08-05T16:13:29Z</time>
      </trkpt>
      <trkpt lat="42.939977" lon="-0.695073">
        <ele>1494.1</ele>
        <time>2019-08-05T16:13:36Z</time>
      </trkpt>
      <trkpt lat="42.940046" lon="-0.694979">
        <ele>1493.2</ele>
        <time>2019-08-05T16:13:44Z</time>
      </trkpt>
      <trkpt lat="42.940147" lon="-0.694907">
        <ele>1491.6</ele>
        <time>2019-08-05T16:13:53Z</time>
      </trkpt>
      <trkpt lat="42.940237" lon="-0.694861">
        <ele>1490.7</ele>
        <time>2019-08-05T16:14:01Z</time>
      </trkpt>
      <trkpt lat="42.940257" lon="-0.694748">
        <ele>1489.9</ele>
        <time>2019-08-05T16:14:08Z</time>
      </trkpt>
      <trkpt lat="42.940242" lon="-0.694632">
        <ele>1489.4</ele>
        <time>2019-08-05T16:14:16Z</time>
      </trkpt>
      <trkpt lat="42.940227" lon="-0.694507">
        <ele>1489.3</ele>
        <time>2019-08-05T16:14:23Z</time>
      </trkpt>
      <trkpt lat="42.940238" lon="-0.694384">
        <ele>1488.6</ele>
        <time>2019-08-05T16:14:32Z</time>
      </trkpt>
      <trkpt lat="42.940219" lon="-0.694268">
        <ele>1487.9</ele>
        <time>2019-08-05T16:14:41Z</time>
      </trkpt>
      <trkpt lat="42.940273" lon="-0.694167">
        <ele>1486.7</ele>
        <time>2019-08-05T16:14:52Z</time>
      </trkpt>
      <trkpt lat="42.940280" lon="-0.694065">
        <ele>1484.6</ele>
        <time>2019-08-05T16:15:02Z</time>
      </trkpt>
      <trkpt lat="42.940281" lon="-0.693951">
        <ele>1482.2</ele>
        <time>2019-08-05T16:15:12Z</time>
      </trkpt>
      <trkpt lat="42.940272" lon="-0.693822">
        <ele>1479.6</ele>
        <time>2019-08-05T16:15:24Z</time>
      </trkpt>
      <trkpt lat="42.940278" lon="-0.693684">
        <ele>1477.5</ele>
        <time>2019-08-05T16:15:32Z</time>
      </trkpt>
      <trkpt lat="42.940308" lon="-0.693570">
        <ele>1475.5</ele>
        <time>2019-08-05T16:15:42Z</time>
      </trkpt>
      <trkpt lat="42.940305" lon="-0.693463">
        <ele>1472.6</ele>
        <time>2019-08-05T16:15:55Z</time>
      </trkpt>
      <trkpt lat="42.940297" lon="-0.693339">
        <ele>1468.5</ele>
        <time>2019-08-05T16:16:11Z</time>
      </trkpt>
      <trkpt lat="42.940311" lon="-0.693193">
        <ele>1465.1</ele>
        <time>2019-08-05T16:16:23Z</time>
      </trkpt>
      <trkpt lat="42.940374" lon="-0.693084">
        <ele>1461.9</ele>
        <time>2019-08-05T16:16:36Z</time>
      </trkpt>
      <trkpt lat="42.940368" lon="-0.692973">
        <ele>1459.0</ele>
        <time>2019-08-05T16:16:47Z</time>
      </trkpt>
      <trkpt lat="42.940397" lon="-0.692866">
        <ele>1456.9</ele>
        <time>2019-08-05T16:16:55Z</time>
      </trkpt>
      <trkpt lat="42.940444" lon="-0.692756">
        <ele>1454.7</ele>
        <time>2019-08-05T16:17:04Z</time>
      </trkpt>
      <trkpt lat="42.940514" lon="-0.692676">
        <ele>1452.4</ele>
        <time>2019-08-05T16:17:13Z</time>
      </trkpt>
      <trkpt lat="42.940555" lon="-0.692594">
        <ele>1449.3</ele>
        <time>2019-08-05T16:17:27Z</time>
      </trkpt>
      <trkpt lat="42.940631" lon="-0.692486">
        <ele>1441.8</ele>
        <time>2019-08-05T16:17:50Z</time>
      </trkpt>
      <trkpt lat="42.940705" lon="-0.692381">
        <ele>1438.6</ele>
        <time>2019-08-05T16:18:02Z</time>
      </trkpt>
      <trkpt lat="42.940795" lon="-0.692263">
        <ele>1434.5</ele>
        <time>2019-08-05T16:18:14Z</time>
      </trkpt>
      <trkpt lat="42.940886" lon="-0.692187">
        <ele>1431.8</ele>
        <time>2019-08-05T16:18:24Z</time>
      </trkpt>
      <trkpt lat="42.940971" lon="-0.692124">
        <ele>1429.1</ele>
        <time>2019-08-05T16:18:34Z</time>
      </trkpt>
      <trkpt lat="42.941093" lon="-0.692111">
        <ele>1426.3</ele>
        <time>2019-08-05T16:18:45Z</time>
      </trkpt>
      <trkpt lat="42.941211" lon="-0.692050">
        <ele>1424.6</ele>
        <time>2019-08-05T16:18:56Z</time>
      </trkpt>
      <trkpt lat="42.941289" lon="-0.691947">
        <ele>1422.0</ele>
        <time>2019-08-05T16:19:07Z</time>
      </trkpt>
      <trkpt lat="42.941359" lon="-0.691823">
        <ele>1420.0</ele>
        <time>2019-08-05T16:19:18Z</time>
      </trkpt>
      <trkpt lat="42.941473" lon="-0.691737">
        <ele>1416.9</ele>
        <time>2019-08-05T16:19:33Z</time>
      </trkpt>
      <trkpt lat="42.941544" lon="-0.691628">
        <ele>1413.4</ele>
        <time>2019-08-05T16:19:45Z</time>
      </trkpt>
      <trkpt lat="42.941621" lon="-0.691554">
        <ele>1410.3</ele>
        <time>2019-08-05T16:19:56Z</time>
      </trkpt>
      <trkpt lat="42.941738" lon="-0.691483">
        <ele>1408.4</ele>
        <time>2019-08-05T16:20:08Z</time>
      </trkpt>
      <trkpt lat="42.941806" lon="-0.691311">
        <ele>1405.8</ele>
        <time>2019-08-05T16:20:21Z</time>
      </trkpt>
      <trkpt lat="42.941811" lon="-0.691134">
        <ele>1404.1</ele>
        <time>2019-08-05T16:20:31Z</time>
      </trkpt>
      <trkpt lat="42.941840" lon="-0.690954">
        <ele>1402.9</ele>
        <time>2019-08-05T16:20:42Z</time>
      </trkpt>
      <trkpt lat="42.941902" lon="-0.690803">
        <ele>1401.3</ele>
        <time>2019-08-05T16:20:52Z</time>
      </trkpt>
      <trkpt lat="42.941869" lon="-0.690658">
        <ele>1400.2</ele>
        <time>2019-08-05T16:21:02Z</time>
      </trkpt>
      <trkpt lat="42.941886" lon="-0.690495">
        <ele>1397.9</ele>
        <time>2019-08-05T16:21:12Z</time>
      </trkpt>
      <trkpt lat="42.941937" lon="-0.690329">
        <ele>1396.1</ele>
        <time>2019-08-05T16:21:21Z</time>
      </trkpt>
      <trkpt lat="42.941978" lon="-0.690185">
        <ele>1394.5</ele>
        <time>2019-08-05T16:21:29Z</time>
      </trkpt>
      <trkpt lat="42.942036" lon="-0.690066">
        <ele>1392.6</ele>
        <time>2019-08-05T16:21:39Z</time>
      </trkpt>
      <trkpt lat="42.942089" lon="-0.689966">
        <ele>1391.4</ele>
        <time>2019-08-05T16:21:46Z</time>
      </trkpt>
      <trkpt lat="42.942105" lon="-0.689850">
        <ele>1390.2</ele>
        <time>2019-08-05T16:21:53Z</time>
      </trkpt>
      <trkpt lat="42.942137" lon="-0.689751">
        <ele>1389.3</ele>
        <time>2019-08-05T16:22:00Z</time>
      </trkpt>
      <trkpt lat="42.942176" lon="-0.689646">
        <ele>1388.2</ele>
        <time>2019-08-05T16:22:07Z</time>
      </trkpt>
      <trkpt lat="42.942170" lon="-0.689525">
        <ele>1386.7</ele>
        <time>2019-08-05T16:22:14Z</time>
      </trkpt>
      <trkpt lat="42.942189" lon="-0.689395">
        <ele>1384.9</ele>
        <time>2019-08-05T16:22:22Z</time>
      </trkpt>
      <trkpt lat="42.942240" lon="-0.689274">
        <ele>1383.6</ele>
        <time>2019-08-05T16:22:30Z</time>
      </trkpt>
      <trkpt lat="42.942301" lon="-0.689163">
        <ele>1382.1</ele>
        <time>2019-08-05T16:22:38Z</time>
      </trkpt>
      <trkpt lat="42.942355" lon="-0.689051">
        <ele>1381.3</ele>
        <time>2019-08-05T16:22:45Z</time>
      </trkpt>
      <trkpt lat="42.942343" lon="-0.688925">
        <ele>1380.4</ele>
        <time>2019-08-05T16:22:53Z</time>
      </trkpt>
      <trkpt lat="42.942321" lon="-0.688796">
        <ele>1379.3</ele>
        <time>2019-08-05T16:23:00Z</time>
      </trkpt>
      <trkpt lat="42.942306" lon="-0.688668">
        <ele>1378.2</ele>
        <time>2019-08-05T16:23:07Z</time>
      </trkpt>
      <trkpt lat="42.942321" lon="-0.688536">
        <ele>1376.9</ele>
        <time>2019-08-05T16:23:14Z</time>
      </trkpt>
      <trkpt lat="42.942309" lon="-0.688410">
        <ele>1375.3</ele>
        <time>2019-08-05T16:23:21Z</time>
      </trkpt>
      <trkpt lat="42.942319" lon="-0.688276">
        <ele>1373.5</ele>
        <time>2019-08-05T16:23:30Z</time>
      </trkpt>
      <trkpt lat="42.942366" lon="-0.688152">
        <ele>1370.8</ele>
        <time>2019-08-05T16:23:40Z</time>
      </trkpt>
      <trkpt lat="42.942425" lon="-0.688033">
        <ele>1368.9</ele>
        <time>2019-08-05T16:23:49Z</time>
      </trkpt>
      <trkpt lat="42.942471" lon="-0.687891">
        <ele>1367.1</ele>
        <time>2019-08-05T16:23:58Z</time>
      </trkpt>
      <trkpt lat="42.942471" lon="-0.687760">
        <ele>1364.3</ele>
        <time>2019-08-05T16:24:10Z</time>
      </trkpt>
      <trkpt lat="42.942523" lon="-0.687651">
        <ele>1361.3</ele>
        <time>2019-08-05T16:24:21Z</time>
      </trkpt>
      <trkpt lat="42.942649" lon="-0.687530">
        <ele>1358.8</ele>
        <time>2019-08-05T16:24:34Z</time>
      </trkpt>
      <trkpt lat="42.942715" lon="-0.687380">
        <ele>1357.4</ele>
        <time>2019-08-05T16:24:45Z</time>
      </trkpt>
      <trkpt lat="42.942697" lon="-0.687225">
        <ele>1354.7</ele>
        <time>2019-08-05T16:24:56Z</time>
      </trkpt>
      <trkpt lat="42.942762" lon="-0.687128">
        <ele>1351.9</ele>
        <time>2019-08-05T16:25:06Z</time>
      </trkpt>
      <trkpt lat="42.942794" lon="-0.686933">
        <ele>1348.5</ele>
        <time>2019-08-05T16:25:20Z</time>
      </trkpt>
      <trkpt lat="42.942837" lon="-0.686746">
        <ele>1347.1</ele>
        <time>2019-08-05T16:25:29Z</time>
      </trkpt>
      <trkpt lat="42.942831" lon="-0.686586">
        <ele>1345.9</ele>
        <time>2019-08-05T16:25:38Z</time>
      </trkpt>
      <trkpt lat="42.942879" lon="-0.686479">
        <ele>1345.1</ele>
        <time>2019-08-05T16:25:46Z</time>
      </trkpt>
      <trkpt lat="42.942909" lon="-0.686369">
        <ele>1344.5</ele>
        <time>2019-08-05T16:25:54Z</time>
      </trkpt>
      <trkpt lat="42.942929" lon="-0.686259">
        <ele>1343.7</ele>
        <time>2019-08-05T16:26:03Z</time>
      </trkpt>
      <trkpt lat="42.943013" lon="-0.686122">
        <ele>1342.6</ele>
        <time>2019-08-05T16:26:13Z</time>
      </trkpt>
      <trkpt lat="42.943040" lon="-0.685997">
        <ele>1341.8</ele>
        <time>2019-08-05T16:26:24Z</time>
      </trkpt>
      <trkpt lat="42.943058" lon="-0.685832">
        <ele>1340.8</ele>
        <time>2019-08-05T16:26:34Z</time>
      </trkpt>
      <trkpt lat="42.943077" lon="-0.685689">
        <ele>1339.7</ele>
        <time>2019-08-05T16:26:48Z</time>
      </trkpt>
      <trkpt lat="42.943083" lon="-0.685517">
        <ele>1340.1</ele>
        <time>2019-08-05T16:26:59Z</time>
      </trkpt>
      <trkpt lat="42.943106" lon="-0.685351">
        <ele>1340.4</ele>
        <time>2019-08-05T16:27:11Z</time>
      </trkpt>
      <trkpt lat="42.943125" lon="-0.685200">
        <ele>1340.7</ele>
        <time>2019-08-05T16:27:23Z</time>
      </trkpt>
      <trkpt lat="42.943113" lon="-0.684997">
        <ele>1340.0</ele>
        <time>2019-08-05T16:27:34Z</time>
      </trkpt>
      <trkpt lat="42.943064" lon="-0.684811">
        <ele>1339.1</ele>
        <time>2019-08-05T16:27:44Z</time>
      </trkpt>
      <trkpt lat="42.942986" lon="-0.684678">
        <ele>1337.5</ele>
        <time>2019-08-05T16:27:57Z</time>
      </trkpt>
      <trkpt lat="42.942891" lon="-0.684611">
        <ele>1335.5</ele>
        <time>2019-08-05T16:28:09Z</time>
      </trkpt>
      <trkpt lat="42.942901" lon="-0.684404">
        <ele>1332.6</ele>
        <time>2019-08-05T16:28:21Z</time>
      </trkpt>
      <trkpt lat="42.942933" lon="-0.684283">
        <ele>1330.7</ele>
        <time>2019-08-05T16:28:30Z</time>
      </trkpt>
      <trkpt lat="42.942897" lon="-0.684155">
        <ele>1327.1</ele>
        <time>2019-08-05T16:28:42Z</time>
      </trkpt>
      <trkpt lat="42.942896" lon="-0.684000">
        <ele>1323.2</ele>
        <time>2019-08-05T16:28:57Z</time>
      </trkpt>
      <trkpt lat="42.942890" lon="-0.683853">
        <ele>1319.5</ele>
        <time>2019-08-05T16:29:11Z</time>
      </trkpt>
      <trkpt lat="42.942849" lon="-0.683641">
        <ele>1315.6</ele>
        <time>2019-08-05T16:29:26Z</time>
      </trkpt>
      <trkpt lat="42.942810" lon="-0.683502">
        <ele>1310.8</ele>
        <time>2019-08-05T16:29:42Z</time>
      </trkpt>
      <trkpt lat="42.942720" lon="-0.683326">
        <ele>1303.1</ele>
        <time>2019-08-05T16:30:13Z</time>
      </trkpt>
      <trkpt lat="42.942703" lon="-0.683153">
        <ele>1298.6</ele>
        <time>2019-08-05T16:30:30Z</time>
      </trkpt>
      <trkpt lat="42.942723" lon="-0.682937">
        <ele>1294.8</ele>
        <time>2019-08-05T16:30:46Z</time>
      </trkpt>
      <trkpt lat="42.942682" lon="-0.682774">
        <ele>1290.8</ele>
        <time>2019-08-05T16:31:02Z</time>
      </trkpt>
      <trkpt lat="42.942631" lon="-0.682627">
        <ele>1286.1</ele>
        <time>2019-08-05T16:31:18Z</time>
      </trkpt>
      <trkpt lat="42.942645" lon="-0.682480">
        <ele>1283.3</ele>
        <time>2019-08-05T16:31:30Z</time>
      </trkpt>
      <trkpt lat="42.942600" lon="-0.682353">
        <ele>1279.5</ele>
        <time>2019-08-05T16:31:42Z</time>
      </trkpt>
      <trkpt lat="42.942550" lon="-0.682230">
        <ele>1276.3</ele>
        <time>2019-08-05T16:31:53Z</time>
      </trkpt>
      <trkpt lat="42.942528" lon="-0.682091">
        <ele>1273.7</ele>
        <time>2019-08-05T16:32:04Z</time>
      </trkpt>
      <trkpt lat="42.942541" lon="-0.681951">
        <ele>1272.1</ele>
        <time>2019-08-05T16:32:13Z</time>
      </trkpt>
      <trkpt lat="42.942559" lon="-0.681844">
        <ele>1269.1</ele>
        <time>2019-08-05T16:32:24Z</time>
      </trkpt>
      <trkpt lat="42.942595" lon="-0.681742">
        <ele>1265.6</ele>
        <time>2019-08-05T16:32:35Z</time>
      </trkpt>
      <trkpt lat="42.942532" lon="-0.681705">
        <ele>1256.9</ele>
        <time>2019-08-05T16:33:08Z</time>
      </trkpt>
      <trkpt lat="42.942440" lon="-0.681656">
        <ele>1247.8</ele>
        <time>2019-08-05T16:33:45Z</time>
      </trkpt>
      <trkpt lat="42.942412" lon="-0.681559">
        <ele>1239.8</ele>
        <time>2019-08-05T16:34:15Z</time>
      </trkpt>
      <trkpt lat="42.942409" lon="-0.681449">
        <ele>1236.1</ele>
        <time>2019-08-05T16:34:29Z</time>
      </trkpt>
      <trkpt lat="42.942510" lon="-0.681371">
        <ele>1231.6</ele>
        <time>2019-08-05T16:34:46Z</time>
      </trkpt>
      <trkpt lat="42.942635" lon="-0.681319">
        <ele>1227.3</ele>
        <time>2019-08-05T16:35:01Z</time>
      </trkpt>
      <trkpt lat="42.942640" lon="-0.681192">
        <ele>1223.8</ele>
        <time>2019-08-05T16:35:13Z</time>
      </trkpt>
      <trkpt lat="42.942549" lon="-0.681071">
        <ele>1219.0</ele>
        <time>2019-08-05T16:35:29Z</time>
      </trkpt>
      <trkpt lat="42.942598" lon="-0.680968">
        <ele>1215.3</ele>
        <time>2019-08-05T16:35:43Z</time>
      </trkpt>
      <trkpt lat="42.942532" lon="-0.680877">
        <ele>1211.7</ele>
        <time>2019-08-05T16:35:57Z</time>
      </trkpt>
      <trkpt lat="42.942503" lon="-0.680577">
        <ele>1197.4</ele>
        <time>2019-08-05T16:36:50Z</time>
      </trkpt>
      <trkpt lat="42.942644" lon="-0.680584">
        <ele>1195.3</ele>
        <time>2019-08-05T16:37:04Z</time>
      </trkpt>
      <trkpt lat="42.942741" lon="-0.680674">
        <ele>1192.5</ele>
        <time>2019-08-05T16:37:19Z</time>
      </trkpt>
      <trkpt lat="42.942816" lon="-0.680791">
        <ele>1182.3</ele>
        <time>2019-08-05T16:37:58Z</time>
      </trkpt>
      <trkpt lat="42.942904" lon="-0.680655">
        <ele>1179.1</ele>
        <time>2019-08-05T16:38:12Z</time>
      </trkpt>
      <trkpt lat="42.942941" lon="-0.680641">
        <ele>1174.3</ele>
        <time>2019-08-05T16:38:28Z</time>
      </trkpt>
      <trkpt lat="42.943074" lon="-0.680620">
        <ele>1170.2</ele>
        <time>2019-08-05T16:38:43Z</time>
      </trkpt>
      <trkpt lat="42.943167" lon="-0.680527">
        <ele>1165.8</ele>
        <time>2019-08-05T16:38:55Z</time>
      </trkpt>
      <trkpt lat="42.943304" lon="-0.680430">
        <ele>1162.5</ele>
        <time>2019-08-05T16:39:06Z</time>
      </trkpt>
      <trkpt lat="42.943372" lon="-0.680377">
        <ele>1159.2</ele>
        <time>2019-08-05T16:39:18Z</time>
      </trkpt>
      <trkpt lat="42.943353" lon="-0.680320">
        <ele>1156.3</ele>
        <time>2019-08-05T16:39:28Z</time>
      </trkpt>
      <trkpt lat="42.943315" lon="-0.680136">
        <ele>1141.1</ele>
        <time>2019-08-05T16:40:23Z</time>
      </trkpt>
      <trkpt lat="42.943267" lon="-0.680053">
        <ele>1138.1</ele>
        <time>2019-08-05T16:40:34Z</time>
      </trkpt>
      <trkpt lat="42.943209" lon="-0.679968">
        <ele>1134.9</ele>
        <time>2019-08-05T16:40:45Z</time>
      </trkpt>
      <trkpt lat="42.943120" lon="-0.679958">
        <ele>1132.3</ele>
        <time>2019-08-05T16:40:56Z</time>
      </trkpt>
      <trkpt lat="42.943120" lon="-0.679858">
        <ele>1128.9</ele>
        <time>2019-08-05T16:41:10Z</time>
      </trkpt>
      <trkpt lat="42.943186" lon="-0.679757">
        <ele>1126.2</ele>
        <time>2019-08-05T16:41:19Z</time>
      </trkpt>
      <trkpt lat="42.943274" lon="-0.679666">
        <ele>1123.2</ele>
        <time>2019-08-05T16:41:30Z</time>
      </trkpt>
      <trkpt lat="42.943286" lon="-0.679544">
        <ele>1121.5</ele>
        <time>2019-08-05T16:41:38Z</time>
      </trkpt>
      <trkpt lat="42.943350" lon="-0.679440">
        <ele>1120.7</ele>
        <time>2019-08-05T16:41:47Z</time>
      </trkpt>
      <trkpt lat="42.943449" lon="-0.679395">
        <ele>1120.2</ele>
        <time>2019-08-05T16:41:54Z</time>
      </trkpt>
      <trkpt lat="42.943562" lon="-0.679333">
        <ele>1120.2</ele>
        <time>2019-08-05T16:42:03Z</time>
      </trkpt>
      <trkpt lat="42.943584" lon="-0.679218">
        <ele>1120.6</ele>
        <time>2019-08-05T16:42:11Z</time>
      </trkpt>
      <trkpt lat="42.943493" lon="-0.679126">
        <ele>1120.2</ele>
        <time>2019-08-05T16:42:19Z</time>
      </trkpt>
      <trkpt lat="42.943441" lon="-0.679013">
        <ele>1119.3</ele>
        <time>2019-08-05T16:42:26Z</time>
      </trkpt>
      <trkpt lat="42.943395" lon="-0.678908">
        <ele>1118.5</ele>
        <time>2019-08-05T16:42:33Z</time>
      </trkpt>
      <trkpt lat="42.943362" lon="-0.678803">
        <ele>1118.0</ele>
        <time>2019-08-05T16:42:41Z</time>
      </trkpt>
      <trkpt lat="42.943319" lon="-0.678693">
        <ele>1117.4</ele>
        <time>2019-08-05T16:42:48Z</time>
      </trkpt>
      <trkpt lat="42.943277" lon="-0.678571">
        <ele>1116.9</ele>
        <time>2019-08-05T16:42:55Z</time>
      </trkpt>
      <trkpt lat="42.943236" lon="-0.678444">
        <ele>1116.3</ele>
        <time>2019-08-05T16:43:02Z</time>
      </trkpt>
      <trkpt lat="42.943181" lon="-0.678322">
        <ele>1115.5</ele>
        <time>2019-08-05T16:43:10Z</time>
      </trkpt>
      <trkpt lat="42.943130" lon="-0.678199">
        <ele>1114.9</ele>
        <time>2019-08-05T16:43:17Z</time>
      </trkpt>
      <trkpt lat="42.943066" lon="-0.678108">
        <ele>1114.7</ele>
        <time>2019-08-05T16:43:23Z</time>
      </trkpt>
      <trkpt lat="42.942976" lon="-0.678057">
        <ele>1114.4</ele>
        <time>2019-08-05T16:43:30Z</time>
      </trkpt>
      <trkpt lat="42.942898" lon="-0.677985">
        <ele>1113.7</ele>
        <time>2019-08-05T16:43:37Z</time>
      </trkpt>
      <trkpt lat="42.942879" lon="-0.677872">
        <ele>1113.4</ele>
        <time>2019-08-05T16:43:42Z</time>
      </trkpt>
      <trkpt lat="42.942792" lon="-0.677804">
        <ele>1112.6</ele>
        <time>2019-08-05T16:43:51Z</time>
      </trkpt>
      <trkpt lat="42.942713" lon="-0.677768">
        <ele>1112.2</ele>
        <time>2019-08-05T16:43:56Z</time>
      </trkpt>
      <trkpt lat="42.942648" lon="-0.677679">
        <ele>1112.1</ele>
        <time>2019-08-05T16:44:01Z</time>
      </trkpt>
      <trkpt lat="42.942589" lon="-0.677597">
        <ele>1111.9</ele>
        <time>2019-08-05T16:44:06Z</time>
      </trkpt>
      <trkpt lat="42.942549" lon="-0.677480">
        <ele>1111.2</ele>
        <time>2019-08-05T16:44:17Z</time>
      </trkpt>
      <trkpt lat="42.942520" lon="-0.677371">
        <ele>1110.8</ele>
        <time>2019-08-05T16:44:22Z</time>
      </trkpt>
      <trkpt lat="42.942463" lon="-0.677280">
        <ele>1109.7</ele>
        <time>2019-08-05T16:44:35Z</time>
      </trkpt>
      <trkpt lat="42.942350" lon="-0.677194">
        <ele>1109.3</ele>
        <time>2019-08-05T16:44:42Z</time>
      </trkpt>
      <trkpt lat="42.942244" lon="-0.677196">
        <ele>1109.0</ele>
        <time>2019-08-05T16:44:48Z</time>
      </trkpt>
      <trkpt lat="42.942157" lon="-0.677154">
        <ele>1108.4</ele>
        <time>2019-08-05T16:44:59Z</time>
      </trkpt>
      <trkpt lat="42.942055" lon="-0.677044">
        <ele>1107.9</ele>
        <time>2019-08-05T16:45:08Z</time>
      </trkpt>
      <trkpt lat="42.941993" lon="-0.676929">
        <ele>1107.7</ele>
        <time>2019-08-05T16:45:15Z</time>
      </trkpt>
      <trkpt lat="42.941920" lon="-0.676843">
        <ele>1107.4</ele>
        <time>2019-08-05T16:45:23Z</time>
      </trkpt>
    </trkseg>
  </trk>
</gpx>

